Provisional Data: North Branch Muddy Creek near Muddy Creek Forks, PA


Please select a monitoring station.
Please select start date.
Please select start date.

Toggle Unit: C/F Toggle Unit: C/F
Sample Time Temperature (C) Temperature (F) Specific Conductivity (mS/cm) pH   Turbidity (NTU+) DO (mg/L)
9/6/2021 12:00:00 AM 17.78 64.004 0.172 7.21 5.19 8.75
9/6/2021 12:15:00 AM 17.77 63.986 0.172 7.21 5.36 8.74
9/6/2021 12:30:00 AM 17.77 63.986 0.172 7.2 4.33 8.76
9/6/2021 12:45:00 AM 17.77 63.986 0.173 7.21 3.92 8.75
9/6/2021 1:00:00 AM 17.77 63.986 0.173 7.2 4.5 8.75
9/6/2021 1:15:00 AM 17.76 63.968 0.173 7.2 2.2 8.76
9/6/2021 1:30:00 AM 17.76 63.968 0.173 7.2 3.01 8.76
9/6/2021 1:45:00 AM 17.76 63.968 0.173 7.2 4.47 8.76
9/6/2021 2:00:00 AM 17.75 63.95 0.173 7.2 3.08 8.76
9/6/2021 2:15:00 AM 17.75 63.95 0.173 7.2 3.03 8.76
9/6/2021 2:30:00 AM 17.75 63.95 0.173 7.2 2.69 8.76
9/6/2021 2:45:00 AM 17.75 63.95 0.173 7.2 2.6 8.76
9/6/2021 3:00:00 AM 17.74 63.932 0.173 7.2 5.23 8.75
9/6/2021 3:15:00 AM 17.74 63.932 0.173 7.2 2.82 8.75
9/6/2021 3:30:00 AM 17.74 63.932 0.173 7.19 3.44 8.75
9/6/2021 3:45:00 AM 17.74 63.932 0.173 7.2 2.85 8.75
9/6/2021 4:00:00 AM 17.73 63.914 0.173 7.2 3.43 8.77
9/6/2021 4:15:00 AM 17.73 63.914 0.173 7.2 2.53 8.77
9/6/2021 4:30:00 AM 17.73 63.914 0.173 7.2 3.38 8.77
9/6/2021 4:45:00 AM 17.73 63.914 0.173 7.19 4.56 8.77
9/6/2021 5:00:00 AM 17.73 63.914 0.173 7.19 2.18 8.76
9/6/2021 5:15:00 AM 17.72 63.896 0.173 7.19 4.82 8.76
9/6/2021 5:30:00 AM 17.71 63.878 0.173 7.19 5.56 8.76
9/6/2021 5:45:00 AM 17.7 63.86 0.173 7.19 3.27 8.77
9/6/2021 6:00:00 AM 17.69 63.842 0.173 7.19 5.66 8.76
9/6/2021 6:15:00 AM 17.67 63.806 0.173 7.2 3.52 8.77
9/6/2021 6:30:00 AM 17.66 63.788 0.173 7.2 3 8.78
9/6/2021 6:45:00 AM 17.65 63.77 0.173 7.2 3 8.77
9/6/2021 7:00:00 AM 17.64 63.752 0.173 7.2 4.24 8.79
9/6/2021 7:15:00 AM 17.62 63.716 0.173 7.2 3.61 8.8
9/6/2021 7:30:00 AM 17.61 63.698 0.173 7.2 5 8.8
9/6/2021 7:45:00 AM 17.59 63.662 0.174 7.21 2.66 8.8
9/6/2021 8:00:00 AM 17.57 63.626 0.173 7.2 2.46 8.82
9/6/2021 8:15:00 AM 17.55 63.59 0.173 7.2 3.02 8.83
9/6/2021 8:30:00 AM 17.54 63.572 0.173 7.2 2.37 8.87
9/6/2021 8:45:00 AM 17.54 63.572 0.173 7.21 2.95 8.87
9/6/2021 9:00:00 AM 17.54 63.572 0.173 7.21 2.2 8.89
9/6/2021 9:15:00 AM 17.55 63.59 0.173 7.21 2.87 8.9
9/6/2021 9:30:00 AM 17.57 63.626 0.173 7.22 4.6 8.94
9/6/2021 9:45:00 AM 17.59 63.662 0.173 7.23 2.96 8.95
9/6/2021 10:00:00 AM 17.63 63.734 0.173 7.23 2.73 8.97
9/6/2021 10:15:00 AM 17.67 63.806 0.173 7.24 4.62 8.98
9/6/2021 10:30:00 AM 17.73 63.914 0.173 7.25 2.8 9.01
9/6/2021 10:45:00 AM 17.8 64.04 0.173 7.26 1.98 9.03
9/6/2021 11:00:00 AM 17.91 64.238 0.173 7.27 2.33 9.05
9/6/2021 11:15:00 AM 18.03 64.454 0.173 7.27 2.55 9.06
9/6/2021 11:30:00 AM 18.19 64.742 0.173 7.29 2.17 9.08
9/6/2021 11:45:00 AM 18.33 64.994 0.173 7.3 1.77 9.11
9/6/2021 12:00:00 PM 18.51 65.318 0.173 7.3 2.24 9.12
9/6/2021 12:15:00 PM 18.75 65.75 0.173 7.31 3.03 9.11
9/6/2021 12:30:00 PM 18.99 66.182 0.173 7.33 1.61 9.12
9/6/2021 12:45:00 PM 19.26 66.668 0.173 7.32 1.44 9.09
9/6/2021 1:00:00 PM 19.53 67.154 0.173 7.33 2.03 9.1
9/6/2021 1:15:00 PM 19.82 67.676 0.173 7.33 2.41 9.09
9/6/2021 1:30:00 PM 20.08 68.144 0.173 7.35 1.73 9.08
9/6/2021 1:45:00 PM 20.38 68.684 0.173 7.35 1.9 9.07
9/6/2021 2:00:00 PM 20.65 69.17 0.173 7.36 2.01 9.07
9/6/2021 2:15:00 PM 20.88 69.584 0.173 7.36 2.83 9.02
9/6/2021 2:30:00 PM 21.12 70.016 0.173 7.37 1.6 9.03
9/6/2021 2:45:00 PM 21.2 70.16 0.173 7.37 1.81 9
9/6/2021 3:00:00 PM 21.26 70.268 0.174 7.38 1.96 8.96
9/6/2021 3:15:00 PM 21.32 70.376 0.174 7.38 2.27 8.94
9/6/2021 3:30:00 PM 21.28 70.304 0.174 7.39 2.17 8.89
9/6/2021 3:45:00 PM 21.27 70.286 0.174 7.4 1.85 8.86
9/6/2021 4:00:00 PM 21.25 70.25 0.174 7.4 2.11 8.83
9/6/2021 4:15:00 PM 21.18 70.124 0.174 7.4 3.05 8.81
9/6/2021 4:30:00 PM 21.09 69.962 0.174 7.4 1.9 8.76
9/6/2021 4:45:00 PM 21.02 69.836 0.174 7.41 2.4 8.75
9/6/2021 5:00:00 PM 20.94 69.692 0.174 7.4 3.27 8.74
9/6/2021 5:15:00 PM 20.86 69.548 0.174 7.41 2.38 8.7
9/6/2021 5:30:00 PM 20.78 69.404 0.174 7.4 1.74 8.66
9/6/2021 5:45:00 PM 20.7 69.26 0.174 7.4 3.22 8.63
9/6/2021 6:00:00 PM 20.63 69.134 0.174 7.39 2.35 8.61
9/6/2021 6:15:00 PM 20.55 68.99 0.174 7.39 1.37 8.61
9/6/2021 6:30:00 PM 20.46 68.828 0.175 7.39 1.49 8.58
9/6/2021 6:45:00 PM 20.38 68.684 0.175 7.38 1.43 8.55
9/6/2021 7:00:00 PM 20.3 68.54 0.175 7.38 1.66 8.52
9/6/2021 7:15:00 PM 20.21 68.378 0.175 7.37 2.14 8.49
9/6/2021 7:30:00 PM 20.13 68.234 0.175 7.37 2.46 8.47
9/6/2021 7:45:00 PM 20.06 68.108 0.175 7.36 2.2 8.44
9/6/2021 8:00:00 PM 19.98 67.964 0.175 7.36 1.77 8.43
9/6/2021 8:15:00 PM 19.9 67.82 0.175 7.35 3.86 8.41
9/6/2021 8:30:00 PM 19.83 67.694 0.175 7.34 2.09 8.41
9/6/2021 8:45:00 PM 19.76 67.568 0.175 7.34 1.96 8.4
9/6/2021 9:00:00 PM 19.7 67.46 0.175 7.33 2.65 8.41
9/6/2021 9:15:00 PM 19.64 67.352 0.175 7.33 3.29 8.4
9/6/2021 9:30:00 PM 19.58 67.244 0.175 7.32 2.75 8.4
9/6/2021 9:45:00 PM 19.52 67.136 0.174 7.32 2.47 8.4
9/6/2021 10:00:00 PM 19.45 67.01 0.174 7.31 3.39 8.41
9/6/2021 10:15:00 PM 19.39 66.902 0.174 7.31 2.57 8.41
9/6/2021 10:30:00 PM 19.32 66.776 0.174 7.31 2.05 8.42
9/6/2021 10:45:00 PM 19.26 66.668 0.174 7.31 2.78 8.43
9/6/2021 11:00:00 PM 19.19 66.542 0.175 7.3 2.57 8.43
9/6/2021 11:15:00 PM 19.13 66.434 0.175 7.29 2.08 8.44
9/6/2021 11:30:00 PM 19.06 66.308 0.174 7.29 2.07 8.45
9/6/2021 11:45:00 PM 19 66.2 0.174 7.28 2.78 8.47
9/7/2021 12:00:00 AM 18.93 66.074 0.175 7.28 3.51 8.47
9/7/2021 12:15:00 AM 18.87 65.966 0.175 7.28 3.87 8.49
9/7/2021 12:30:00 AM 18.81 65.858 0.175 7.28 2.36 8.49
9/7/2021 12:45:00 AM 18.75 65.75 0.175 7.28 1.93 8.51
9/7/2021 1:00:00 AM 18.69 65.642 0.175 7.28 2.91 8.52
9/7/2021 1:15:00 AM 18.63 65.534 0.175 7.27 2.26 8.54
9/7/2021 1:30:00 AM 18.58 65.444 0.175 7.27 1.96 8.54
9/7/2021 1:45:00 AM 18.53 65.354 0.175 7.27 2.77 8.55
9/7/2021 2:00:00 AM 18.48 65.264 0.175 7.26 2.22 8.55
9/7/2021 2:15:00 AM 18.43 65.174 0.175 7.26 2.39 8.57
9/7/2021 2:30:00 AM 18.38 65.084 0.175 7.26 2.71 8.57
9/7/2021 2:45:00 AM 18.33 64.994 0.175 7.26 2.36 8.59
9/7/2021 3:00:00 AM 18.28 64.904 0.175 7.26 2.07 8.6
9/7/2021 3:15:00 AM 18.24 64.832 0.175 7.26 2.77 8.6
9/7/2021 3:30:00 AM 18.19 64.742 0.175 7.26 2.77 8.61
9/7/2021 3:45:00 AM 18.14 64.652 0.175 7.26 2.76 8.63
9/7/2021 4:00:00 AM 18.09 64.562 0.175 7.26 3.6 8.64
9/7/2021 4:15:00 AM 18.04 64.472 0.175 7.25 1.77 8.65
9/7/2021 4:30:00 AM 18 64.4 0.175 7.25 1.51 8.66
9/7/2021 4:45:00 AM 17.95 64.31 0.175 7.25 2.84 8.67
9/7/2021 5:00:00 AM 17.9 64.22 0.175 7.25 2.77 8.68
9/7/2021 5:15:00 AM 17.85 64.13 0.175 7.24 3 8.7
9/7/2021 5:30:00 AM 17.8 64.04 0.175 7.24 2.37 8.7
9/7/2021 5:45:00 AM 17.74 63.932 0.175 7.24 4.43 8.72
9/7/2021 6:00:00 AM 17.69 63.842 0.175 7.25 3.62 8.73
9/7/2021 6:15:00 AM 17.64 63.752 0.175 7.24 3.86 8.74
9/7/2021 6:30:00 AM 17.58 63.644 0.175 7.24 2.56 8.75
9/7/2021 6:45:00 AM 17.53 63.554 0.175 7.24 4.13 8.77
9/7/2021 7:00:00 AM 17.47 63.446 0.175 7.24 4.54 8.78
9/7/2021 7:15:00 AM 17.41 63.338 0.175 7.24 3.09 8.8
9/7/2021 7:30:00 AM 17.37 63.266 0.175 7.24 2.76 8.82
9/7/2021 7:45:00 AM 17.32 63.176 0.175 7.24 1.9 8.84
9/7/2021 8:00:00 AM 17.27 63.086 0.174 7.24 2.64 8.88
9/7/2021 8:15:00 AM 17.23 63.014 0.175 7.25 2.19 8.9
9/7/2021 8:30:00 AM 17.2 62.96 0.174 7.25 2.87 8.93
9/7/2021 8:45:00 AM 17.18 62.924 0.174 7.25 2.46 8.94
9/7/2021 9:00:00 AM 17.17 62.906 0.174 7.25 3.04 8.97
9/7/2021 9:15:00 AM 17.17 62.906 0.174 7.25 3.73 9
9/7/2021 9:30:00 AM 17.18 62.924 0.174 7.26 2.46 9.04
9/7/2021 9:45:00 AM 17.2 62.96 0.174 7.26 2.97 9.06
9/7/2021 10:00:00 AM 17.23 63.014 0.174 7.27 1.75 9.08
9/7/2021 10:15:00 AM 17.27 63.086 0.174 7.26 2.23 9.12
9/7/2021 10:30:00 AM 17.33 63.194 0.174 7.27 2.02 9.14
9/7/2021 10:45:00 AM 17.4 63.32 0.174 7.27 2.68 9.16
9/7/2021 11:00:00 AM 17.49 63.482 0.174 7.27 2.3 9.21
9/7/2021 11:15:00 AM 17.62 63.716 0.174 7.28 2.42 9.24
9/7/2021 11:30:00 AM 17.77 63.986 0.174 7.28 1.96 9.27
9/7/2021 11:45:00 AM 17.92 64.256 0.174 7.29 2.08 9.29
9/7/2021 12:00:00 PM 18.11 64.598 0.173 7.3 1.86 9.31
9/7/2021 12:15:00 PM 18.32 64.976 0.173 7.31 3.03 9.33
9/7/2021 12:30:00 PM 18.57 65.426 0.173 7.31 2.34 9.34
9/7/2021 12:45:00 PM 18.83 65.894 0.173 7.32 1.97 9.36
9/7/2021 1:00:00 PM 19.15 66.47 0.173 7.33 1.99 9.35
9/7/2021 1:15:00 PM 19.43 66.974 0.174 7.34 2.04 9.35
9/7/2021 1:30:00 PM 19.69 67.442 0.174 7.35 1.96 9.36
9/7/2021 1:45:00 PM 19.9 67.82 0.174 7.36 2.46 9.35
9/7/2021 2:00:00 PM 20.16 68.288 0.174 7.36 2.92 9.35
9/7/2021 2:15:00 PM 20.44 68.792 0.174 7.37 2.67 9.36
9/7/2021 2:30:00 PM 20.73 69.314 0.174 7.37 2.4 9.34
9/7/2021 2:45:00 PM 20.88 69.584 0.175 7.38 1.9 9.31
9/7/2021 3:00:00 PM 20.95 69.71 0.175 7.38 2.13 9.28
9/7/2021 3:15:00 PM 20.98 69.764 0.175 7.39 1.7 9.25
9/7/2021 3:30:00 PM 20.96 69.728 0.175 7.4 1.82 9.21
9/7/2021 3:45:00 PM 20.92 69.656 0.175 7.41 1.66 9.2
9/7/2021 4:00:00 PM 20.87 69.566 0.175 7.42 2.37 9.16
9/7/2021 4:15:00 PM 20.85 69.53 0.175 7.43 2.21 9.12
9/7/2021 4:30:00 PM 20.81 69.458 0.174 7.44 1.91 9.09
9/7/2021 4:45:00 PM 20.76 69.368 0.175 7.45 2.04 9.05
9/7/2021 5:00:00 PM 20.71 69.278 0.175 7.44 2.57 9.01
9/7/2021 5:15:00 PM 20.67 69.206 0.175 7.45 2.16 8.98
9/7/2021 5:30:00 PM 20.62 69.116 0.175 7.45 2.56 8.94
9/7/2021 5:45:00 PM 20.54 68.972 0.175 7.45 1.96 8.84
9/7/2021 6:00:00 PM 20.46 68.828 0.175 7.45 1.71 8.82
9/7/2021 6:15:00 PM 20.38 68.684 0.175 7.44 2.88 8.78
9/7/2021 6:30:00 PM 20.31 68.558 0.175 7.43 1.82 8.72
9/7/2021 6:45:00 PM 20.24 68.432 0.175 7.44 2.27 8.7
9/7/2021 7:00:00 PM 20.16 68.288 0.175 7.43 1.77 8.68
9/7/2021 7:15:00 PM 20.08 68.144 0.175 7.42 2.58 8.63
9/7/2021 7:30:00 PM 19.99 67.982 0.175 7.41 1.73 8.6
9/7/2021 7:45:00 PM 19.9 67.82 0.175 7.4 1.68 8.56
9/7/2021 8:00:00 PM 19.81 67.658 0.175 7.4 1.85 8.55
9/7/2021 8:15:00 PM 19.72 67.496 0.175 7.38 2.25 8.51
9/7/2021 8:30:00 PM 19.64 67.352 0.175 7.37 2.25 8.5
9/7/2021 8:45:00 PM 19.57 67.226 0.176 7.37 3.71 8.49
9/7/2021 9:00:00 PM 19.51 67.118 0.176 7.35 2.85 8.49
9/7/2021 9:15:00 PM 19.45 67.01 0.176 7.35 1.93 8.48
9/7/2021 9:30:00 PM 19.4 66.92 0.176 7.35 2.05 8.47
9/7/2021 9:45:00 PM 19.35 66.83 0.176 7.34 3.08 8.47
9/7/2021 10:00:00 PM 19.29 66.722 0.176 7.34 1.79 8.46
9/7/2021 10:15:00 PM 19.23 66.614 0.176 7.32 1.81 8.47
9/7/2021 10:30:00 PM 19.18 66.524 0.176 7.32 3.55 8.47
9/7/2021 10:45:00 PM 19.13 66.434 0.176 7.32 2.04 8.46
9/7/2021 11:00:00 PM 19.07 66.326 0.175 7.31 1.83 8.47
9/7/2021 11:15:00 PM 19.03 66.254 0.176 7.3 1.81 8.47
9/7/2021 11:30:00 PM 18.97 66.146 0.176 7.3 1.62 8.49
9/7/2021 11:45:00 PM 18.92 66.056 0.176 7.3 2.47 8.49
9/8/2021 12:00:00 AM 18.87 65.966 0.175 7.3 2.61 8.49
9/8/2021 12:15:00 AM 18.82 65.876 0.175 7.29 5.38 8.49
9/8/2021 12:30:00 AM 18.78 65.804 0.175 7.28 2.17 8.5
9/8/2021 12:45:00 AM 18.73 65.714 0.175 7.28 2.03 8.5
9/8/2021 1:00:00 AM 18.69 65.642 0.175 7.28 4.7 8.51
9/8/2021 1:15:00 AM 18.65 65.57 0.175 7.27 1.7 8.52
9/8/2021 1:30:00 AM 18.61 65.498 0.175 7.27 1.56 8.53
9/8/2021 1:45:00 AM 18.57 65.426 0.175 7.27 1.49 8.53
9/8/2021 2:00:00 AM 18.53 65.354 0.175 7.27 1.91 8.53
9/8/2021 2:15:00 AM 18.49 65.282 0.175 7.26 2.06 8.55
9/8/2021 2:30:00 AM 18.46 65.228 0.175 7.26 2.62 8.55
9/8/2021 2:45:00 AM 18.43 65.174 0.175 7.26 5.39 8.55
9/8/2021 3:00:00 AM 18.39 65.102 0.175 7.26 3.48 8.57
9/8/2021 3:15:00 AM 18.36 65.048 0.175 7.26 3.58 8.57
9/8/2021 3:30:00 AM 18.32 64.976 0.175 7.27 2.05 8.56
9/8/2021 3:45:00 AM 18.28 64.904 0.175 7.26 2.36 8.58
9/8/2021 4:00:00 AM 18.25 64.85 0.175 7.25 2.01 8.59
9/8/2021 4:15:00 AM 18.21 64.778 0.175 7.26 2.45 8.59
9/8/2021 4:30:00 AM 18.18 64.724 0.175 7.26 3.46 8.6
9/8/2021 4:45:00 AM 18.14 64.652 0.175 7.26 1.89 8.6
9/8/2021 5:00:00 AM 18.11 64.598 0.175 7.25 2.54 8.61
9/8/2021 5:15:00 AM 18.08 64.544 0.175 7.25 2.85 8.61
9/8/2021 5:30:00 AM 18.05 64.49 0.175 7.26 1.78 8.61
9/8/2021 5:45:00 AM 18.02 64.436 0.175 7.25 3.42 8.62
9/8/2021 6:00:00 AM 17.99 64.382 0.175 7.26 2.98 8.64
9/8/2021 6:15:00 AM 17.97 64.346 0.175 7.24 2.65 8.64
9/8/2021 6:30:00 AM 17.94 64.292 0.175 7.25 3.31 8.65
9/8/2021 6:45:00 AM 17.92 64.256 0.175 7.25 1.82 8.65
9/8/2021 7:00:00 AM 17.89 64.202 0.175 7.24 2.86 8.66
9/8/2021 7:15:00 AM 17.87 64.166 0.175 7.25 2.28 8.68
9/8/2021 7:30:00 AM 17.84 64.112 0.175 7.25 2.01 8.69
9/8/2021 7:45:00 AM 17.83 64.094 0.175 7.26 2.8 8.71
9/8/2021 8:00:00 AM 17.82 64.076 0.175 7.25 2.62 8.74
9/8/2021 8:15:00 AM 17.83 64.094 0.175 7.24 2.08 8.79
9/8/2021 8:30:00 AM 17.84 64.112 0.175 7.24 2.37 8.83
9/8/2021 8:45:00 AM 17.86 64.148 0.175 7.25 1.93 8.87
9/8/2021 9:00:00 AM 17.88 64.184 0.175 7.25 2.01 8.92
9/8/2021 9:15:00 AM 17.9 64.22 0.175 7.26 2.49 8.93
9/8/2021 9:30:00 AM 17.94 64.292 0.175 7.25 2 8.94
9/8/2021 9:45:00 AM 17.98 64.364 0.175 7.26 1.92 8.97
9/8/2021 10:00:00 AM 18.03 64.454 0.175 7.25 3.8 9
9/8/2021 10:15:00 AM 18.09 64.562 0.175 7.25 1.62 9.02
9/8/2021 10:30:00 AM 18.16 64.688 0.175 7.26 2.01 9.04
9/8/2021 10:45:00 AM 18.25 64.85 0.175 7.26 4.5 9.09
9/8/2021 11:00:00 AM 18.36 65.048 0.175 7.27 1.37 9.11
9/8/2021 11:15:00 AM 18.48 65.264 0.175 7.27 2.15 9.19
9/8/2021 11:30:00 AM 18.65 65.57 0.175 7.27 1.45 9.21
9/8/2021 11:45:00 AM 18.8 65.84 0.174 7.28 1.72 9.25
9/8/2021 12:00:00 PM 18.98 66.164 0.174 7.28 1.75 9.27
9/8/2021 12:15:00 PM 19.21 66.578 0.174 7.27 1.47 9.31
9/8/2021 12:30:00 PM 19.49 67.082 0.174 7.29 1.18 9.34
9/8/2021 12:45:00 PM 19.76 67.568 0.174 7.29 1.56 9.39
9/8/2021 1:00:00 PM 19.98 67.964 0.174 7.3 1.46 9.4
9/8/2021 1:15:00 PM 20.21 68.378 0.174 7.31 1.23 9.38
9/8/2021 1:30:00 PM 20.47 68.846 0.174 7.32 1.39 9.41
9/8/2021 1:45:00 PM 20.77 69.386 0.174 7.33 1.5 9.4
9/8/2021 2:00:00 PM 21.12 70.016 0.174 7.35 1.82 9.41
9/8/2021 2:15:00 PM 21.4 70.52 0.174 7.36 1.16 9.4
9/8/2021 2:30:00 PM 21.58 70.844 0.175 7.38 1.76 9.39
9/8/2021 2:45:00 PM 21.72 71.096 0.175 7.38 1.66 9.35
9/8/2021 3:00:00 PM 21.73 71.114 0.175 7.38 1.41 9.32
9/8/2021 3:15:00 PM 21.77 71.186 0.174 7.39 1.39 9.26
9/8/2021 3:30:00 PM 21.75 71.15 0.175 7.38 1.15 9.21
9/8/2021 3:45:00 PM 21.76 71.168 0.175 7.4 1.4 9.14
9/8/2021 4:00:00 PM 21.72 71.096 0.175 7.4 1.66 9.11
9/8/2021 4:15:00 PM 21.7 71.06 0.175 7.42 2.27 9.08
9/8/2021 4:30:00 PM 21.69 71.042 0.175 7.44 1.74 9.07
9/8/2021 4:45:00 PM 21.67 71.006 0.175 7.44 1.2 9.04
9/8/2021 5:00:00 PM 21.61 70.898 0.175 7.45 2.02 8.99
9/8/2021 5:15:00 PM 21.55 70.79 0.175 7.47 1.15 8.9
9/8/2021 5:30:00 PM 21.51 70.718 0.175 7.47 1.45 8.87
9/8/2021 5:45:00 PM 21.44 70.592 0.175 7.47 1.47 8.82
9/8/2021 6:00:00 PM 21.37 70.466 0.175 7.48 1.62 8.78
9/8/2021 6:15:00 PM 21.28 70.304 0.175 7.48 1.56 8.71
9/8/2021 6:30:00 PM 21.21 70.17799 0.176 7.48 1.41 8.64
9/8/2021 6:45:00 PM 21.14 70.052 0.176 7.47 1.9 8.59
9/8/2021 7:00:00 PM 21.07 69.926 0.176 7.47 1.8 8.53
9/8/2021 7:15:00 PM 21.01 69.818 0.176 7.46 1.79 8.48
9/8/2021 7:30:00 PM 20.95 69.71 0.176 7.45 1.59 8.43
9/8/2021 7:45:00 PM 20.9 69.62 0.176 7.44 2.41 8.37
9/8/2021 8:00:00 PM 20.84 69.512 0.176 7.44 1.49 8.33
9/8/2021 8:15:00 PM 20.78 69.404 0.176 7.43 4.44 8.29
9/8/2021 8:30:00 PM 20.73 69.314 0.177 7.41 1.42 8.26
9/8/2021 8:45:00 PM 20.68 69.224 0.177 7.39 1.47 8.26
9/8/2021 9:00:00 PM 20.63 69.134 0.177 7.39 2.13 8.21
9/8/2021 9:15:00 PM 20.59 69.062 0.177 7.36 1.25 8.2
9/8/2021 9:30:00 PM 20.55 68.99 0.177 7.35 1.38 8.19
9/8/2021 9:45:00 PM 20.51 68.918 0.177 7.34 1.87 8.17
9/8/2021 10:00:00 PM 20.48 68.864 0.177 7.33 1.96 8.17
9/8/2021 10:15:00 PM 20.45 68.81 0.177 7.33 1.48 8.14
9/8/2021 10:30:00 PM 20.43 68.774 0.177 7.32 1.32 8.15
9/8/2021 10:45:00 PM 20.41 68.738 0.177 7.31 1.65 8.14
9/8/2021 11:00:00 PM 20.38 68.684 0.177 7.29 1.67 8.12
9/8/2021 11:15:00 PM 20.33 68.594 0.177 7.29 2.23 8.12
9/8/2021 11:30:00 PM 20.25 68.45 0.176 7.27 12.83 8.14
9/8/2021 11:45:00 PM 20.21 68.378 0.175 7.26 3.13 8.14
9/9/2021 12:00:00 AM 20.17 68.306 0.173 7.23 3.29 8.12
9/9/2021 12:15:00 AM 20.12 68.216 0.173 7.21 2.53 8.12
9/9/2021 12:30:00 AM 20.09 68.162 0.173 7.2 3.35 8.12
9/9/2021 12:45:00 AM 20.06 68.108 0.173 7.19 3.21 8.13
9/9/2021 1:00:00 AM 20.03 68.054 0.172 7.17 3.42 8.15
9/9/2021 1:15:00 AM 19.99 67.982 0.172 7.16 4.39 8.15
9/9/2021 1:30:00 AM 19.95 67.91 0.172 7.16 5.46 8.15
9/9/2021 1:45:00 AM 19.92 67.856 0.171 7.14 8.11 8.16
9/9/2021 2:00:00 AM 19.89 67.802 0.17 7.15 5.9 8.17
9/9/2021 2:15:00 AM 19.86 67.748 0.169 7.15 5.71 8.18
9/9/2021 2:30:00 AM 19.83 67.694 0.168 7.18 6.55 8.21
9/9/2021 2:45:00 AM 19.8 67.64 0.167 7.2 8.08 8.2
9/9/2021 3:00:00 AM 19.78 67.604 0.166 7.2 7.24 8.22
9/9/2021 3:15:00 AM 19.76 67.568 0.165 7.21 10.54 8.24
9/9/2021 3:30:00 AM 19.74 67.532 0.164 7.21 41.18 8.26
9/9/2021 3:45:00 AM 19.73 67.514 0.165 7.22 75.66 8.26
9/9/2021 4:00:00 AM 19.75 67.55 0.166 7.21 77.43 8.27
9/9/2021 4:15:00 AM 19.77 67.586 0.167 7.23 59.41 8.29
9/9/2021 4:30:00 AM 19.78 67.604 0.169 7.24 57.56 8.31
9/9/2021 4:45:00 AM 19.76 67.568 0.17 7.25 67.84 8.32
9/9/2021 5:00:00 AM 19.73 67.514 0.17 7.25 74.47 8.31
9/9/2021 5:15:00 AM 19.67 67.406 0.17 7.26 64.79 8.32
9/9/2021 5:30:00 AM 19.61 67.298 0.169 7.27 84.08 8.33
9/9/2021 5:45:00 AM 19.54 67.172 0.169 7.27 103.2 8.33
9/9/2021 6:00:00 AM 19.47 67.046 0.169 7.26 101.1 8.34
9/9/2021 6:15:00 AM 19.39 66.902 0.171 7.27 101.8 8.35
9/9/2021 6:30:00 AM 19.32 66.776 0.171 7.27 104.6 8.34
9/9/2021 6:45:00 AM 19.24 66.632 0.17 7.28 104.8 8.35
9/9/2021 7:00:00 AM 19.18 66.524 0.167 7.27 103.9 8.35
9/9/2021 7:15:00 AM 19.13 66.434 0.162 7.27 94.95 8.37
9/9/2021 7:30:00 AM 19.08 66.344 0.158 7.27 103.7 8.38
9/9/2021 7:45:00 AM 19.04 66.272 0.154 7.26 68.72 8.37
9/9/2021 8:00:00 AM 19.02 66.236 0.151 7.26 71.96 8.37
9/9/2021 8:15:00 AM 19 66.2 0.149 7.25 73.58 8.4
9/9/2021 8:30:00 AM 18.99 66.182 0.147 7.25 62.66 8.41
9/9/2021 8:45:00 AM 18.98 66.164 0.147 7.25 70.97 8.43
9/9/2021 9:00:00 AM 18.98 66.164 0.147 7.25 47.67 8.44
9/9/2021 9:15:00 AM 18.99 66.182 0.146 7.25 53.2 8.45
9/9/2021 9:30:00 AM 19.01 66.218 0.146 7.26 42.24 8.46
9/9/2021 9:45:00 AM 19.03 66.254 0.146 7.26 45.1 8.48
9/9/2021 10:00:00 AM 19.04 66.272 0.146 7.26 36.47 8.49
9/9/2021 10:15:00 AM 19.06 66.308 0.147 7.26 31.02 8.5
9/9/2021 10:30:00 AM 19.08 66.344 0.147 7.26 35.63 8.52
9/9/2021 10:45:00 AM 19.1 66.38 0.148 7.27 29.35 8.54
9/9/2021 11:00:00 AM 19.14 66.452 0.148 7.27 25.19 8.57
9/9/2021 11:15:00 AM 19.17 66.506 0.149 7.28 18.04 8.59
9/9/2021 11:30:00 AM 19.19 66.542 0.15 7.29 20.25 8.61
9/9/2021 11:45:00 AM 19.21 66.578 0.15 7.29 18.88 8.62
9/9/2021 12:00:00 PM 19.25 66.65 0.151 7.3 17.08 8.66
9/9/2021 12:15:00 PM 19.3 66.74 0.151 7.3 15.67 8.7
9/9/2021 12:30:00 PM 19.34 66.812 0.151 7.31 15.86 8.74
9/9/2021 12:45:00 PM 19.39 66.902 0.152 7.32 14.29 8.78
9/9/2021 1:00:00 PM 19.42 66.956 0.152 7.32 17.3 8.78
9/9/2021 1:15:00 PM 19.45 67.01 0.152 7.33 14.62 8.79
9/9/2021 1:30:00 PM 19.49 67.082 0.153 7.34 17.39 8.82
9/9/2021 1:45:00 PM 19.51 67.118 0.153 7.34 11.91 8.83
9/9/2021 2:00:00 PM 19.53 67.154 0.153 7.35 12.15 8.81
9/9/2021 2:15:00 PM 19.54 67.172 0.154 7.35 11.52 8.8
9/9/2021 2:30:00 PM 19.55 67.19 0.154 7.36 13.38 8.8
9/9/2021 2:45:00 PM 19.56 67.208 0.154 7.36 12.64 8.78
9/9/2021 3:00:00 PM 19.58 67.244 0.154 7.36 13.55 8.8
9/9/2021 3:15:00 PM 19.61 67.298 0.155 7.37 11.18 8.81
9/9/2021 3:30:00 PM 19.65 67.37 0.155 7.37 10.81 8.85
9/9/2021 3:45:00 PM 19.67 67.406 0.155 7.38 11.46 8.86
9/9/2021 4:00:00 PM 19.68 67.424 0.155 7.38 11.17 8.86
9/9/2021 4:15:00 PM 19.69 67.442 0.155 7.39 9.34 8.84
9/9/2021 4:30:00 PM 19.69 67.442 0.156 7.39 11.14 8.8
9/9/2021 4:45:00 PM 19.69 67.442 0.156 7.39 9.55 8.78
9/9/2021 5:00:00 PM 19.74 67.532 0.156 7.39 9.17 8.81
9/9/2021 5:15:00 PM 19.77 67.586 0.156 7.4 8.86 8.84
9/9/2021 5:30:00 PM 19.77 67.586 0.157 7.4 9.87 8.8
9/9/2021 5:45:00 PM 19.76 67.568 0.157 7.4 9.81 8.75
9/9/2021 6:00:00 PM 19.76 67.568 0.157 7.4 8.7 8.7
9/9/2021 6:15:00 PM 19.73 67.514 0.157 7.4 8.23 8.69
9/9/2021 6:30:00 PM 19.69 67.442 0.158 7.4 7.59 8.62
9/9/2021 6:45:00 PM 19.65 67.37 0.158 7.39 7.41 8.59
9/9/2021 7:00:00 PM 19.59 67.262 0.158 7.39 8.92 8.56
9/9/2021 7:15:00 PM 19.53 67.154 0.159 7.38 7.11 8.53
9/9/2021 7:30:00 PM 19.47 67.046 0.159 7.38 8.24 8.5
9/9/2021 7:45:00 PM 19.41 66.938 0.159 7.37 8 8.49
9/9/2021 8:00:00 PM 19.36 66.848 0.16 7.37 9.2 8.44
9/9/2021 8:15:00 PM 19.3 66.74 0.16 7.36 8.88 8.44
9/9/2021 8:30:00 PM 19.26 66.668 0.16 7.36 9.05 8.41
9/9/2021 8:45:00 PM 19.21 66.578 0.16 7.35 7.08 8.42
9/9/2021 9:00:00 PM 19.17 66.506 0.161 7.35 11.33 8.41
9/9/2021 9:15:00 PM 19.12 66.416 0.161 7.35 9.55 8.39
9/9/2021 9:30:00 PM 19.06 66.308 0.161 7.34 7.64 8.4
9/9/2021 9:45:00 PM 19.01 66.218 0.161 7.34 7.6 8.4
9/9/2021 10:00:00 PM 18.95 66.11 0.162 7.34 6.59 8.4
9/9/2021 10:15:00 PM 18.88 65.984 0.162 7.33 8.7 8.41
9/9/2021 10:30:00 PM 18.82 65.876 0.162 7.33 10.02 8.4
9/9/2021 10:45:00 PM 18.77 65.786 0.162 7.33 10.56 8.42
9/9/2021 11:00:00 PM 18.7 65.66 0.162 7.33 8.53 8.43
9/9/2021 11:15:00 PM 18.64 65.552 0.163 7.33 9.37 8.44
9/9/2021 11:30:00 PM 18.59 65.462 0.163 7.33 7.83 8.45
9/9/2021 11:45:00 PM 18.53 65.354 0.163 7.32 7.05 8.45
9/10/2021 12:00:00 AM 18.47 65.246 0.163 7.33 7.81 8.47
9/10/2021 12:15:00 AM 18.41 65.138 0.164 7.33 6.22 8.49
9/10/2021 12:30:00 AM 18.36 65.048 0.164 7.32 8.1 8.5
9/10/2021 12:45:00 AM 18.3 64.94 0.164 7.32 6.88 8.5
9/10/2021 1:00:00 AM 18.25 64.85 0.164 7.32 6.27 8.53
9/10/2021 1:15:00 AM 18.19 64.742 0.164 7.32 4.87 8.54
9/10/2021 1:30:00 AM 18.14 64.652 0.165 7.32 5.04 8.53
9/10/2021 1:45:00 AM 18.08 64.544 0.165 7.32 7.56 8.56
9/10/2021 2:00:00 AM 18.03 64.454 0.165 7.32 5.45 8.57
9/10/2021 2:15:00 AM 17.97 64.346 0.165 7.32 7.95 8.58
9/10/2021 2:30:00 AM 17.92 64.256 0.166 7.32 9.61 8.59
9/10/2021 2:45:00 AM 17.87 64.166 0.166 7.32 6.22 8.6
9/10/2021 3:00:00 AM 17.82 64.076 0.166 7.32 3.98 8.63
9/10/2021 3:15:00 AM 17.76 63.968 0.166 7.32 5.17 8.62
9/10/2021 3:30:00 AM 17.71 63.878 0.167 7.32 6.24 8.63
9/10/2021 3:45:00 AM 17.66 63.788 0.167 7.32 5.96 8.66
9/10/2021 4:00:00 AM 17.61 63.698 0.167 7.32 4.77 8.67
9/10/2021 4:15:00 AM 17.56 63.608 0.168 7.32 8.3 8.67
9/10/2021 4:30:00 AM 17.51 63.518 0.168 7.32 7.56 8.7
9/10/2021 4:45:00 AM 17.46 63.428 0.168 7.33 4.92 8.7
9/10/2021 5:00:00 AM 17.4 63.32 0.168 7.33 6.63 8.73
9/10/2021 5:15:00 AM 17.34 63.212 0.168 7.33 6.82 8.72
9/10/2021 5:30:00 AM 17.3 63.14 0.169 7.33 7.01 8.75
9/10/2021 5:45:00 AM 17.25 63.05 0.169 7.33 7.22 8.76
9/10/2021 6:00:00 AM 17.21 62.978 0.169 7.33 5.36 8.77
9/10/2021 6:15:00 AM 17.16 62.888 0.169 7.33 9.09 8.79
9/10/2021 6:30:00 AM 17.11 62.798 0.17 7.33 3.28 8.81
9/10/2021 6:45:00 AM 17.06 62.708 0.17 7.34 6.56 8.82
9/10/2021 7:00:00 AM 17.02 62.636 0.17 7.34 3.68 8.82
9/10/2021 7:15:00 AM 16.98 62.564 0.17 7.33 4.72 8.84
9/10/2021 7:30:00 AM 16.95 62.51 0.17 7.34 6.59 8.86
9/10/2021 7:45:00 AM 16.91 62.438 0.171 7.34 3.56 8.87
9/10/2021 8:00:00 AM 16.87 62.366 0.171 7.34 5.47 8.92
9/10/2021 8:15:00 AM 16.84 62.312 0.171 7.34 4 8.93
9/10/2021 8:30:00 AM 16.82 62.276 0.171 7.34 3.68 8.96
9/10/2021 8:45:00 AM 16.79 62.222 0.171 7.35 3.57 9
9/10/2021 9:00:00 AM 16.78 62.204 0.171 7.35 3.97 9
9/10/2021 9:15:00 AM 16.78 62.204 0.172 7.36 2.76 9.05
9/10/2021 9:30:00 AM 16.78 62.204 0.172 7.36 2.54 9.08
9/10/2021 9:45:00 AM 16.79 62.222 0.172 7.36 2.68 9.1
9/10/2021 10:00:00 AM 16.8 62.24 0.172 7.36 3.23 9.15
9/10/2021 10:15:00 AM 16.83 62.294 0.172 7.37 2.32 9.2
9/10/2021 10:30:00 AM 16.87 62.366 0.172 7.38 3.8 9.24
9/10/2021 10:45:00 AM 16.93 62.474 0.172 7.38 2.38 9.27
9/10/2021 11:00:00 AM 17.01 62.618 0.172 7.39 2.11 9.35
9/10/2021 11:15:00 AM 17.12 62.816 0.172 7.4 2.07 9.4
9/10/2021 11:30:00 AM 17.25 63.05 0.172 7.41 2.26 9.45
9/10/2021 11:45:00 AM 17.38 63.284 0.172 7.42 2.07 9.48
9/10/2021 12:00:00 PM 17.56 63.608 0.172 7.42 1.94 9.52
9/10/2021 12:15:00 PM 17.72 63.896 0.172 7.42 86.77 9.53
9/10/2021 12:30:00 PM 17.89 64.202 0.172 7.44 2.39 9.57
9/10/2021 12:45:00 PM 18.08 64.544 0.173 7.45 1.62 9.59
9/10/2021 1:00:00 PM 18.31 64.958 0.173 7.47 2.49 9.61
9/10/2021 1:15:00 PM 18.57 65.426 0.173 7.49 2.16 9.65
9/10/2021 1:30:00 PM 18.8 65.84 0.173 7.5 2.63 9.66
9/10/2021 1:45:00 PM 19.02 66.236 0.173 7.51 1.71 9.67
9/10/2021 2:00:00 PM 19.23 66.614 0.174 7.53 1.8 9.68
9/10/2021 2:15:00 PM 19.46 67.028 0.174 7.54 3.42 9.69
9/10/2021 2:30:00 PM 19.62 67.316 0.174 7.56 1.84 9.67
9/10/2021 2:45:00 PM 19.68 67.424 0.174 7.56 1.63 9.67
9/10/2021 3:00:00 PM 19.67 67.406 0.174 7.58 1.64 9.63
9/10/2021 3:15:00 PM 19.66 67.388 0.174 7.59 1.83 9.59
9/10/2021 3:30:00 PM 19.63 67.334 0.174 7.6 1.88 9.55
9/10/2021 3:45:00 PM 19.56 67.208 0.174 7.6 1.76 9.52
9/10/2021 4:00:00 PM 19.53 67.154 0.174 7.6 1.69 9.5
9/10/2021 4:15:00 PM 19.5 67.1 0.174 7.61 1.58 9.52
9/10/2021 4:30:00 PM 19.44 66.992 0.174 7.62 2.09 9.49
9/10/2021 4:45:00 PM 19.38 66.884 0.174 7.62 2.82 9.45
9/10/2021 5:00:00 PM 19.31 66.758 0.174 7.62 1.87 9.42
9/10/2021 5:15:00 PM 19.25 66.65 0.174 7.62 1.33 9.38
9/10/2021 5:30:00 PM 19.16 66.488 0.174 7.62 2.47 9.34
9/10/2021 5:45:00 PM 19.09 66.362 0.174 7.61 2.62 9.28
9/10/2021 6:00:00 PM 19.02 66.236 0.174 7.61 1.69 9.23
9/10/2021 6:15:00 PM 18.95 66.11 0.174 7.6 2.08 9.2
9/10/2021 6:30:00 PM 18.86 65.948 0.174 7.59 2.4 9.16
9/10/2021 6:45:00 PM 18.79 65.82201 0.174 7.59 2.52 9.1
9/10/2021 7:00:00 PM 18.71 65.67799 0.174 7.58 2 9.03
9/10/2021 7:15:00 PM 18.64 65.552 0.174 7.57 2.26 8.99
9/10/2021 7:30:00 PM 18.56 65.408 0.175 7.55 1.94 8.94
9/10/2021 7:45:00 PM 18.48 65.264 0.175 7.54 2.53 8.88
9/10/2021 8:00:00 PM 18.41 65.138 0.175 7.52 3 8.84
9/10/2021 8:15:00 PM 18.33 64.994 0.175 7.51 2.33 8.82
9/10/2021 8:30:00 PM 18.26 64.868 0.175 7.49 1.83 8.8
9/10/2021 8:45:00 PM 18.2 64.76 0.175 7.48 1.53 8.77
9/10/2021 9:00:00 PM 18.13 64.634 0.176 7.47 3.25 8.76
9/10/2021 9:15:00 PM 18.06 64.508 0.176 7.46 3.02 8.74
9/10/2021 9:30:00 PM 18 64.4 0.176 7.45 2.31 8.73
9/10/2021 9:45:00 PM 17.93 64.274 0.176 7.44 3.87 8.73
9/10/2021 10:00:00 PM 17.87 64.166 0.176 7.43 2.4 8.72
9/10/2021 10:15:00 PM 17.8 64.04 0.176 7.42 2.76 8.72
9/10/2021 10:30:00 PM 17.73 63.914 0.176 7.41 3.15 8.73
9/10/2021 10:45:00 PM 17.67 63.806 0.176 7.4 2.74 8.72
9/10/2021 11:00:00 PM 17.61 63.698 0.176 7.4 2.24 8.73
9/10/2021 11:15:00 PM 17.54 63.572 0.176 7.39 1.9 8.75
9/10/2021 11:30:00 PM 17.47 63.446 0.176 7.39 3.88 8.74
9/10/2021 11:45:00 PM 17.41 63.338 0.176 7.39 2.18 8.74
9/11/2021 12:00:00 AM 17.34 63.212 0.176 7.38 4.53 8.76
9/11/2021 12:15:00 AM 17.28 63.104 0.177 7.37 4.8 8.78
9/11/2021 12:30:00 AM 17.22 62.996 0.176 7.37 3.79 8.79
9/11/2021 12:45:00 AM 17.16 62.888 0.177 7.37 2.87 8.8
9/11/2021 1:00:00 AM 17.11 62.798 0.177 7.36 3.51 8.81
9/11/2021 1:15:00 AM 17.04 62.672 0.177 7.36 4.15 8.82
9/11/2021 1:30:00 AM 16.99 62.582 0.177 7.35 3.3 8.83
9/11/2021 1:45:00 AM 16.94 62.492 0.177 7.36 3.88 8.83
9/11/2021 2:00:00 AM 16.89 62.402 0.177 7.35 2.84 8.86
9/11/2021 2:15:00 AM 16.85 62.33 0.177 7.34 4.04 8.87
9/11/2021 2:30:00 AM 16.79 62.222 0.177 7.35 2.72 8.88
9/11/2021 2:45:00 AM 16.74 62.132 0.177 7.34 2.18 8.89
9/11/2021 3:00:00 AM 16.7 62.06 0.177 7.34 2.86 8.9
9/11/2021 3:15:00 AM 16.64 61.952 0.177 7.34 2.54 8.9
9/11/2021 3:30:00 AM 16.59 61.862 0.177 7.35 3.29 8.92
9/11/2021 3:45:00 AM 16.53 61.754 0.177 7.34 3.99 8.93
9/11/2021 4:00:00 AM 16.48 61.664 0.177 7.34 3.57 8.95
9/11/2021 4:15:00 AM 16.43 61.574 0.177 7.33 2.66 8.96
9/11/2021 4:30:00 AM 16.39 61.502 0.177 7.34 2.23 8.96
9/11/2021 4:45:00 AM 16.33 61.394 0.177 7.33 2.88 8.98
9/11/2021 5:00:00 AM 16.28 61.304 0.177 7.33 2.7 9
9/11/2021 5:15:00 AM 16.23 61.214 0.177 7.33 1.95 9
9/11/2021 5:30:00 AM 16.16 61.088 0.177 7.34 2.5 9.02
9/11/2021 5:45:00 AM 16.11 60.998 0.177 7.32 2.8 9.04
9/11/2021 6:00:00 AM 16.06 60.908 0.177 7.32 1.85 9.05
9/11/2021 6:15:00 AM 16 60.8 0.177 7.31 3.07 9.06
9/11/2021 6:30:00 AM 15.95 60.71 0.177 7.3 3.54 9.07
9/11/2021 6:45:00 AM 15.9 60.62 0.177 7.31 3.05 9.09
9/11/2021 7:00:00 AM 15.84 60.512 0.177 7.3 2.82 9.11
9/11/2021 7:15:00 AM 15.78 60.404 0.177 7.29 2.96 9.13
9/11/2021 7:30:00 AM 15.72 60.296 0.177 7.3 2.47 9.15
9/11/2021 7:45:00 AM 15.68 60.224 0.177 7.3 1.91 9.19
9/11/2021 8:00:00 AM 15.63 60.134 0.177 7.3 2.22 9.2
9/11/2021 8:15:00 AM 15.59 60.062 0.177 7.29 2.69 9.24
9/11/2021 8:30:00 AM 15.56 60.008 0.177 7.29 2 9.28
9/11/2021 8:45:00 AM 15.54 59.972 0.177 7.29 2.44 9.3
9/11/2021 9:00:00 AM 15.53 59.954 0.177 7.3 2.3 9.32
9/11/2021 9:15:00 AM 15.53 59.954 0.177 7.29 2.48 9.35
9/11/2021 9:30:00 AM 15.56 60.008 0.177 7.29 2.09 9.41
9/11/2021 9:45:00 AM 15.58 60.044 0.177 7.3 2.41 9.44
9/11/2021 10:00:00 AM 15.63 60.134 0.177 7.3 2.46 9.49
9/11/2021 10:15:00 AM 15.68 60.224 0.177 7.3 2.2 9.52
9/11/2021 10:30:00 AM 15.75 60.35 0.177 7.3 1.1 9.55
9/11/2021 10:45:00 AM 15.85 60.53 0.177 7.31 2.3 9.62
9/11/2021 11:00:00 AM 15.97 60.746 0.177 7.32 1.39 9.69
9/11/2021 11:15:00 AM 16.09 60.962 0.177 7.32 1.24 9.75
9/11/2021 11:30:00 AM 16.24 61.232 0.176 7.33 0.89 9.79
9/11/2021 11:45:00 AM 16.35 61.43 0.176 7.33 1.16 9.86
9/11/2021 12:00:00 PM 16.5 61.7 0.176 7.34 1.68 9.91
9/11/2021 12:15:00 PM 16.7 62.06 0.176 7.34 1.25 9.99
9/11/2021 12:30:00 PM 16.89 62.402 0.176 7.35 1.06 10.07
9/11/2021 12:45:00 PM 17.07 62.726 0.176 7.36 1.26 10.11
9/11/2021 1:00:00 PM 17.27 63.086 0.176 7.36 8.05 10.15
9/11/2021 1:15:00 PM 17.45 63.41 0.175 7.39 1.36 10.17
9/11/2021 1:30:00 PM 17.64 63.752 0.175 7.43 2.04 10.21
9/11/2021 1:45:00 PM 17.87 64.166 0.175 7.45 1.19 10.23
9/11/2021 2:00:00 PM 18.04 64.472 0.175 7.47 1.36 10.24
9/11/2021 2:15:00 PM 18.23 64.814 0.175 7.48 1.63 10.22
9/11/2021 2:30:00 PM 18.38 65.084 0.175 7.49 1.47 10.2
9/11/2021 2:45:00 PM 18.5 65.3 0.175 7.5 1.55 10.18
9/11/2021 3:00:00 PM 18.6 65.48 0.175 7.51 1.21 10.16
9/11/2021 3:15:00 PM 18.7 65.66 0.175 7.52 1.4 10.15
9/11/2021 3:30:00 PM 18.77 65.786 0.175 7.54 1.52 10.11
9/11/2021 3:45:00 PM 18.78 65.804 0.175 7.55 1.85 10.04
9/11/2021 4:00:00 PM 18.82 65.876 0.175 7.57 1.32 10.01
9/11/2021 4:15:00 PM 18.83 65.894 0.176 7.58 1.59 9.95
9/11/2021 4:30:00 PM 18.79 65.82201 0.176 7.59 1.64 9.89
9/11/2021 4:45:00 PM 18.75 65.75 0.176 7.59 2.12 9.82
9/11/2021 5:00:00 PM 18.71 65.67799 0.176 7.6 1.76 9.78
9/11/2021 5:15:00 PM 18.64 65.552 0.176 7.6 2.07 9.72
9/11/2021 5:30:00 PM 18.57 65.426 0.176 7.59 1.82 9.61
9/11/2021 5:45:00 PM 18.51 65.318 0.176 7.58 2.01 9.54
9/11/2021 6:00:00 PM 18.46 65.228 0.176 7.59 1.3 9.49
9/11/2021 6:15:00 PM 18.4 65.12 0.176 7.58 1.52 9.42
9/11/2021 6:30:00 PM 18.32 64.976 0.176 7.56 1.31 9.36
9/11/2021 6:45:00 PM 18.24 64.832 0.177 7.56 1.14 9.31
9/11/2021 7:00:00 PM 18.15 64.67 0.177 7.55 0.99 9.24
9/11/2021 7:15:00 PM 18.07 64.526 0.177 7.54 1.47 9.19
9/11/2021 7:30:00 PM 18 64.4 0.177 7.53 2.28 9.12
9/11/2021 7:45:00 PM 17.93 64.274 0.177 7.51 1.09 9.08
9/11/2021 8:00:00 PM 17.88 64.184 0.177 7.49 1.58 9.02
9/11/2021 8:15:00 PM 17.83 64.094 0.177 7.48 3.89 8.97
9/11/2021 8:30:00 PM 17.78 64.004 0.177 7.47 1.83 8.94
9/11/2021 8:45:00 PM 17.73 63.914 0.177 7.46 2.09 8.91
9/11/2021 9:00:00 PM 17.69 63.842 0.178 7.44 2.37 8.9
9/11/2021 9:15:00 PM 17.64 63.752 0.178 7.43 1.93 8.87
9/11/2021 9:30:00 PM 17.6 63.68 0.178 7.43 1.73 8.86
9/11/2021 9:45:00 PM 17.56 63.608 0.178 7.42 3.01 8.85
9/11/2021 10:00:00 PM 17.52 63.536 0.178 7.4 2.94 8.83
9/11/2021 10:15:00 PM 17.47 63.446 0.178 7.4 1.46 8.82
9/11/2021 10:30:00 PM 17.43 63.374 0.178 7.39 2.25 8.81
9/11/2021 10:45:00 PM 17.37 63.266 0.178 7.38 1.07 8.81
9/11/2021 11:00:00 PM 17.33 63.194 0.178 7.38 2.27 8.81
9/11/2021 11:15:00 PM 17.28 63.104 0.178 7.37 1.5 8.81
9/11/2021 11:30:00 PM 17.24 63.032 0.179 7.36 3.84 8.82
9/11/2021 11:45:00 PM 17.18 62.924 0.179 7.35 3.31 8.81
9/12/2021 12:00:00 AM 17.14 62.852 0.179 7.35 2.64 8.81
9/12/2021 12:15:00 AM 17.09 62.762 0.179 7.34 1.95 8.82
9/12/2021 12:30:00 AM 17.04 62.672 0.179 7.34 3.94 8.83
9/12/2021 12:45:00 AM 17 62.6 0.179 7.33 2.29 8.84
9/12/2021 1:00:00 AM 16.95 62.51 0.179 7.33 1.61 8.85
9/12/2021 1:15:00 AM 16.91 62.438 0.179 7.32 2.5 8.86
9/12/2021 1:30:00 AM 16.87 62.366 0.179 7.32 1.49 8.85
9/12/2021 1:45:00 AM 16.83 62.294 0.179 7.3 1.51 8.87
9/12/2021 2:00:00 AM 16.79 62.222 0.179 7.3 1.28 8.88
9/12/2021 2:15:00 AM 16.77 62.186 0.179 7.3 2.03 8.87
9/12/2021 2:30:00 AM 16.71 62.078 0.179 7.3 1.3 8.9
9/12/2021 2:45:00 AM 16.69 62.042 0.179 7.3 1.95 8.9
9/12/2021 3:00:00 AM 16.66 61.988 0.179 7.29 1.67 8.91
9/12/2021 3:15:00 AM 16.62 61.916 0.179 7.28 2.07 8.91
9/12/2021 3:30:00 AM 16.59 61.862 0.179 7.29 2.4 8.93
9/12/2021 3:45:00 AM 16.57 61.826 0.179 7.28 1.08 8.91
9/12/2021 4:00:00 AM 16.54 61.772 0.179 7.28 2.17 8.94
9/12/2021 4:15:00 AM 16.51 61.718 0.179 7.27 1.47 8.93
9/12/2021 4:30:00 AM 16.49 61.682 0.179 7.27 2.57 8.94
9/12/2021 4:45:00 AM 16.47 61.646 0.179 7.28 3.45 8.95
9/12/2021 5:00:00 AM 16.44 61.592 0.179 7.28 2.3 8.94
9/12/2021 5:15:00 AM 16.41 61.538 0.179 7.28 1.47 8.96
9/12/2021 5:30:00 AM 16.39 61.502 0.179 7.27 2.52 8.97
9/12/2021 5:45:00 AM 16.37 61.466 0.179 7.27 3.04 8.98
9/12/2021 6:00:00 AM 16.34 61.412 0.179 7.26 1.97 8.97
9/12/2021 6:15:00 AM 16.31 61.358 0.179 7.26 2.58 8.98
9/12/2021 6:30:00 AM 16.29 61.322 0.179 7.26 2.66 8.99
9/12/2021 6:45:00 AM 16.26 61.268 0.179 7.25 1.73 8.98
9/12/2021 7:00:00 AM 16.23 61.214 0.179 7.25 1.76 9.01
9/12/2021 7:15:00 AM 16.21 61.178 0.179 7.26 1.21 9.01
9/12/2021 7:30:00 AM 16.19 61.142 0.179 7.25 1.44 9.03
9/12/2021 7:45:00 AM 16.17 61.106 0.179 7.25 1.44 9.05
9/12/2021 8:00:00 AM 16.16 61.088 0.179 7.25 1.21 9.09
9/12/2021 8:15:00 AM 16.16 61.088 0.179 7.24 1.71 9.14
9/12/2021 8:30:00 AM 16.15 61.07 0.179 7.24 1.32 9.2
9/12/2021 8:45:00 AM 16.15 61.07 0.179 7.24 2 9.26
9/12/2021 9:00:00 AM 16.17 61.106 0.179 7.24 1.39 9.32
9/12/2021 9:15:00 AM 16.2 61.16 0.178 7.26 2.09 9.38
9/12/2021 9:30:00 AM 16.24 61.232 0.178 7.27 1.53 9.46
9/12/2021 9:45:00 AM 16.29 61.322 0.178 7.27 1.93 9.52
9/12/2021 10:00:00 AM 16.35 61.43 0.178 7.27 0.67 9.59
9/12/2021 10:15:00 AM 16.42 61.556 0.178 7.28 1.05 9.66
9/12/2021 10:30:00 AM 16.51 61.718 0.178 7.29 0.73 9.72
9/12/2021 10:45:00 AM 16.6 61.88 0.178 7.29 1.48 9.8
9/12/2021 11:00:00 AM 16.71 62.078 0.177 7.29 1.08 9.85
9/12/2021 11:15:00 AM 16.85 62.33 0.177 7.29 0.63 9.93
9/12/2021 11:30:00 AM 17.01 62.618 0.177 7.29 2.51 9.97
9/12/2021 11:45:00 AM 17.15 62.87 0.177 7.29 0.78 10.04
9/12/2021 12:00:00 PM 17.34 63.212 0.177 7.3 0.8 10.09
9/12/2021 12:15:00 PM 17.56 63.608 0.176 7.32 1.11 10.14
9/12/2021 12:30:00 PM 17.79 64.022 0.176 7.33 0.73 10.16
9/12/2021 12:45:00 PM 18.04 64.472 0.176 7.35 3.29 10.2
9/12/2021 1:00:00 PM 18.29 64.922 0.176 7.36 4.55 10.21
9/12/2021 1:15:00 PM 18.58 65.444 0.176 7.37 0.85 10.2
9/12/2021 1:30:00 PM 18.87 65.966 0.176 7.36 1.21 10.25
9/12/2021 1:45:00 PM 19.17 66.506 0.176 7.38 0.69 10.25
9/12/2021 2:00:00 PM 19.46 67.028 0.176 7.38 0.93 10.24
9/12/2021 2:15:00 PM 19.73 67.514 0.176 7.39 1.21 10.25
9/12/2021 2:30:00 PM 20.02 68.036 0.176 7.4 1.27 10.21
9/12/2021 2:45:00 PM 20.09 68.162 0.176 7.41 1.29 10.2
9/12/2021 3:00:00 PM 20.19 68.342 0.176 7.4 0.89 10.16
9/12/2021 3:15:00 PM 20.26 68.468 0.176 7.41 1.46 10.13
9/12/2021 3:30:00 PM 20.33 68.594 0.176 7.42 1.01 10.07
9/12/2021 3:45:00 PM 20.4 68.72 0.176 7.43 0.87 10.05
9/12/2021 4:00:00 PM 20.4 68.72 0.176 7.44 0.96 10
9/12/2021 4:15:00 PM 20.36 68.648 0.176 7.49 0.97 9.96
9/12/2021 4:30:00 PM 20.32 68.576 0.177 7.52 0.95 9.88
9/12/2021 4:45:00 PM 20.29 68.522 0.177 7.56 1.25 9.83
9/12/2021 5:00:00 PM 20.25 68.45 0.177 7.58 1.28 9.76
9/12/2021 5:15:00 PM 20.2 68.36 0.177 7.58 1.44 9.68
9/12/2021 5:30:00 PM 20.13 68.234 0.177 7.6 0.99 9.6
9/12/2021 5:45:00 PM 20.06 68.108 0.177 7.62 1.31 9.52
9/12/2021 6:00:00 PM 20 68 0.177 7.64 1.27 9.44
9/12/2021 6:15:00 PM 19.93 67.874 0.178 7.63 1.13 9.37
9/12/2021 6:30:00 PM 19.84 67.712 0.178 7.65 1.37 9.28
9/12/2021 6:45:00 PM 19.76 67.568 0.178 7.65 1.29 9.19
9/12/2021 7:00:00 PM 19.68 67.424 0.179 7.65 4.48 9.1
9/12/2021 7:15:00 PM 19.61 67.298 0.179 7.64 1.36 9
9/12/2021 7:30:00 PM 19.55 67.19 0.179 7.62 1.41 8.91
9/12/2021 7:45:00 PM 19.48 67.064 0.179 7.61 1.41 8.83
9/12/2021 8:00:00 PM 19.43 66.974 0.18 7.58 1.61 8.74
9/12/2021 8:15:00 PM 19.37 66.866 0.18 7.56 1.26 8.68
9/12/2021 8:30:00 PM 19.31 66.758 0.18 7.53 1.26 8.63
9/12/2021 8:45:00 PM 19.26 66.668 0.18 7.52 3.19 8.6
9/12/2021 9:00:00 PM 19.21 66.578 0.18 7.5 1.28 8.55
9/12/2021 9:15:00 PM 19.16 66.488 0.181 7.48 1.17 8.53
9/12/2021 9:30:00 PM 19.12 66.416 0.181 7.46 1.47 8.5
9/12/2021 9:45:00 PM 19.09 66.362 0.181 7.43 1.37 8.47
9/12/2021 10:00:00 PM 19.05 66.29 0.181 7.42 0.98 8.43
9/12/2021 10:15:00 PM 19.02 66.236 0.181 7.41 1.87 8.42
9/12/2021 10:30:00 PM 18.99 66.182 0.181 7.4 1.67 8.39
9/12/2021 10:45:00 PM 18.96 66.128 0.182 7.39 1.43 8.38
9/12/2021 11:00:00 PM 18.92 66.056 0.182 7.39 1.35 8.39
9/12/2021 11:15:00 PM 18.89 66.002 0.182 7.37 1.74 8.39
9/12/2021 11:30:00 PM 18.86 65.948 0.182 7.37 1.11 8.4
9/12/2021 11:45:00 PM 18.83 65.894 0.182 7.35 1.99 8.37
9/13/2021 12:00:00 AM 18.8 65.84 0.182 7.34 1.48 8.39
9/13/2021 12:15:00 AM 18.77 65.786 0.182 7.35 1.79 8.36
9/13/2021 12:30:00 AM 18.74 65.732 0.182 7.34 1.45 8.4
9/13/2021 12:45:00 AM 18.71 65.67799 0.182 7.33 3.98 8.4
9/13/2021 1:00:00 AM 18.68 65.624 0.182 7.33 1.29 8.38
9/13/2021 1:15:00 AM 18.66 65.588 0.183 7.33 1.37 8.4
9/13/2021 1:30:00 AM 18.63 65.534 0.183 7.31 1.56 8.4
9/13/2021 1:45:00 AM 18.61 65.498 0.183 7.32 1.72 8.41
9/13/2021 2:00:00 AM 18.59 65.462 0.183 7.32 1.49 8.4
9/13/2021 2:15:00 AM 18.58 65.444 0.183 7.3 1.77 8.4
9/13/2021 2:30:00 AM 18.56 65.408 0.183 7.3 1.48 8.39
9/13/2021 2:45:00 AM 18.55 65.39 0.183 7.3 1.9 8.41
9/13/2021 3:00:00 AM 18.53 65.354 0.183 7.3 1.3 8.43
9/13/2021 3:15:00 AM 18.52 65.336 0.183 7.29 1.38 8.41
9/13/2021 3:30:00 AM 18.5 65.3 0.183 7.29 1.45 8.43
9/13/2021 3:45:00 AM 18.49 65.282 0.184 7.29 2.27 8.41
9/13/2021 4:00:00 AM 18.47 65.246 0.184 7.29 1.13 8.43
9/13/2021 4:15:00 AM 18.46 65.228 0.184 7.28 3.52 8.45
9/13/2021 4:30:00 AM 18.44 65.192 0.184 7.28 1.18 8.44
9/13/2021 4:45:00 AM 18.44 65.192 0.184 7.28 1.55 8.44
9/13/2021 5:00:00 AM 18.42 65.156 0.184 7.28 2.62 8.44
9/13/2021 5:15:00 AM 18.4 65.12 0.184 7.27 1.5 8.45
9/13/2021 5:30:00 AM 18.38 65.084 0.184 7.27 1.56 8.46
9/13/2021 5:45:00 AM 18.37 65.066 0.184 7.26 2.41 8.45
9/13/2021 6:00:00 AM 18.35 65.03 0.184 7.26 1.64 8.46
9/13/2021 6:15:00 AM 18.33 64.994 0.184 7.26 2.25 8.46
9/13/2021 6:30:00 AM 18.32 64.976 0.184 7.26 1.89 8.47
9/13/2021 6:45:00 AM 18.29 64.922 0.184 7.26 1.64 8.47
9/13/2021 7:00:00 AM 18.28 64.904 0.184 7.26 1.1 8.48
9/13/2021 7:15:00 AM 18.25 64.85 0.184 7.26 2.65 8.48
9/13/2021 7:30:00 AM 18.24 64.832 0.184 7.26 1.71 8.5
9/13/2021 7:45:00 AM 18.23 64.814 0.184 7.26 1.35 8.55
9/13/2021 8:00:00 AM 18.22 64.796 0.184 7.25 0.92 8.59
9/13/2021 8:15:00 AM 18.21 64.778 0.184 7.25 1.38 8.62
9/13/2021 8:30:00 AM 18.21 64.778 0.183 7.26 1.24 8.69
9/13/2021 8:45:00 AM 18.21 64.778 0.183 7.27 1.28 8.78
9/13/2021 9:00:00 AM 18.22 64.796 0.183 7.27 1.23 8.85
9/13/2021 9:15:00 AM 18.24 64.832 0.183 7.27 1.21 8.9
9/13/2021 9:30:00 AM 18.28 64.904 0.183 7.28 1.56 9.02
9/13/2021 9:45:00 AM 18.32 64.976 0.183 7.29 1.08 9.11
9/13/2021 10:00:00 AM 18.37 65.066 0.183 7.29 0.96 9.21
9/13/2021 10:15:00 AM 18.43 65.174 0.183 7.3 0.85 9.27
9/13/2021 10:30:00 AM 18.51 65.318 0.183 7.31 1.05 9.39
9/13/2021 10:45:00 AM 18.6 65.48 0.182 7.32 1.03 9.46
9/13/2021 11:00:00 AM 18.7 65.66 0.182 7.34 2.78 9.58
9/13/2021 11:15:00 AM 18.83 65.894 0.182 7.35 1.72 9.66
9/13/2021 11:30:00 AM 18.96 66.128 0.182 7.35 2.05 9.76
9/13/2021 11:45:00 AM 19.11 66.398 0.182 7.36 0.81 9.83
9/13/2021 12:00:00 PM 19.28 66.704 0.182 7.37 1.04 9.92
9/13/2021 12:15:00 PM 19.46 67.028 0.182 7.4 1.24 9.96
9/13/2021 12:30:00 PM 19.69 67.442 0.181 7.42 0.93 10.05
9/13/2021 12:45:00 PM 19.94 67.892 0.181 7.44 1.05 10.09
9/13/2021 1:00:00 PM 20.16 68.288 0.181 7.47 1.05 10.15
9/13/2021 1:15:00 PM 20.4 68.72 0.181 7.48 0.9 10.2
9/13/2021 1:30:00 PM 20.67 69.206 0.181 7.5 1.32 10.18
9/13/2021 1:45:00 PM 20.95 69.71 0.181 7.52 1.16 10.23
9/13/2021 2:00:00 PM 21.19 70.142 0.181 7.55 0.96 10.26
9/13/2021 2:15:00 PM 21.35 70.43 0.181 7.58 0.76 10.24
9/13/2021 2:30:00 PM 21.64 70.952 0.18 7.61 1.2 10.19
9/13/2021 2:45:00 PM 21.77 71.186 0.181 7.64 0.82 10.21
9/13/2021 3:00:00 PM 21.9 71.42 0.181 7.67 1.05 10.16
9/13/2021 3:15:00 PM 22.03 71.654 0.181 7.7 0.89 10.15
9/13/2021 3:30:00 PM 22.1 71.78 0.181 7.72 0.86 10.1
9/13/2021 3:45:00 PM 22.16 71.888 0.181 7.74 0.66 10.04
9/13/2021 4:00:00 PM 22.16 71.888 0.182 7.78 0.83 9.99
9/13/2021 4:15:00 PM 22.15 71.87 0.182 7.8 1.04 9.92
9/13/2021 4:30:00 PM 22.12 71.816 0.183 7.85 0.8 9.84
9/13/2021 4:45:00 PM 22.08 71.744 0.183 7.88 1.12 9.78
9/13/2021 5:00:00 PM 22.01 71.618 0.183 7.91 1.19 9.7
9/13/2021 5:15:00 PM 21.97 71.546 0.182 7.94 0.78 9.61
9/13/2021 5:30:00 PM 21.9 71.42 0.182 7.97 0.82 9.5
9/13/2021 5:45:00 PM 21.84 71.312 0.182 7.97 1.01 9.36
9/13/2021 6:00:00 PM 21.77 71.186 0.182 7.98 1.32 9.24
9/13/2021 6:15:00 PM 21.69 71.042 0.181 7.98 0.91 9.15
9/13/2021 6:30:00 PM 21.59 70.862 0.181 7.97 2.4 9.03
9/13/2021 6:45:00 PM 21.49 70.682 0.181 7.95 1.44 8.93
9/13/2021 7:00:00 PM 21.39 70.502 0.18 7.94 1.55 8.84
9/13/2021 7:15:00 PM 21.29 70.32201 0.18 7.91 1.25 8.73
9/13/2021 7:30:00 PM 21.21 70.17799 0.18 7.89 1.63 8.61
9/13/2021 7:45:00 PM 21.11 69.998 0.18 7.85 1.22 8.53
9/13/2021 8:00:00 PM 21.02 69.836 0.18 7.82 1.27 8.43
9/13/2021 8:15:00 PM 20.95 69.71 0.179 7.77 1.62 8.37
9/13/2021 8:30:00 PM 20.88 69.584 0.179 7.73 1.64 8.32
9/13/2021 8:45:00 PM 20.82 69.476 0.179 7.69 1.22 8.25
9/13/2021 9:00:00 PM 20.76 69.368 0.179 7.66 1.27 8.22
9/13/2021 9:15:00 PM 20.7 69.26 0.179 7.62 0.92 8.18
9/13/2021 9:30:00 PM 20.65 69.17 0.179 7.59 1.07 8.16
9/13/2021 9:45:00 PM 20.6 69.08 0.179 7.56 1.47 8.13
9/13/2021 10:00:00 PM 20.55 68.99 0.179 7.53 3.54 8.11
9/13/2021 10:15:00 PM 20.5 68.9 0.179 7.51 1.34 8.09
9/13/2021 10:30:00 PM 20.45 68.81 0.179 7.49 1.62 8.07
9/13/2021 10:45:00 PM 20.4 68.72 0.18 7.46 1.08 8.07
9/13/2021 11:00:00 PM 20.35 68.63 0.18 7.44 1.9 8.06
9/13/2021 11:15:00 PM 20.3 68.54 0.18 7.42 1.29 8.04
9/13/2021 11:30:00 PM 20.27 68.486 0.18 7.4 1.91 8.04
9/13/2021 11:45:00 PM 20.22 68.396 0.18 7.39 2.04 8.04
9/14/2021 12:00:00 AM 20.17 68.306 0.18 7.37 0.87 8.03
9/14/2021 12:15:00 AM 20.12 68.216 0.18 7.35 1.25 8.04
9/14/2021 12:30:00 AM 20.09 68.162 0.181 7.34 1.63 8.05
9/14/2021 12:45:00 AM 20.04 68.07201 0.181 7.34 1.03 8.05
9/14/2021 1:00:00 AM 20 68 0.181 7.33 3.17 8.06
9/14/2021 1:15:00 AM 19.96 67.92799 0.181 7.32 1.73 8.06
9/14/2021 1:30:00 AM 19.92 67.856 0.181 7.3 1.53 8.07
9/14/2021 1:45:00 AM 19.87 67.766 0.181 7.28 1.46 8.08
9/14/2021 2:00:00 AM 19.84 67.712 0.181 7.28 1 8.07
9/14/2021 2:15:00 AM 19.81 67.658 0.181 7.28 0.97 8.08
9/14/2021 2:30:00 AM 19.77 67.586 0.181 7.27 0.76 8.08
9/14/2021 2:45:00 AM 19.74 67.532 0.181 7.26 1.26 8.1
9/14/2021 3:00:00 AM 19.7 67.46 0.181 7.24 0.98 8.12
9/14/2021 3:15:00 AM 19.67 67.406 0.181 7.24 1.3 8.13
9/14/2021 3:30:00 AM 19.64 67.352 0.181 7.24 1.38 8.13
9/14/2021 3:45:00 AM 19.61 67.298 0.181 7.22 1.48 8.14
9/14/2021 4:00:00 AM 19.58 67.244 0.181 7.2 0.75 8.13
9/14/2021 4:15:00 AM 19.55 67.19 0.181 7.2 2.82 8.15
9/14/2021 4:30:00 AM 19.52 67.136 0.181 7.21 2.07 8.15
9/14/2021 4:45:00 AM 19.5 67.1 0.181 7.2 4.45 8.15
9/14/2021 5:00:00 AM 19.47 67.046 0.181 7.21 1.36 8.14
9/14/2021 5:15:00 AM 19.44 66.992 0.181 7.21 1.9 8.15
9/14/2021 5:30:00 AM 19.41 66.938 0.181 7.21 1.27 8.17
9/14/2021 5:45:00 AM 19.39 66.902 0.181 7.22 1.85 8.17
9/14/2021 6:00:00 AM 19.36 66.848 0.181 7.22 2.19 8.19
9/14/2021 6:15:00 AM 19.33 66.794 0.181 7.22 1.29 8.18
9/14/2021 6:30:00 AM 19.3 66.74 0.181 7.22 1.53 8.19
9/14/2021 6:45:00 AM 19.26 66.668 0.181 7.22 0.8 8.21
9/14/2021 7:00:00 AM 19.23 66.614 0.181 7.22 1.3 8.22
9/14/2021 7:15:00 AM 19.2 66.56 0.181 7.23 0.9 8.23
9/14/2021 7:30:00 AM 19.18 66.524 0.181 7.23 1.03 8.25
9/14/2021 7:45:00 AM 19.16 66.488 0.182 7.24 1.33 8.31
9/14/2021 8:00:00 AM 19.14 66.452 0.182 7.24 2.1 8.34
9/14/2021 8:15:00 AM 19.13 66.434 0.182 7.24 1.26 8.41
9/14/2021 8:30:00 AM 19.12 66.416 0.182 7.24 1.66 8.48
9/14/2021 8:45:00 AM 19.12 66.416 0.181 7.25 0.82 8.58
9/14/2021 9:00:00 AM 19.13 66.434 0.181 7.25 2.37 8.67
9/14/2021 9:15:00 AM 19.15 66.47 0.181 7.25 2.68 8.78
9/14/2021 9:30:00 AM 19.17 66.506 0.181 7.26 1.06 8.89
9/14/2021 9:45:00 AM 19.2 66.56 0.181 7.27 0.76 9.01
9/14/2021 10:00:00 AM 19.25 66.65 0.181 7.28 1.46 9.12
9/14/2021 10:15:00 AM 19.29 66.722 0.181 7.29 1.08 9.25
9/14/2021 10:30:00 AM 19.36 66.848 0.181 7.3 1.1 9.33
9/14/2021 10:45:00 AM 19.44 66.992 0.181 7.31 1.24 9.49
9/14/2021 11:00:00 AM 19.53 67.154 0.18 7.32 0.88 9.61
9/14/2021 11:15:00 AM 19.64 67.352 0.18 7.34 1.09 9.75
9/14/2021 11:30:00 AM 19.74 67.532 0.18 7.35 0.93 9.9
9/14/2021 11:45:00 AM 19.86 67.748 0.18 7.37 1.04 9.97
9/14/2021 12:00:00 PM 20.02 68.036 0.18 7.39 0.52 10.05
9/14/2021 12:15:00 PM 20.18 68.324 0.18 7.4 1.77 10.16
9/14/2021 12:30:00 PM 20.35 68.63 0.179 7.43 0.71 10.21
9/14/2021 12:45:00 PM 20.53 68.954 0.179 7.46 0.73 10.27
9/14/2021 1:00:00 PM 20.76 69.368 0.179 7.48 0.77 10.31
9/14/2021 1:15:00 PM 20.96 69.728 0.179 7.51 0.65 10.4
9/14/2021 1:30:00 PM 21.19 70.142 0.179 7.55 0.76 10.41
9/14/2021 1:45:00 PM 21.45 70.61 0.179 7.6 0.94 10.44
9/14/2021 2:00:00 PM 21.65 70.97 0.179 7.63 0.9 10.48
9/14/2021 2:15:00 PM 21.86 71.348 0.179 7.66 0.79 10.43
9/14/2021 2:30:00 PM 22.01 71.618 0.179 7.68 1.06 10.43
9/14/2021 2:45:00 PM 22.03 71.654 0.179 7.71 0.9 10.4
9/14/2021 3:00:00 PM 22.09 71.762 0.179 7.76 0.75 10.3
9/14/2021 3:15:00 PM 22.17 71.906 0.179 7.79 0.78 10.25
9/14/2021 3:30:00 PM 22.23 72.014 0.179 7.82 0.93 10.21
9/14/2021 3:45:00 PM 22.3 72.14 0.179 7.86 0.63 10.18
9/14/2021 4:00:00 PM 22.38 72.284 0.179 7.86 0.59 10.15
9/14/2021 4:15:00 PM 22.4 72.32 0.179 7.9 0.72 10.09
9/14/2021 4:30:00 PM 22.39 72.302 0.179 7.94 0.66 10.03
9/14/2021 4:45:00 PM 22.34 72.212 0.179 7.98 0.77 9.91
9/14/2021 5:00:00 PM 22.27 72.086 0.179 8.05 0.86 9.8
9/14/2021 5:15:00 PM 22.22 71.996 0.179 8.09 1.14 9.69
9/14/2021 5:30:00 PM 22.15 71.87 0.179 8.13 0.9 9.61
9/14/2021 5:45:00 PM 22.08 71.744 0.178 8.17 0.81 9.48
9/14/2021 6:00:00 PM 22.01 71.618 0.178 8.19 0.85 9.38
9/14/2021 6:15:00 PM 21.95 71.51 0.178 8.19 0.97 9.25
9/14/2021 6:30:00 PM 21.89 71.402 0.177 8.18 0.97 9.16
9/14/2021 6:45:00 PM 21.81 71.258 0.177 8.18 0.67 9.04
9/14/2021 7:00:00 PM 21.72 71.096 0.177 8.16 1.01 8.94
9/14/2021 7:15:00 PM 21.61 70.898 0.177 8.14 0.7 8.76
9/14/2021 7:30:00 PM 21.52 70.736 0.177 8.11 1.26 8.65
9/14/2021 7:45:00 PM 21.43 70.574 0.177 8.08 1.37 8.54
9/14/2021 8:00:00 PM 21.36 70.448 0.177 8.03 0.94 8.41
9/14/2021 8:15:00 PM 21.28 70.304 0.177 7.99 1.08 8.34
9/14/2021 8:30:00 PM 21.21 70.17799 0.178 7.94 0.95 8.28
9/14/2021 8:45:00 PM 21.15 70.07 0.178 7.89 1.96 8.21
9/14/2021 9:00:00 PM 21.1 69.98 0.178 7.84 1.2 8.13
9/14/2021 9:15:00 PM 21.04 69.872 0.178 7.8 0.77 8.1
9/14/2021 9:30:00 PM 20.99 69.782 0.179 7.75 0.84 8.06
9/14/2021 9:45:00 PM 20.93 69.674 0.179 7.71 0.94 7.99
9/14/2021 10:00:00 PM 20.88 69.584 0.179 7.68 0.81 7.98
9/14/2021 10:15:00 PM 20.83 69.494 0.179 7.64 1.59 7.94
9/14/2021 10:30:00 PM 20.78 69.404 0.18 7.6 1.07 7.93
9/14/2021 10:45:00 PM 20.73 69.314 0.18 7.57 0.75 7.92
9/14/2021 11:00:00 PM 20.68 69.224 0.18 7.55 0.85 7.9
9/14/2021 11:15:00 PM 20.64 69.152 0.181 7.52 0.74 7.88
9/14/2021 11:30:00 PM 20.59 69.062 0.181 7.51 1.02 7.9
9/14/2021 11:45:00 PM 20.55 68.99 0.181 7.48 0.87 7.88
9/15/2021 12:00:00 AM 20.5 68.9 0.181 7.46 2.37 7.88
9/15/2021 12:15:00 AM 20.46 68.828 0.181 7.44 1.12 7.89
9/15/2021 12:30:00 AM 20.42 68.756 0.182 7.43 1.16 7.91
9/15/2021 12:45:00 AM 20.38 68.684 0.182 7.42 2.24 7.89
9/15/2021 1:00:00 AM 20.34 68.612 0.182 7.4 1.04 7.9
9/15/2021 1:15:00 AM 20.3 68.54 0.182 7.39 1.51 7.89
9/15/2021 1:30:00 AM 20.26 68.468 0.182 7.38 1.39 7.9
9/15/2021 1:45:00 AM 20.23 68.414 0.182 7.36 1.24 7.91
9/15/2021 2:00:00 AM 20.19 68.342 0.182 7.36 1.02 7.93
9/15/2021 2:15:00 AM 20.15 68.27 0.182 7.35 0.96 7.93
9/15/2021 2:30:00 AM 20.12 68.216 0.182 7.34 1.28 7.93
9/15/2021 2:45:00 AM 20.09 68.162 0.182 7.33 0.74 7.92
9/15/2021 3:00:00 AM 20.05 68.09 0.182 7.32 1.31 7.94
9/15/2021 3:15:00 AM 20.02 68.036 0.182 7.32 1.4 7.95
9/15/2021 3:30:00 AM 19.99 67.982 0.182 7.32 1.81 7.96
9/15/2021 3:45:00 AM 19.96 67.92799 0.182 7.31 1.51 7.96
9/15/2021 4:00:00 AM 19.93 67.874 0.182 7.31 1.45 7.95
9/15/2021 4:15:00 AM 19.89 67.802 0.182 7.3 1.89 7.97
9/15/2021 4:30:00 AM 19.86 67.748 0.182 7.3 1.26 7.97
9/15/2021 4:45:00 AM 19.83 67.694 0.182 7.29 1.65 7.96
9/15/2021 5:00:00 AM 19.81 67.658 0.182 7.28 3.85 7.97
9/15/2021 5:15:00 AM 19.78 67.604 0.182 7.27 1.63 7.95
9/15/2021 5:30:00 AM 19.74 67.532 0.182 7.28 1.88 7.99
9/15/2021 5:45:00 AM 19.71 67.478 0.181 7.27 1.23 7.99
9/15/2021 6:00:00 AM 19.68 67.424 0.181 7.27 1.37 7.99
9/15/2021 6:15:00 AM 19.65 67.37 0.181 7.26 1.43 8.01
9/15/2021 6:30:00 AM 19.63 67.334 0.181 7.26 1.38 8.03
9/15/2021 6:45:00 AM 19.6 67.28 0.181 7.26 0.79 8.01
9/15/2021 7:00:00 AM 19.58 67.244 0.181 7.26 0.96 8.03
9/15/2021 7:15:00 AM 19.55 67.19 0.181 7.25 0.98 8.05
9/15/2021 7:30:00 AM 19.53 67.154 0.181 7.25 1.07 8.07
9/15/2021 7:45:00 AM 19.51 67.118 0.181 7.24 1.32 8.11
9/15/2021 8:00:00 AM 19.49 67.082 0.181 7.25 0.78 8.17
9/15/2021 8:15:00 AM 19.48 67.064 0.181 7.24 2.12 8.23
9/15/2021 8:30:00 AM 19.47 67.046 0.181 7.24 1.01 8.29
9/15/2021 8:45:00 AM 19.47 67.046 0.181 7.24 0.71 8.34
9/15/2021 9:00:00 AM 19.47 67.046 0.181 7.24 0.79 8.42
9/15/2021 9:15:00 AM 19.48 67.064 0.181 7.24 0.65 8.52
9/15/2021 9:30:00 AM 19.5 67.1 0.181 7.24 0.72 8.61
9/15/2021 9:45:00 AM 19.54 67.172 0.181 7.24 0.54 8.7
9/15/2021 10:00:00 AM 19.58 67.244 0.181 7.23 0.79 8.79
9/15/2021 10:15:00 AM 19.63 67.334 0.18 7.23 0.82 8.87
9/15/2021 10:30:00 AM 19.69 67.442 0.18 7.23 0.99 8.97
9/15/2021 10:45:00 AM 19.76 67.568 0.18 7.23 0.76 9.06
9/15/2021 11:00:00 AM 19.87 67.766 0.18 7.23 0.95 9.17
9/15/2021 11:15:00 AM 19.96 67.92799 0.18 7.23 1.58 9.31
9/15/2021 11:30:00 AM 20.1 68.18 0.18 7.22 0.56 9.41
9/15/2021 11:45:00 AM 20.24 68.432 0.18 7.24 0.59 9.53
9/15/2021 12:00:00 PM 20.41 68.738 0.18 7.25 0.58 9.63
9/15/2021 12:15:00 PM 20.62 69.116 0.18 7.27 0.4 9.74
9/15/2021 12:30:00 PM 20.85 69.53 0.18 7.31 0.66 9.85
9/15/2021 12:45:00 PM 21.1 69.98 0.18 7.34 0.66 9.91
9/15/2021 1:00:00 PM 21.36 70.448 0.18 7.38 1.25 9.99
9/15/2021 1:15:00 PM 21.59 70.862 0.179 7.42 0.68 10.1
9/15/2021 1:30:00 PM 21.93 71.474 0.179 7.48 0.62 10.17
9/15/2021 1:45:00 PM 22.22 71.996 0.179 7.5 0.66 10.23
9/15/2021 2:00:00 PM 22.51 72.518 0.178 7.56 0.68 10.28
9/15/2021 2:15:00 PM 22.72 72.896 0.178 7.61 0.59 10.29
9/15/2021 2:30:00 PM 22.93 73.274 0.178 7.66 0.68 10.29
9/15/2021 2:45:00 PM 22.99 73.382 0.178 7.69 0.65 10.31
9/15/2021 3:00:00 PM 23.08 73.544 0.178 7.7 0.58 10.23
9/15/2021 3:15:00 PM 23.13 73.634 0.178 7.72 1.02 10.15
9/15/2021 3:30:00 PM 23.18 73.724 0.179 7.73 0.66 10.11
9/15/2021 3:45:00 PM 23.2 73.76 0.178 7.73 0.74 10.05
9/15/2021 4:00:00 PM 23.24 73.832 0.178 7.71 1.47 9.96
9/15/2021 4:15:00 PM 23.26 73.868 0.178 7.71 0.58 9.87
9/15/2021 4:30:00 PM 23.26 73.868 0.178 7.71 0.93 9.81
9/15/2021 4:45:00 PM 23.22 73.796 0.177 7.73 0.74 9.73
9/15/2021 5:00:00 PM 23.17 73.706 0.177 7.78 0.8 9.65
9/15/2021 5:15:00 PM 23.1 73.58 0.176 7.84 2.02 9.53
9/15/2021 5:30:00 PM 23.03 73.454 0.176 7.9 0.72 9.42
9/15/2021 5:45:00 PM 22.97 73.346 0.176 7.95 1.08 9.29
9/15/2021 6:00:00 PM 22.9 73.22 0.176 7.98 0.63 9.14
9/15/2021 6:15:00 PM 22.82 73.076 0.176 8 0.77 8.96
9/15/2021 6:30:00 PM 22.73 72.914 0.176 8 0.78 8.78
9/15/2021 6:45:00 PM 22.64 72.752 0.176 8.01 0.66 8.63
9/15/2021 7:00:00 PM 22.54 72.57201 0.176 8 0.6 8.52
9/15/2021 7:15:00 PM 22.44 72.392 0.176 7.98 0.57 8.39
9/15/2021 7:30:00 PM 22.34 72.212 0.176 7.95 0.86 8.26
9/15/2021 7:45:00 PM 22.25 72.05 0.177 7.93 1.24 8.16
9/15/2021 8:00:00 PM 22.15 71.87 0.177 7.88 0.74 8.05
9/15/2021 8:15:00 PM 22.06 71.708 0.177 7.84 1.1 8.01
9/15/2021 8:30:00 PM 21.98 71.564 0.178 7.8 0.98 7.94
9/15/2021 8:45:00 PM 21.89 71.402 0.178 7.75 0.89 7.9
9/15/2021 9:00:00 PM 21.81 71.258 0.179 7.71 2.87 7.84
9/15/2021 9:15:00 PM 21.74 71.132 0.179 7.68 0.74 7.81
9/15/2021 9:30:00 PM 21.67 71.006 0.179 7.65 0.42 7.78
9/15/2021 9:45:00 PM 21.61 70.898 0.18 7.62 1.11 7.75
9/15/2021 10:00:00 PM 21.55 70.79 0.18 7.6 0.51 7.73
9/15/2021 10:15:00 PM 21.5 70.7 0.18 7.57 0.81 7.7
9/15/2021 10:30:00 PM 21.45 70.61 0.18 7.54 0.77 7.7
9/15/2021 10:45:00 PM 21.39 70.502 0.181 7.51 0.68 7.68
9/15/2021 11:00:00 PM 21.34 70.412 0.181 7.49 0.55 7.7
9/15/2021 11:15:00 PM 21.29 70.32201 0.181 7.45 0.95 7.71
9/15/2021 11:30:00 PM 21.23 70.214 0.181 7.44 0.66 7.69
9/15/2021 11:45:00 PM 21.19 70.142 0.181 7.41 0.96 7.71
9/16/2021 12:00:00 AM 21.14 70.052 0.181 7.38 0.71 7.72
9/16/2021 12:15:00 AM 21.09 69.962 0.181 7.37 0.72 7.7
9/16/2021 12:30:00 AM 21.05 69.89 0.181 7.35 0.88 7.7
9/16/2021 12:45:00 AM 21.01 69.818 0.181 7.33 0.75 7.72
9/16/2021 1:00:00 AM 20.96 69.728 0.181 7.32 0.86 7.71
9/16/2021 1:15:00 AM 20.92 69.656 0.181 7.31 0.91 7.74
9/16/2021 1:30:00 AM 20.88 69.584 0.181 7.31 1.04 7.73
9/16/2021 1:45:00 AM 20.84 69.512 0.181 7.3 1.03 7.75
9/16/2021 2:00:00 AM 20.81 69.458 0.181 7.3 1.31 7.75
9/16/2021 2:15:00 AM 20.77 69.386 0.181 7.29 1.17 7.78
9/16/2021 2:30:00 AM 20.74 69.332 0.18 7.28 1.1 7.77
9/16/2021 2:45:00 AM 20.72 69.296 0.18 7.28 0.89 7.76
9/16/2021 3:00:00 AM 20.69 69.242 0.18 7.28 1.02 7.78
9/16/2021 3:15:00 AM 20.67 69.206 0.18 7.26 1.82 7.77
9/16/2021 3:30:00 AM 20.65 69.17 0.18 7.25 0.94 7.8
9/16/2021 3:45:00 AM 20.63 69.134 0.18 7.24 0.97 7.79
9/16/2021 4:00:00 AM 20.62 69.116 0.18 7.24 1.05 7.81
9/16/2021 4:15:00 AM 20.6 69.08 0.18 7.22 0.88 7.81
9/16/2021 4:30:00 AM 20.58 69.044 0.18 7.22 1.17 7.8
9/16/2021 4:45:00 AM 20.57 69.026 0.18 7.22 1.11 7.82
9/16/2021 5:00:00 AM 20.55 68.99 0.18 7.22 1.67 7.82
9/16/2021 5:15:00 AM 20.54 68.972 0.18 7.22 1.45 7.83
9/16/2021 5:30:00 AM 20.52 68.936 0.18 7.21 1.3 7.83
9/16/2021 5:45:00 AM 20.5 68.9 0.181 7.21 2.32 7.82
9/16/2021 6:00:00 AM 20.48 68.864 0.181 7.21 0.67 7.82
9/16/2021 6:15:00 AM 20.46 68.828 0.181 7.21 1.04 7.84
9/16/2021 6:30:00 AM 20.44 68.792 0.181 7.21 1.29 7.85
9/16/2021 6:45:00 AM 20.42 68.756 0.181 7.21 1.09 7.87
9/16/2021 7:00:00 AM 20.4 68.72 0.181 7.21 0.8 7.88
9/16/2021 7:15:00 AM 20.37 68.666 0.181 7.22 0.95 7.89
9/16/2021 7:30:00 AM 20.35 68.63 0.181 7.21 1.42 7.89
9/16/2021 7:45:00 AM 20.33 68.594 0.181 7.21 0.63 7.91
9/16/2021 8:00:00 AM 20.3 68.54 0.181 7.2 0.85 7.93
9/16/2021 8:15:00 AM 20.27 68.486 0.181 7.21 0.79 7.97
9/16/2021 8:30:00 AM 20.25 68.45 0.181 7.23 0.73 8.02
9/16/2021 8:45:00 AM 20.24 68.432 0.181 7.23 0.82 8.05
9/16/2021 9:00:00 AM 20.23 68.414 0.181 7.23 0.89 8.15
9/16/2021 9:15:00 AM 20.22 68.396 0.181 7.24 0.87 8.25
9/16/2021 9:30:00 AM 20.23 68.414 0.181 7.24 0.99 8.36
9/16/2021 9:45:00 AM 20.25 68.45 0.181 7.24 0.76 8.48
9/16/2021 10:00:00 AM 20.28 68.504 0.181 7.23 0.74 8.61
9/16/2021 10:15:00 AM 20.32 68.576 0.18 7.23 0.86 8.78
9/16/2021 10:30:00 AM 20.36 68.648 0.18 7.23 1.29 8.95
9/16/2021 10:45:00 AM 20.41 68.738 0.18 7.21 0.66 9.13
9/16/2021 11:00:00 AM 20.47 68.846 0.18 7.22 0.7 9.3
9/16/2021 11:15:00 AM 20.54 68.972 0.18 7.22 0.57 9.43
9/16/2021 11:30:00 AM 20.62 69.116 0.18 7.23 0.76 9.52
9/16/2021 11:45:00 AM 20.71 69.278 0.18 7.24 1.54 9.64
9/16/2021 12:00:00 PM 20.8 69.44 0.18 7.24 0.6 9.71
9/16/2021 12:15:00 PM 20.95 69.71 0.18 7.26 0.68 9.83
9/16/2021 12:30:00 PM 21.09 69.962 0.179 7.28 0.54 9.99
9/16/2021 12:45:00 PM 21.19 70.142 0.179 7.32 0.66 10.08
9/16/2021 1:00:00 PM 21.38 70.484 0.179 7.37 0.64 10.16
9/16/2021 1:15:00 PM 21.54 70.772 0.179 7.4 0.56 10.2
9/16/2021 1:30:00 PM 21.74 71.132 0.179 7.46 0.86 10.31
9/16/2021 1:45:00 PM 21.85 71.33 0.179 7.48 0.54 10.33
9/16/2021 2:00:00 PM 21.95 71.51 0.178 7.51 0.58 10.28
9/16/2021 2:15:00 PM 22.13 71.834 0.178 7.51 1.69 10.22
9/16/2021 2:30:00 PM 22.35 72.23 0.178 7.54 0.55 10.24
9/16/2021 2:45:00 PM 22.44 72.392 0.178 7.57 0.61 10.28
9/16/2021 3:00:00 PM 22.43 72.374 0.178 7.58 0.79 10.2
9/16/2021 3:15:00 PM 22.4 72.32 0.178 7.58 0.53 10.01
9/16/2021 3:30:00 PM 22.39 72.302 0.178 7.59 0.74 9.78
9/16/2021 3:45:00 PM 22.39 72.302 0.178 7.59 0.56 9.65
9/16/2021 4:00:00 PM 22.37 72.266 0.177 7.6 0.52 9.56
9/16/2021 4:15:00 PM 22.33 72.194 0.177 7.6 0.88 9.52
9/16/2021 4:30:00 PM 22.29 72.122 0.177 7.62 0.92 9.42
9/16/2021 4:45:00 PM 22.23 72.014 0.177 7.65 1.36 9.22
9/16/2021 5:00:00 PM 22.18 71.924 0.177 7.67 0.97 9.04
9/16/2021 5:15:00 PM 22.14 71.852 0.177 7.68 1.21 8.93
9/16/2021 5:30:00 PM 22.09 71.762 0.177 7.69 1.13 8.87
9/16/2021 5:45:00 PM 22.04 71.672 0.177 7.71 0.88 8.82
9/16/2021 6:00:00 PM 21.98 71.564 0.177 7.71 0.84 8.74
9/16/2021 6:15:00 PM 21.92 71.456 0.177 7.71 0.59 8.65
9/16/2021 6:30:00 PM 21.86 71.348 0.177 7.7 0.99 8.53
9/16/2021 6:45:00 PM 21.81 71.258 0.177 7.7 0.5 8.45
9/16/2021 7:00:00 PM 21.76 71.168 0.177 7.69 0.92 8.35
9/16/2021 7:15:00 PM 21.71 71.078 0.177 7.67 0.67 8.26
9/16/2021 7:30:00 PM 21.64 70.952 0.177 7.65 1.07 8.18
9/16/2021 7:45:00 PM 21.58 70.844 0.177 7.62 0.7 8.11
9/16/2021 8:00:00 PM 21.52 70.736 0.177 7.59 1.27 8.03
9/16/2021 8:15:00 PM 21.46 70.628 0.177 7.54 1.26 7.99
9/16/2021 8:30:00 PM 21.42 70.556 0.177 7.49 1.91 7.98
9/16/2021 8:45:00 PM 21.37 70.466 0.177 7.47 1.09 7.96
9/16/2021 9:00:00 PM 21.33 70.394 0.177 7.43 1.29 7.95
9/16/2021 9:15:00 PM 21.29 70.32201 0.177 7.41 1.15 7.96
9/16/2021 9:30:00 PM 21.23 70.214 0.178 7.41 2.3 7.94
9/16/2021 9:45:00 PM 21.19 70.142 0.178 7.4 1.73 7.93
9/16/2021 10:00:00 PM 21.14 70.052 0.178 7.4 4.13 7.85
9/16/2021 10:15:00 PM 21.1 69.98 0.178 7.38 2.49 7.86
9/16/2021 10:30:00 PM 21.07 69.926 0.179 7.38 1.85 7.85
9/16/2021 10:45:00 PM 21.04 69.872 0.179 7.37 2.58 7.85
9/16/2021 11:00:00 PM 21.01 69.818 0.179 7.34 2.08 7.85
9/16/2021 11:15:00 PM 20.99 69.782 0.179 7.32 1.73 7.82
9/16/2021 11:30:00 PM 20.96 69.728 0.179 7.31 1.53 7.79
9/16/2021 11:45:00 PM 20.94 69.692 0.18 7.29 1.24 7.8
9/17/2021 12:00:00 AM 20.92 69.656 0.18 7.25 1.42 7.78
9/17/2021 12:15:00 AM 20.9 69.62 0.18 7.23 1.46 7.79
9/17/2021 12:30:00 AM 20.88 69.584 0.18 7.22 1 7.79
9/17/2021 12:45:00 AM 20.86 69.548 0.18 7.21 1.82 7.77
9/17/2021 1:00:00 AM 20.84 69.512 0.18 7.2 1.78 7.78
9/17/2021 1:15:00 AM 20.82 69.476 0.179 7.18 2.22 7.76
9/17/2021 1:30:00 AM 20.79 69.422 0.179 7.17 1.47 7.77
9/17/2021 1:45:00 AM 20.75 69.35 0.179 7.17 1.59 7.8
9/17/2021 2:00:00 AM 20.73 69.314 0.178 7.16 2.04 7.8
9/17/2021 2:15:00 AM 20.69 69.242 0.177 7.16 2.26 7.8
9/17/2021 2:30:00 AM 20.67 69.206 0.177 7.15 2.78 7.8
9/17/2021 2:45:00 AM 20.64 69.152 0.176 7.13 2.63 7.81
9/17/2021 3:00:00 AM 20.62 69.116 0.176 7.14 3.58 7.82
9/17/2021 3:15:00 AM 20.59 69.062 0.175 7.14 9.17 7.79
9/17/2021 3:30:00 AM 20.58 69.044 0.175 7.16 7.56 7.82
9/17/2021 3:45:00 AM 20.56 69.008 0.175 7.15 8.98 7.8
9/17/2021 4:00:00 AM 20.55 68.99 0.175 7.16 10.72 7.79
9/17/2021 4:15:00 AM 20.54 68.972 0.175 7.17 14.65 7.78
9/17/2021 4:30:00 AM 20.53 68.954 0.174 7.18 14.91 7.78
9/17/2021 4:45:00 AM 20.52 68.936 0.174 7.18 16.61 7.73
9/17/2021 5:00:00 AM 20.51 68.918 0.174 7.17 17.42 7.69
9/17/2021 5:15:00 AM 20.5 68.9 0.174 7.18 19.22 7.77
9/17/2021 5:30:00 AM 20.49 68.882 0.174 7.18 18.44 7.8
9/17/2021 5:45:00 AM 20.48 68.864 0.173 7.2 16.94 7.79
9/17/2021 6:00:00 AM 20.47 68.846 0.173 7.2 19.32 7.8
9/17/2021 6:15:00 AM 20.46 68.828 0.173 7.21 17.64 7.8
9/17/2021 6:30:00 AM 20.45 68.81 0.173 7.2 21.26 7.82
9/17/2021 6:45:00 AM 20.43 68.774 0.173 7.21 13.1 7.82
9/17/2021 7:00:00 AM 20.42 68.756 0.173 7.2 13.49 7.84
9/17/2021 7:15:00 AM 20.41 68.738 0.173 7.2 11.18 7.81
9/17/2021 7:30:00 AM 20.4 68.72 0.173 7.2 10.68 7.85
9/17/2021 7:45:00 AM 20.39 68.702 0.173 7.2 10.27 7.89
9/17/2021 8:00:00 AM 20.38 68.684 0.173 7.21 9.56 7.9
9/17/2021 8:15:00 AM 20.38 68.684 0.173 7.21 8.13 7.94
9/17/2021 8:30:00 AM 20.37 68.666 0.173 7.21 7.31 7.99
9/17/2021 8:45:00 AM 20.36 68.648 0.174 7.21 6.12 8.05
9/17/2021 9:00:00 AM 20.36 68.648 0.174 7.21 5.33 8.11
9/17/2021 9:15:00 AM 20.36 68.648 0.174 7.22 4.41 8.17
9/17/2021 9:30:00 AM 20.38 68.684 0.174 7.22 4.81 8.27
9/17/2021 9:45:00 AM 20.39 68.702 0.174 7.22 3.42 8.39
9/17/2021 10:00:00 AM 20.4 68.72 0.175 7.21 3.1 8.45
9/17/2021 10:15:00 AM 20.42 68.756 0.175 7.2 4.17 8.56
9/17/2021 10:30:00 AM 20.45 68.81 0.175 7.19 2.47 8.68
9/17/2021 10:45:00 AM 20.49 68.882 0.175 7.2 1.96 8.88
9/17/2021 11:00:00 AM 20.54 68.972 0.175 7.22 2.2 9.05
9/17/2021 11:15:00 AM 20.59 69.062 0.176 7.25 2.16 9.21
9/17/2021 11:30:00 AM 20.64 69.152 0.176 7.26 1.74 9.33
9/17/2021 11:45:00 AM 20.71 69.278 0.176 7.26 1.42 9.49
9/17/2021 12:00:00 PM 20.78 69.404 0.176 7.27 1.3 9.59
9/17/2021 12:15:00 PM 20.82 69.476 0.176 7.3 1.83 9.65
9/17/2021 12:30:00 PM 20.86 69.548 0.176 7.31 1.25 9.62
9/17/2021 12:45:00 PM 20.89 69.602 0.177 7.3 1.11 9.62
9/17/2021 1:00:00 PM 20.94 69.692 0.177 7.31 1.33 9.66
9/17/2021 1:15:00 PM 21 69.8 0.177 7.31 1.08 9.7
9/17/2021 1:30:00 PM 21.07 69.926 0.177 7.31 1.22 9.82
9/17/2021 1:45:00 PM 21.13 70.034 0.177 7.31 1.38 9.88
9/17/2021 2:00:00 PM 21.16 70.088 0.177 7.32 1.53 9.86
9/17/2021 2:15:00 PM 21.21 70.17799 0.177 7.34 1.5 9.73
9/17/2021 2:30:00 PM 21.41 70.538 0.177 7.37 1.59 9.75
9/17/2021 2:45:00 PM 21.49 70.682 0.177 7.39 1.54 9.84
9/17/2021 3:00:00 PM 21.55 70.79 0.177 7.42 1.49 9.86
9/17/2021 3:15:00 PM 21.57 70.826 0.177 7.45 1.77 9.93
9/17/2021 3:30:00 PM 21.59 70.862 0.177 7.47 2.02 9.97
9/17/2021 3:45:00 PM 21.63 70.934 0.176 7.5 1.74 9.97
9/17/2021 4:00:00 PM 21.68 71.024 0.176 7.51 1.53 9.97
9/17/2021 4:15:00 PM 21.74 71.132 0.176 7.54 1.36 9.87
9/17/2021 4:30:00 PM 21.74 71.132 0.175 7.57 1.26 9.69
9/17/2021 4:45:00 PM 21.74 71.132 0.175 7.58 1.27 9.53
9/17/2021 5:00:00 PM 21.75 71.15 0.175 7.57 1.7 9.39
9/17/2021 5:15:00 PM 21.77 71.186 0.175 7.58 1.28 9.33
9/17/2021 5:30:00 PM 21.79 71.222 0.174 7.58 1.03 9.28
9/17/2021 5:45:00 PM 21.78 71.204 0.174 7.57 0.88 9.12
9/17/2021 6:00:00 PM 21.77 71.186 0.174 7.59 1.51 9.01
9/17/2021 6:15:00 PM 21.75 71.15 0.174 7.6 1.12 8.91
9/17/2021 6:30:00 PM 21.71 71.078 0.174 7.61 0.91 8.82
9/17/2021 6:45:00 PM 21.64 70.952 0.174 7.64 1.17 8.7
9/17/2021 7:00:00 PM 21.56 70.808 0.174 7.66 0.93 8.6
9/17/2021 7:15:00 PM 21.5 70.7 0.174 7.66 1.21 8.48
9/17/2021 7:30:00 PM 21.45 70.61 0.174 7.65 1.12 8.38
9/17/2021 7:45:00 PM 21.37 70.466 0.175 7.64 1.04 8.27
9/17/2021 8:00:00 PM 21.31 70.358 0.175 7.58 1.49 8.2
9/17/2021 8:15:00 PM 21.24 70.232 0.175 7.52 1.11 8.14
9/17/2021 8:30:00 PM 21.18 70.124 0.175 7.46 1.42 8.08
9/17/2021 8:45:00 PM 21.11 69.998 0.175 7.43 0.81 8.04
9/17/2021 9:00:00 PM 21.05 69.89 0.175 7.4 0.88 8
9/17/2021 9:15:00 PM 20.98 69.764 0.175 7.38 1.19 7.97
9/17/2021 9:30:00 PM 20.92 69.656 0.175 7.37 0.98 7.93
9/17/2021 9:45:00 PM 20.87 69.566 0.175 7.37 1.06 7.92
9/17/2021 10:00:00 PM 20.82 69.476 0.175 7.37 1.38 7.91
9/17/2021 10:15:00 PM 20.77 69.386 0.175 7.37 1.01 7.9
9/17/2021 10:30:00 PM 20.72 69.296 0.175 7.37 0.94 7.88
9/17/2021 10:45:00 PM 20.67 69.206 0.175 7.36 1.08 7.87
9/17/2021 11:00:00 PM 20.62 69.116 0.175 7.35 0.77 7.88
9/17/2021 11:15:00 PM 20.58 69.044 0.175 7.34 1.04 7.87
9/17/2021 11:30:00 PM 20.53 68.954 0.175 7.33 1.23 7.85
9/17/2021 11:45:00 PM 20.49 68.882 0.176 7.33 1.19 7.86
9/18/2021 12:00:00 AM 20.44 68.792 0.176 7.33 0.94 7.87
9/18/2021 12:15:00 AM 20.4 68.72 0.176 7.33 0.76 7.87
9/18/2021 12:30:00 AM 20.35 68.63 0.176 7.32 0.7 7.86
9/18/2021 12:45:00 AM 20.31 68.558 0.176 7.32 0.9 7.87
9/18/2021 1:00:00 AM 20.26 68.468 0.176 7.31 0.82 7.88
9/18/2021 1:15:00 AM 20.21 68.378 0.176 7.32 1.07 7.89
9/18/2021 1:30:00 AM 20.16 68.288 0.176 7.31 1.14 7.89
9/18/2021 1:45:00 AM 20.11 68.198 0.176 7.31 0.81 7.92
9/18/2021 2:00:00 AM 20.07 68.126 0.176 7.3 0.9 7.91
9/18/2021 2:15:00 AM 20.02 68.036 0.176 7.3 0.94 7.92
9/18/2021 2:30:00 AM 19.98 67.964 0.176 7.3 1.28 7.94
9/18/2021 2:45:00 AM 19.94 67.892 0.176 7.3 1.05 7.95
9/18/2021 3:00:00 AM 19.91 67.838 0.176 7.29 1.68 7.94
9/18/2021 3:15:00 AM 19.88 67.784 0.176 7.29 1.11 7.96
9/18/2021 3:30:00 AM 19.84 67.712 0.177 7.29 1.52 7.97
9/18/2021 3:45:00 AM 19.8 67.64 0.177 7.29 0.94 7.98
9/18/2021 4:00:00 AM 19.76 67.568 0.177 7.29 1.42 7.98
9/18/2021 4:15:00 AM 19.73 67.514 0.177 7.28 0.87 7.98
9/18/2021 4:30:00 AM 19.71 67.478 0.177 7.29 1.23 7.98
9/18/2021 4:45:00 AM 19.69 67.442 0.177 7.28 1.07 8
9/18/2021 5:00:00 AM 19.67 67.406 0.177 7.28 1.6 7.99
9/18/2021 5:15:00 AM 19.65 67.37 0.177 7.28 1.17 8.01
9/18/2021 5:30:00 AM 19.64 67.352 0.177 7.28 1.3 8
9/18/2021 5:45:00 AM 19.62 67.316 0.177 7.28 1.68 7.99
9/18/2021 6:00:00 AM 19.61 67.298 0.177 7.28 1.31 8.02
9/18/2021 6:15:00 AM 19.6 67.28 0.177 7.28 1.32 8.01
9/18/2021 6:30:00 AM 19.59 67.262 0.177 7.27 1.55 8.03
9/18/2021 6:45:00 AM 19.58 67.244 0.177 7.27 2.06 8.04
9/18/2021 7:00:00 AM 19.57 67.226 0.177 7.27 1.14 8.05
9/18/2021 7:15:00 AM 19.57 67.226 0.177 7.27 1.73 8.04
9/18/2021 7:30:00 AM 19.56 67.208 0.177 7.27 1.45 8.06
9/18/2021 7:45:00 AM 19.57 67.226 0.177 7.27 0.97 8.11
9/18/2021 8:00:00 AM 19.58 67.244 0.178 7.27 1.1 8.16
9/18/2021 8:15:00 AM 19.59 67.262 0.177 7.28 0.98 8.23
9/18/2021 8:30:00 AM 19.61 67.298 0.178 7.29 1.69 8.31
9/18/2021 8:45:00 AM 19.63 67.334 0.177 7.3 0.82 8.38
9/18/2021 9:00:00 AM 19.64 67.352 0.177 7.31 0.72 8.5
9/18/2021 9:15:00 AM 19.67 67.406 0.177 7.33 0.95 8.58
9/18/2021 9:30:00 AM 19.69 67.442 0.177 7.34 0.65 8.65
9/18/2021 9:45:00 AM 19.72 67.496 0.177 7.36 0.71 8.78
9/18/2021 10:00:00 AM 19.77 67.586 0.177 7.38 0.8 8.88
9/18/2021 10:15:00 AM 19.82 67.676 0.177 7.4 0.72 9.09
9/18/2021 10:30:00 AM 19.88 67.784 0.177 7.42 0.37 9.25
9/18/2021 10:45:00 AM 19.94 67.892 0.176 7.46 1.14 9.43
9/18/2021 11:00:00 AM 19.98 67.964 0.176 7.49 0.61 9.54
9/18/2021 11:15:00 AM 20.05 68.09 0.176 7.52 0.99 9.6
9/18/2021 11:30:00 AM 20.17 68.306 0.176 7.56 0.66 9.73
9/18/2021 11:45:00 AM 20.24 68.432 0.176 7.59 0.44 9.79
9/18/2021 12:00:00 PM 20.39 68.702 0.175 7.63 0.63 9.88
9/18/2021 12:15:00 PM 20.51 68.918 0.175 7.67 0.57 9.96
9/18/2021 12:30:00 PM 20.69 69.242 0.175 7.7 0.62 10.05
9/18/2021 12:45:00 PM 20.9 69.62 0.175 7.74 1.74 10.13
9/18/2021 1:00:00 PM 21.1 69.98 0.175 7.78 0.59 10.16
9/18/2021 1:15:00 PM 21.29 70.32201 0.174 7.83 0.81 10.17
9/18/2021 1:30:00 PM 21.55 70.79 0.174 7.85 0.69 10.19
9/18/2021 1:45:00 PM 21.83 71.294 0.174 7.88 0.54 10.21
9/18/2021 2:00:00 PM 22.05 71.69 0.174 7.93 0.57 10.26
9/18/2021 2:15:00 PM 22.35 72.23 0.174 7.96 0.52 10.24
9/18/2021 2:30:00 PM 22.49 72.482 0.174 7.99 0.69 10.26
9/18/2021 2:45:00 PM 22.61 72.698 0.174 8.02 0.56 10.21
9/18/2021 3:00:00 PM 22.73 72.914 0.174 8.06 0.77 10.2
9/18/2021 3:15:00 PM 22.76 72.968 0.174 8.11 0.75 10.14
9/18/2021 3:30:00 PM 22.79 73.022 0.174 8.14 0.61 10
9/18/2021 3:45:00 PM 22.83 73.094 0.174 8.17 0.79 9.87
9/18/2021 4:00:00 PM 22.84 73.112 0.174 8.19 0.38 9.76
9/18/2021 4:15:00 PM 22.86 73.148 0.174 8.21 0.58 9.68
9/18/2021 4:30:00 PM 22.84 73.112 0.174 8.23 0.62 9.64
9/18/2021 4:45:00 PM 22.77 72.986 0.174 8.24 0.62 9.53
9/18/2021 5:00:00 PM 22.68 72.824 0.174 8.24 0.53 9.41
9/18/2021 5:15:00 PM 22.58 72.644 0.174 8.24 0.62 9.24
9/18/2021 5:30:00 PM 22.48 72.464 0.174 8.22 0.85 9.08
9/18/2021 5:45:00 PM 22.38 72.284 0.174 8.2 0.49 8.88
9/18/2021 6:00:00 PM 22.28 72.104 0.175 8.18 0.66 8.8
9/18/2021 6:15:00 PM 22.18 71.924 0.175 8.16 0.53 8.72
9/18/2021 6:30:00 PM 22.08 71.744 0.175 8.13 0.93 8.62
9/18/2021 6:45:00 PM 21.98 71.564 0.175 8.1 1.09 8.5
9/18/2021 7:00:00 PM 21.88 71.384 0.176 8.06 0.67 8.42
9/18/2021 7:15:00 PM 21.79 71.222 0.176 8.03 0.86 8.3
9/18/2021 7:30:00 PM 21.7 71.06 0.176 7.98 0.6 8.23
9/18/2021 7:45:00 PM 21.6 70.88 0.177 7.92 0.73 8.12
9/18/2021 8:00:00 PM 21.5 70.7 0.177 7.87 0.84 8.06
9/18/2021 8:15:00 PM 21.4 70.52 0.177 7.82 1.01 7.99
9/18/2021 8:30:00 PM 21.3 70.34 0.178 7.76 1.8 7.98
9/18/2021 8:45:00 PM 21.21 70.17799 0.178 7.71 0.93 7.92
9/18/2021 9:00:00 PM 21.13 70.034 0.178 7.67 1.49 7.89
9/18/2021 9:15:00 PM 21.06 69.908 0.178 7.64 0.69 7.83
9/18/2021 9:30:00 PM 20.99 69.782 0.179 7.59 1.49 7.85
9/18/2021 9:45:00 PM 20.93 69.674 0.179 7.56 0.58 7.84
9/18/2021 10:00:00 PM 20.87 69.566 0.179 7.53 1.93 7.82
9/18/2021 10:15:00 PM 20.81 69.458 0.179 7.51 0.92 7.8
9/18/2021 10:30:00 PM 20.76 69.368 0.179 7.49 16.13 7.8
9/18/2021 10:45:00 PM 20.7 69.26 0.179 7.45 1.4 7.8
9/18/2021 11:00:00 PM 20.64 69.152 0.179 7.44 0.69 7.82
9/18/2021 11:15:00 PM 20.58 69.044 0.18 7.41 1.44 7.82
9/18/2021 11:30:00 PM 20.53 68.954 0.18 7.39 1.18 7.82
9/18/2021 11:45:00 PM 20.48 68.864 0.18 7.38 0.82 7.84
9/19/2021 12:00:00 AM 20.43 68.774 0.18 7.37 0.83 7.84
9/19/2021 12:15:00 AM 20.38 68.684 0.18 7.36 1.28 7.84
9/19/2021 12:30:00 AM 20.32 68.576 0.18 7.35 0.65 7.81
9/19/2021 12:45:00 AM 20.28 68.504 0.18 7.35 0.8 7.82
9/19/2021 1:00:00 AM 20.23 68.414 0.18 7.35 1.56 7.84
9/19/2021 1:15:00 AM 20.18 68.324 0.18 7.34 0.82 7.86
9/19/2021 1:30:00 AM 20.13 68.234 0.18 7.33 0.71 7.85
9/19/2021 1:45:00 AM 20.08 68.144 0.18 7.32 0.82 7.88
9/19/2021 2:00:00 AM 20.04 68.07201 0.18 7.32 0.66 7.88
9/19/2021 2:15:00 AM 19.99 67.982 0.18 7.31 1.4 7.89
9/19/2021 2:30:00 AM 19.95 67.91 0.18 7.31 0.9 7.9
9/19/2021 2:45:00 AM 19.9 67.82 0.18 7.3 2.46 7.9
9/19/2021 3:00:00 AM 19.85 67.73 0.18 7.3 0.85 7.91
9/19/2021 3:15:00 AM 19.81 67.658 0.18 7.29 1.97 7.94
9/19/2021 3:30:00 AM 19.76 67.568 0.18 7.29 1.55 7.92
9/19/2021 3:45:00 AM 19.72 67.496 0.18 7.29 1.2 7.92
9/19/2021 4:00:00 AM 19.68 67.424 0.18 7.29 0.95 7.95
9/19/2021 4:15:00 AM 19.65 67.37 0.18 7.28 1.51 7.96
9/19/2021 4:30:00 AM 19.61 67.298 0.18 7.28 0.88 7.99
9/19/2021 4:45:00 AM 19.57 67.226 0.18 7.28 1.04 8
9/19/2021 5:00:00 AM 19.53 67.154 0.18 7.27 2.92 8
9/19/2021 5:15:00 AM 19.49 67.082 0.18 7.27 1.34 8
9/19/2021 5:30:00 AM 19.46 67.028 0.18 7.27 1.6 8.02
9/19/2021 5:45:00 AM 19.42 66.956 0.18 7.27 5.07 7.99
9/19/2021 6:00:00 AM 19.39 66.902 0.18 7.27 1.37 8.02
9/19/2021 6:15:00 AM 19.36 66.848 0.18 7.27 1.05 8.02
9/19/2021 6:30:00 AM 19.33 66.794 0.18 7.27 0.91 8.05
9/19/2021 6:45:00 AM 19.3 66.74 0.18 7.26 0.98 8.05
9/19/2021 7:00:00 AM 19.26 66.668 0.18 7.27 1 8.09
9/19/2021 7:15:00 AM 19.22 66.596 0.18 7.27 0.91 8.08
9/19/2021 7:30:00 AM 19.17 66.506 0.18 7.27 1.13 8.13
9/19/2021 7:45:00 AM 19.13 66.434 0.18 7.27 0.83 8.15
9/19/2021 8:00:00 AM 19.09 66.362 0.18 7.28 0.6 8.19
9/19/2021 8:15:00 AM 19.06 66.308 0.18 7.28 0.65 8.26
9/19/2021 8:30:00 AM 19.03 66.254 0.18 7.29 1.58 8.23
9/19/2021 8:45:00 AM 18.99 66.182 0.18 7.3 1.25 8.26
9/19/2021 9:00:00 AM 18.96 66.128 0.179 7.3 0.76 8.37
9/19/2021 9:15:00 AM 18.94 66.092 0.179 7.31 1.68 8.43
9/19/2021 9:30:00 AM 18.93 66.074 0.179 7.33 0.74 8.53
9/19/2021 9:45:00 AM 18.93 66.074 0.179 7.34 0.66 8.6
9/19/2021 10:00:00 AM 18.93 66.074 0.179 7.35 0.66 8.67
9/19/2021 10:15:00 AM 18.94 66.092 0.179 7.36 0.52 8.76
9/19/2021 10:30:00 AM 18.96 66.128 0.179 7.37 0.83 8.8
9/19/2021 10:45:00 AM 18.99 66.182 0.179 7.39 1.04 8.89
9/19/2021 11:00:00 AM 19.04 66.272 0.179 7.4 0.91 9
9/19/2021 11:15:00 AM 19.11 66.398 0.178 7.42 0.66 9.14
9/19/2021 11:30:00 AM 19.19 66.542 0.178 7.43 0.7 9.25
9/19/2021 11:45:00 AM 19.3 66.74 0.178 7.45 0.99 9.34
9/19/2021 12:00:00 PM 19.42 66.956 0.178 7.47 0.53 9.45
9/19/2021 12:15:00 PM 19.6 67.28 0.178 7.49 0.93 9.57
9/19/2021 12:30:00 PM 19.84 67.712 0.177 7.51 4.37 9.67
9/19/2021 12:45:00 PM 20.04 68.07201 0.177 7.53 0.52 9.76
9/19/2021 1:00:00 PM 20.27 68.486 0.177 7.56 0.74 9.83
9/19/2021 1:15:00 PM 20.52 68.936 0.177 7.59 0.41 9.88
9/19/2021 1:30:00 PM 20.82 69.476 0.176 7.61 0.4 9.93
9/19/2021 1:45:00 PM 21.12 70.016 0.176 7.63 0.49 10.01
9/19/2021 2:00:00 PM 21.48 70.664 0.176 7.65 0.75 10.06
9/19/2021 2:15:00 PM 21.79 71.222 0.176 7.68 0.53 10.09
9/19/2021 2:30:00 PM 21.96 71.528 0.176 7.73 0.81 10.08
9/19/2021 2:45:00 PM 22.02 71.636 0.176 7.78 1.12 10.07
9/19/2021 3:00:00 PM 22.11 71.798 0.176 7.83 1.73 10.01
9/19/2021 3:15:00 PM 22.19 71.942 0.176 7.88 1.4 9.97
9/19/2021 3:30:00 PM 22.24 72.032 0.176 7.93 0.45 9.9
9/19/2021 3:45:00 PM 22.27 72.086 0.176 7.97 0.7 9.86
9/19/2021 4:00:00 PM 22.26 72.068 0.176 8.01 0.6 9.78
9/19/2021 4:15:00 PM 22.23 72.014 0.176 8.04 0.73 9.65
9/19/2021 4:30:00 PM 22.18 71.924 0.176 8.07 0.68 9.59
9/19/2021 4:45:00 PM 22.1 71.78 0.176 8.08 0.72 9.46
9/19/2021 5:00:00 PM 21.97 71.546 0.176 8.1 0.73 9.34
9/19/2021 5:15:00 PM 21.84 71.312 0.176 8.09 0.78 9.19
9/19/2021 5:30:00 PM 21.7 71.06 0.176 8.09 0.97 9.05
9/19/2021 5:45:00 PM 21.58 70.844 0.177 8.06 0.74 8.93
9/19/2021 6:00:00 PM 21.46 70.628 0.177 8.04 0.88 8.85
9/19/2021 6:15:00 PM 21.34 70.412 0.177 8.02 0.71 8.76
9/19/2021 6:30:00 PM 21.2 70.16 0.177 7.99 0.86 8.7
9/19/2021 6:45:00 PM 21.06 69.908 0.178 7.96 4.82 8.62
9/19/2021 7:00:00 PM 20.92 69.656 0.178 7.92 0.66 8.54
9/19/2021 7:15:00 PM 20.77 69.386 0.178 7.88 0.75 8.47
9/19/2021 7:30:00 PM 20.63 69.134 0.178 7.84 0.86 8.4
9/19/2021 7:45:00 PM 20.48 68.864 0.179 7.79 1.08 8.32
9/19/2021 8:00:00 PM 20.35 68.63 0.179 7.75 0.74 8.26
9/19/2021 8:15:00 PM 20.19 68.342 0.179 7.7 1.19 8.2
9/19/2021 8:30:00 PM 20.06 68.108 0.179 7.66 2.69 8.16
9/19/2021 8:45:00 PM 19.93 67.874 0.179 7.63 0.93 8.16
9/19/2021 9:00:00 PM 19.83 67.694 0.179 7.6 1.24 8.13
9/19/2021 9:15:00 PM 19.71 67.478 0.179 7.56 1.01 8.13
9/19/2021 9:30:00 PM 19.61 67.298 0.18 7.53 0.84 8.12
9/19/2021 9:45:00 PM 19.52 67.136 0.18 7.51 0.72 8.13
9/19/2021 10:00:00 PM 19.42 66.956 0.18 7.49 0.67 8.13
9/19/2021 10:15:00 PM 19.33 66.794 0.18 7.48 1.13 8.12
9/19/2021 10:30:00 PM 19.24 66.632 0.18 7.45 0.56 8.13
9/19/2021 10:45:00 PM 19.15 66.47 0.18 7.44 0.73 8.12
9/19/2021 11:00:00 PM 19.05 66.29 0.18 7.43 0.82 8.15
9/19/2021 11:15:00 PM 18.97 66.146 0.18 7.41 0.96 8.14
9/19/2021 11:30:00 PM 18.89 66.002 0.18 7.4 0.81 8.17
9/19/2021 11:45:00 PM 18.8 65.84 0.18 7.4 0.86 8.18
9/20/2021 12:00:00 AM 18.74 65.732 0.18 7.39 0.61 8.19
9/20/2021 12:15:00 AM 18.65 65.57 0.18 7.38 1.07 8.2
9/20/2021 12:30:00 AM 18.56 65.408 0.18 7.37 0.61 8.23
9/20/2021 12:45:00 AM 18.49 65.282 0.18 7.37 0.67 8.23
9/20/2021 1:00:00 AM 18.4 65.12 0.18 7.37 0.9 8.25
9/20/2021 1:15:00 AM 18.32 64.976 0.18 7.36 0.82 8.27
9/20/2021 1:30:00 AM 18.24 64.832 0.18 7.36 0.73 8.31
9/20/2021 1:45:00 AM 18.16 64.688 0.18 7.35 0.86 8.31
9/20/2021 2:00:00 AM 18.09 64.562 0.18 7.35 0.99 8.34
9/20/2021 2:15:00 AM 18 64.4 0.18 7.35 0.93 8.35
9/20/2021 2:30:00 AM 17.93 64.274 0.18 7.34 2.66 8.37
9/20/2021 2:45:00 AM 17.86 64.148 0.18 7.34 0.85 8.39
9/20/2021 3:00:00 AM 17.79 64.022 0.18 7.33 0.82 8.4
9/20/2021 3:15:00 AM 17.72 63.896 0.18 7.33 0.62 8.41
9/20/2021 3:30:00 AM 17.65 63.77 0.18 7.33 0.75 8.44
9/20/2021 3:45:00 AM 17.58 63.644 0.18 7.33 0.96 8.43
9/20/2021 4:00:00 AM 17.52 63.536 0.18 7.33 0.95 8.48
9/20/2021 4:15:00 AM 17.45 63.41 0.18 7.32 1.05 8.48
9/20/2021 4:30:00 AM 17.39 63.302 0.179 7.32 0.99 8.51
9/20/2021 4:45:00 AM 17.33 63.194 0.179 7.32 0.77 8.52
9/20/2021 5:00:00 AM 17.27 63.086 0.179 7.32 0.89 8.54
9/20/2021 5:15:00 AM 17.22 62.996 0.179 7.32 4.2 8.54
9/20/2021 5:30:00 AM 17.15 62.87 0.18 7.31 0.76 8.57
9/20/2021 5:45:00 AM 17.12 62.816 0.18 7.31 0.92 8.58
9/20/2021 6:00:00 AM 17.06 62.708 0.18 7.31 1.09 8.58
9/20/2021 6:15:00 AM 17.01 62.618 0.18 7.3 1 8.6
9/20/2021 6:30:00 AM 16.95 62.51 0.18 7.3 1.16 8.61
9/20/2021 6:45:00 AM 16.89 62.402 0.18 7.3 1.02 8.64
9/20/2021 7:00:00 AM 16.88 62.384 0.18 7.3 0.7 8.64
9/20/2021 7:15:00 AM 16.79 62.222 0.18 7.3 0.79 8.67
9/20/2021 7:30:00 AM 16.74 62.132 0.18 7.3 0.76 8.69
9/20/2021 7:45:00 AM 16.69 62.042 0.18 7.3 1.05 8.75
9/20/2021 8:00:00 AM 16.67 62.006 0.18 7.3 0.74 8.79
9/20/2021 8:15:00 AM 16.64 61.952 0.18 7.3 0.83 8.85
9/20/2021 8:30:00 AM 16.62 61.916 0.18 7.3 2.34 8.92
9/20/2021 8:45:00 AM 16.63 61.934 0.18 7.31 1.43 9.04
9/20/2021 9:00:00 AM 16.6 61.88 0.18 7.32 1 9.12
9/20/2021 9:15:00 AM 16.59 61.862 0.18 7.32 0.69 9.16
9/20/2021 9:30:00 AM 16.6 61.88 0.179 7.33 0.54 9.19
9/20/2021 9:45:00 AM 16.63 61.934 0.179 7.34 0.82 9.24
9/20/2021 10:00:00 AM 16.67 62.006 0.179 7.34 0.72 9.3
9/20/2021 10:15:00 AM 16.73 62.114 0.179 7.35 0.41 9.38
9/20/2021 10:30:00 AM 16.79 62.222 0.179 7.36 0.71 9.45
9/20/2021 10:45:00 AM 16.89 62.402 0.179 7.37 0.27 9.55
9/20/2021 11:00:00 AM 17 62.6 0.179 7.38 0.53 9.68
9/20/2021 11:15:00 AM 17.11 62.798 0.178 7.4 0.82 9.81
9/20/2021 11:30:00 AM 17.23 63.014 0.178 7.42 0.25 9.9
9/20/2021 11:45:00 AM 17.36 63.248 0.177 7.45 0.58 10.02
9/20/2021 12:00:00 PM 17.52 63.536 0.178 7.47 0.63 10.12
9/20/2021 12:15:00 PM 17.74 63.932 0.177 7.51 0.49 10.23
9/20/2021 12:30:00 PM 17.99 64.382 0.177 7.54 0.6 10.31
9/20/2021 12:45:00 PM 18.22 64.796 0.177 7.58 0.8 10.38
9/20/2021 1:00:00 PM 18.45 65.21 0.176 7.61 0.58 10.46
9/20/2021 1:15:00 PM 18.71 65.67799 0.176 7.65 0.6 10.49
9/20/2021 1:30:00 PM 18.98 66.164 0.176 7.69 0.76 10.57
9/20/2021 1:45:00 PM 19.31 66.758 0.175 7.72 0.55 10.61
9/20/2021 2:00:00 PM 19.63 67.334 0.175 7.76 0.51 10.63
9/20/2021 2:15:00 PM 20 68 0.175 7.8 0.51 10.65
9/20/2021 2:30:00 PM 20.19 68.342 0.175 7.86 0.48 10.64
9/20/2021 2:45:00 PM 20.31 68.558 0.175 7.91 0.48 10.59
9/20/2021 3:00:00 PM 20.46 68.828 0.175 7.94 0.35 10.53
9/20/2021 3:15:00 PM 20.53 68.954 0.175 7.98 0.99 10.5
9/20/2021 3:30:00 PM 20.66 69.188 0.174 8.02 0.67 10.47
9/20/2021 3:45:00 PM 20.67 69.206 0.174 8.05 0.39 10.42
9/20/2021 4:00:00 PM 20.68 69.224 0.174 8.09 0.67 10.34
9/20/2021 4:15:00 PM 20.68 69.224 0.174 8.12 0.4 10.2
9/20/2021 4:30:00 PM 20.67 69.206 0.174 8.16 0.74 10.13
9/20/2021 4:45:00 PM 20.63 69.134 0.174 8.19 0.49 10.07
9/20/2021 5:00:00 PM 20.55 68.99 0.175 8.22 0.81 9.98
9/20/2021 5:15:00 PM 20.45 68.81 0.175 8.23 0.58 9.85
9/20/2021 5:30:00 PM 20.34 68.612 0.175 8.24 0.6 9.7
9/20/2021 5:45:00 PM 20.24 68.432 0.175 8.23 0.41 9.56
9/20/2021 6:00:00 PM 20.14 68.252 0.175 8.23 0.46 9.46
9/20/2021 6:15:00 PM 20.04 68.07201 0.176 8.2 0.56 9.38
9/20/2021 6:30:00 PM 19.93 67.874 0.176 8.18 0.81 9.28
9/20/2021 6:45:00 PM 19.8 67.64 0.176 8.15 0.7 9.19
9/20/2021 7:00:00 PM 19.65 67.37 0.176 8.12 0.49 9.07
9/20/2021 7:15:00 PM 19.53 67.154 0.177 8.07 0.98 8.96
9/20/2021 7:30:00 PM 19.4 66.92 0.177 8.03 0.62 8.86
9/20/2021 7:45:00 PM 19.28 66.704 0.178 7.98 0.44 8.77
9/20/2021 8:00:00 PM 19.16 66.488 0.178 7.93 0.83 8.7
9/20/2021 8:15:00 PM 19.04 66.272 0.178 7.88 0.43 8.63
9/20/2021 8:30:00 PM 18.94 66.092 0.178 7.83 0.77 8.6
9/20/2021 8:45:00 PM 18.82 65.876 0.179 7.78 1.46 8.57
9/20/2021 9:00:00 PM 18.73 65.714 0.179 7.73 0.48 8.54
9/20/2021 9:15:00 PM 18.63 65.534 0.179 7.69 0.8 8.52
9/20/2021 9:30:00 PM 18.53 65.354 0.179 7.63 0.81 8.5
9/20/2021 9:45:00 PM 18.45 65.21 0.179 7.59 0.53 8.48
9/20/2021 10:00:00 PM 18.37 65.066 0.179 7.56 0.51 8.48
9/20/2021 10:15:00 PM 18.29 64.922 0.18 7.53 0.6 8.46
9/20/2021 10:30:00 PM 18.22 64.796 0.18 7.5 0.72 8.46
9/20/2021 10:45:00 PM 18.14 64.652 0.18 7.47 0.61 8.46
9/20/2021 11:00:00 PM 18.06 64.508 0.18 7.46 0.4 8.45
9/20/2021 11:15:00 PM 17.98 64.364 0.18 7.45 0.62 8.46
9/20/2021 11:30:00 PM 17.92 64.256 0.18 7.42 1.44 8.46
9/20/2021 11:45:00 PM 17.84 64.112 0.18 7.42 1.31 8.45
9/21/2021 12:00:00 AM 17.76 63.968 0.18 7.41 0.68 8.48
9/21/2021 12:15:00 AM 17.69 63.842 0.18 7.4 0.74 8.49
9/21/2021 12:30:00 AM 17.63 63.734 0.18 7.4 0.79 8.5
9/21/2021 12:45:00 AM 17.55 63.59 0.18 7.39 0.59 8.49
9/21/2021 1:00:00 AM 17.5 63.5 0.18 7.39 0.25 8.52
9/21/2021 1:15:00 AM 17.43 63.374 0.18 7.37 0.55 8.54
9/21/2021 1:30:00 AM 17.36 63.248 0.18 7.37 0.81 8.54
9/21/2021 1:45:00 AM 17.3 63.14 0.18 7.36 5.93 8.56
9/21/2021 2:00:00 AM 17.23 63.014 0.18 7.36 0.57 8.57
9/21/2021 2:15:00 AM 17.17 62.906 0.18 7.35 0.54 8.58
9/21/2021 2:30:00 AM 17.11 62.798 0.18 7.35 0.8 8.6
9/21/2021 2:45:00 AM 17.05 62.69 0.18 7.34 0.94 8.62
9/21/2021 3:00:00 AM 17.01 62.618 0.18 7.34 0.54 8.62
9/21/2021 3:15:00 AM 16.97 62.546 0.18 7.33 0.74 8.63
9/21/2021 3:30:00 AM 16.94 62.492 0.18 7.33 0.64 8.65
9/21/2021 3:45:00 AM 16.89 62.402 0.18 7.33 0.34 8.66
9/21/2021 4:00:00 AM 16.84 62.312 0.18 7.32 0.6 8.67
9/21/2021 4:15:00 AM 16.8 62.24 0.18 7.33 0.27 8.67
9/21/2021 4:30:00 AM 16.76 62.168 0.18 7.32 0.66 8.68
9/21/2021 4:45:00 AM 16.72 62.096 0.18 7.32 0.56 8.69
9/21/2021 5:00:00 AM 16.68 62.024 0.18 7.32 0.59 8.68
9/21/2021 5:15:00 AM 16.65 61.97 0.18 7.32 0.54 8.71
9/21/2021 5:30:00 AM 16.62 61.916 0.18 7.31 0.71 8.71
9/21/2021 5:45:00 AM 16.6 61.88 0.18 7.31 0.23 8.72
9/21/2021 6:00:00 AM 16.58 61.844 0.18 7.3 1.45 8.71
9/21/2021 6:15:00 AM 16.56 61.808 0.18 7.3 0.97 8.73
9/21/2021 6:30:00 AM 16.54 61.772 0.18 7.3 0.66 8.73
9/21/2021 6:45:00 AM 16.53 61.754 0.179 7.3 0.8 8.75
9/21/2021 7:00:00 AM 16.51 61.718 0.179 7.3 1.23 8.75
9/21/2021 7:15:00 AM 16.51 61.718 0.179 7.3 0.95 8.77
9/21/2021 7:30:00 AM 16.51 61.718 0.179 7.3 0.89 8.78
9/21/2021 7:45:00 AM 16.51 61.718 0.179 7.3 0.32 8.83
9/21/2021 8:00:00 AM 16.52 61.736 0.179 7.31 0.35 8.88
9/21/2021 8:15:00 AM 16.53 61.754 0.179 7.31 0.57 8.91
9/21/2021 8:30:00 AM 16.56 61.808 0.179 7.31 0.35 9.01
9/21/2021 8:45:00 AM 16.59 61.862 0.179 7.32 1.05 9.15
9/21/2021 9:00:00 AM 16.62 61.916 0.179 7.34 0.52 9.3
9/21/2021 9:15:00 AM 16.65 61.97 0.178 7.35 0.56 9.42
9/21/2021 9:30:00 AM 16.69 62.042 0.178 7.36 0.81 9.51
9/21/2021 9:45:00 AM 16.73 62.114 0.178 7.39 0.49 9.58
9/21/2021 10:00:00 AM 16.78 62.204 0.178 7.4 0.69 9.68
9/21/2021 10:15:00 AM 16.85 62.33 0.178 7.42 0.46 9.79
9/21/2021 10:30:00 AM 16.92 62.456 0.177 7.45 0.74 9.89
9/21/2021 10:45:00 AM 17.03 62.654 0.177 7.47 0.14 10.02
9/21/2021 11:00:00 AM 17.16 62.888 0.177 7.5 0.35 10.17
9/21/2021 11:15:00 AM 17.29 63.122 0.176 7.54 0.46 10.35
9/21/2021 11:30:00 AM 17.46 63.428 0.176 7.58 0.27 10.5
9/21/2021 11:45:00 AM 17.58 63.644 0.176 7.62 0.51 10.61
9/21/2021 12:00:00 PM 17.76 63.968 0.175 7.65 0.97 10.71
9/21/2021 12:15:00 PM 17.92 64.256 0.175 7.7 0.36 10.78
9/21/2021 12:30:00 PM 18.13 64.634 0.175 7.75 0.4 10.86
9/21/2021 12:45:00 PM 18.33 64.994 0.174 7.8 0.44 10.94
9/21/2021 1:00:00 PM 18.51 65.318 0.174 7.86 0.48 10.98
9/21/2021 1:15:00 PM 18.67 65.606 0.174 7.93 0.4 10.98
9/21/2021 1:30:00 PM 18.85 65.93 0.174 7.98 0.67 10.99
9/21/2021 1:45:00 PM 19.04 66.272 0.174 8.02 0.25 10.95
9/21/2021 2:00:00 PM 19.22 66.596 0.173 8.07 0.44 10.96
9/21/2021 2:15:00 PM 19.32 66.776 0.173 8.11 0.45 10.89
9/21/2021 2:30:00 PM 19.36 66.848 0.173 8.18 0.39 10.8
9/21/2021 2:45:00 PM 19.45 67.01 0.173 8.22 0.36 10.74
9/21/2021 3:00:00 PM 19.61 67.298 0.173 8.28 0.46 10.7
9/21/2021 3:15:00 PM 19.8 67.64 0.173 8.32 0.37 10.76
9/21/2021 3:30:00 PM 19.88 67.784 0.173 8.37 0.53 10.79
9/21/2021 3:45:00 PM 19.92 67.856 0.173 8.43 0.79 10.74
9/21/2021 4:00:00 PM 19.94 67.892 0.172 8.48 0.19 10.69
9/21/2021 4:15:00 PM 19.94 67.892 0.173 8.52 0.55 10.62
9/21/2021 4:30:00 PM 19.93 67.874 0.172 8.56 0.74 10.52
9/21/2021 4:45:00 PM 19.9 67.82 0.173 8.58 0.45 10.45
9/21/2021 5:00:00 PM 19.88 67.784 0.173 8.6 1.25 10.36
9/21/2021 5:15:00 PM 19.85 67.73 0.173 8.61 0.46 10.23
9/21/2021 5:30:00 PM 19.82 67.676 0.173 8.61 0.47 10.09
9/21/2021 5:45:00 PM 19.77 67.586 0.173 8.61 0.48 9.91
9/21/2021 6:00:00 PM 19.72 67.496 0.174 8.6 0.72 9.74
9/21/2021 6:15:00 PM 19.65 67.37 0.174 8.58 0.39 9.56
9/21/2021 6:30:00 PM 19.6 67.28 0.175 8.55 0.33 9.43
9/21/2021 6:45:00 PM 19.53 67.154 0.175 8.52 0.48 9.3
9/21/2021 7:00:00 PM 19.46 67.028 0.176 8.47 0.39 9.18
9/21/2021 7:15:00 PM 19.39 66.902 0.176 8.42 1.3 9.06
9/21/2021 7:30:00 PM 19.31 66.758 0.176 8.37 0.51 8.94
9/21/2021 7:45:00 PM 19.24 66.632 0.177 8.32 0.54 8.82
9/21/2021 8:00:00 PM 19.16 66.488 0.177 8.26 0.46 8.73
9/21/2021 8:15:00 PM 19.1 66.38 0.178 8.2 0.49 8.66
9/21/2021 8:30:00 PM 19.03 66.254 0.178 8.14 0.86 8.6
9/21/2021 8:45:00 PM 18.97 66.146 0.179 8.07 4.17 8.56
9/21/2021 9:00:00 PM 18.9 66.02 0.179 8.02 0.57 8.5
9/21/2021 9:15:00 PM 18.85 65.93 0.179 7.96 0.48 8.47
9/21/2021 9:30:00 PM 18.8 65.84 0.18 7.9 0.77 8.44
9/21/2021 9:45:00 PM 18.74 65.732 0.18 7.84 0.3 8.41
9/21/2021 10:00:00 PM 18.69 65.642 0.18 7.79 0.89 8.38
9/21/2021 10:15:00 PM 18.64 65.552 0.18 7.74 0.55 8.36
9/21/2021 10:30:00 PM 18.59 65.462 0.181 7.69 0.51 8.34
9/21/2021 10:45:00 PM 18.55 65.39 0.181 7.65 1.21 8.33
9/21/2021 11:00:00 PM 18.51 65.318 0.181 7.61 0.85 8.32
9/21/2021 11:15:00 PM 18.47 65.246 0.181 7.58 1.05 8.31
9/21/2021 11:30:00 PM 18.44 65.192 0.181 7.55 0.42 8.32
9/21/2021 11:45:00 PM 18.42 65.156 0.181 7.52 0.49 8.31
9/22/2021 12:00:00 AM 18.4 65.12 0.181 7.49 0.62 8.29
9/22/2021 12:15:00 AM 18.38 65.084 0.181 7.47 0.54 8.3
9/22/2021 12:30:00 AM 18.36 65.048 0.181 7.45 0.4 8.29
9/22/2021 12:45:00 AM 18.34 65.012 0.181 7.43 0.46 8.28
9/22/2021 1:00:00 AM 18.33 64.994 0.181 7.4 0.55 8.3
9/22/2021 1:15:00 AM 18.32 64.976 0.181 7.39 0.38 8.29
9/22/2021 1:30:00 AM 18.31 64.958 0.181 7.38 0.95 8.3
9/22/2021 1:45:00 AM 18.3 64.94 0.181 7.37 0.75 8.3
9/22/2021 2:00:00 AM 18.29 64.922 0.181 7.36 0.42 8.29
9/22/2021 2:15:00 AM 18.28 64.904 0.181 7.35 0.53 8.31
9/22/2021 2:30:00 AM 18.28 64.904 0.181 7.34 0.52 8.28
9/22/2021 2:45:00 AM 18.27 64.886 0.181 7.33 0.4 8.29
9/22/2021 3:00:00 AM 18.27 64.886 0.181 7.32 0.74 8.29
9/22/2021 3:15:00 AM 18.26 64.868 0.181 7.32 1.05 8.27
9/22/2021 3:30:00 AM 18.26 64.868 0.181 7.32 1.21 8.29
9/22/2021 3:45:00 AM 18.26 64.868 0.181 7.31 0.46 8.29
9/22/2021 4:00:00 AM 18.26 64.868 0.181 7.31 0.78 8.29
9/22/2021 4:15:00 AM 18.26 64.868 0.181 7.3 0.58 8.29
9/22/2021 4:30:00 AM 18.26 64.868 0.181 7.3 0.45 8.29
9/22/2021 4:45:00 AM 18.27 64.886 0.181 7.29 0.6 8.27
9/22/2021 5:00:00 AM 18.27 64.886 0.181 7.28 0.92 8.28
9/22/2021 5:15:00 AM 18.28 64.904 0.181 7.28 1.9 8.28
9/22/2021 5:30:00 AM 18.29 64.922 0.181 7.27 0.56 8.28
9/22/2021 5:45:00 AM 18.3 64.94 0.181 7.27 0.64 8.27
9/22/2021 6:00:00 AM 18.31 64.958 0.181 7.26 1.31 8.25
9/22/2021 6:15:00 AM 18.32 64.976 0.181 7.26 0.65 8.25
9/22/2021 6:30:00 AM 18.33 64.994 0.181 7.26 0.56 8.26
9/22/2021 6:45:00 AM 18.34 65.012 0.181 7.25 0.74 8.25
9/22/2021 7:00:00 AM 18.36 65.048 0.181 7.25 0.65 8.26
9/22/2021 7:15:00 AM 18.37 65.066 0.181 7.25 0.5 8.28
9/22/2021 7:30:00 AM 18.39 65.102 0.181 7.25 0.8 8.27
9/22/2021 7:45:00 AM 18.4 65.12 0.18 7.25 0.48 8.27
9/22/2021 8:00:00 AM 18.42 65.156 0.18 7.25 0.77 8.3
9/22/2021 8:15:00 AM 18.44 65.192 0.18 7.25 0.71 8.34
9/22/2021 8:30:00 AM 18.46 65.228 0.18 7.26 0.81 8.39
9/22/2021 8:45:00 AM 18.49 65.282 0.18 7.26 0.48 8.49
9/22/2021 9:00:00 AM 18.53 65.354 0.18 7.26 0.64 8.6
9/22/2021 9:15:00 AM 18.57 65.426 0.18 7.27 0.49 8.74
9/22/2021 9:30:00 AM 18.61 65.498 0.18 7.29 0.41 8.85
9/22/2021 9:45:00 AM 18.64 65.552 0.179 7.3 0.32 8.97
9/22/2021 10:00:00 AM 18.67 65.606 0.179 7.32 1.4 9.01
9/22/2021 10:15:00 AM 18.7 65.66 0.179 7.33 0.49 9.03
9/22/2021 10:30:00 AM 18.75 65.75 0.179 7.35 0.48 9.08
9/22/2021 10:45:00 AM 18.8 65.84 0.179 7.37 0.24 9.18
9/22/2021 11:00:00 AM 18.88 65.984 0.179 7.39 0.44 9.36
9/22/2021 11:15:00 AM 18.94 66.092 0.178 7.42 0.35 9.52
9/22/2021 11:30:00 AM 19 66.2 0.178 7.44 0.37 9.66
9/22/2021 11:45:00 AM 19.09 66.362 0.178 7.48 0.31 9.77
9/22/2021 12:00:00 PM 19.2 66.56 0.177 7.51 0.52 9.91
9/22/2021 12:15:00 PM 19.29 66.722 0.177 7.56 0.45 10.05
9/22/2021 12:30:00 PM 19.4 66.92 0.177 7.6 0.22 10.21
9/22/2021 12:45:00 PM 19.48 67.064 0.176 7.66 0.5 10.33
9/22/2021 1:00:00 PM 19.52 67.136 0.176 7.7 0.62 10.32
9/22/2021 1:15:00 PM 19.57 67.226 0.176 7.75 0.33 10.17
9/22/2021 1:30:00 PM 19.64 67.352 0.176 7.78 0.56 10.1
9/22/2021 1:45:00 PM 19.69 67.442 0.176 7.81 0.33 10.12
9/22/2021 2:00:00 PM 19.76 67.568 0.176 7.83 0.32 10.18
9/22/2021 2:15:00 PM 19.83 67.694 0.176 7.85 0.32 10.25
9/22/2021 2:30:00 PM 19.91 67.838 0.176 7.89 0.34 10.29
9/22/2021 2:45:00 PM 19.97 67.946 0.175 7.93 0.24 10.3
9/22/2021 3:00:00 PM 20.02 68.036 0.175 7.96 0.86 10.28
9/22/2021 3:15:00 PM 20.06 68.108 0.175 8.01 0.34 10.23
9/22/2021 3:30:00 PM 20.11 68.198 0.175 8.04 0.38 10.23
9/22/2021 3:45:00 PM 20.16 68.288 0.175 8.07 0.36 10.23
9/22/2021 4:00:00 PM 20.24 68.432 0.175 8.12 0.42 10.21
9/22/2021 4:15:00 PM 20.32 68.576 0.175 8.16 0.64 10.25
9/22/2021 4:30:00 PM 20.4 68.72 0.174 8.21 0.43 10.32
9/22/2021 4:45:00 PM 20.45 68.81 0.174 8.25 0.74 10.28
9/22/2021 5:00:00 PM 20.45 68.81 0.174 8.28 0.29 10.15
9/22/2021 5:15:00 PM 20.43 68.774 0.175 8.3 0.42 9.89
9/22/2021 5:30:00 PM 20.43 68.774 0.175 8.31 0.53 9.61
9/22/2021 5:45:00 PM 20.45 68.81 0.175 8.3 0.66 9.44
9/22/2021 6:00:00 PM 20.44 68.792 0.176 8.29 0.39 9.35
9/22/2021 6:15:00 PM 20.44 68.792 0.176 8.28 0.42 9.25
9/22/2021 6:30:00 PM 20.42 68.756 0.176 8.27 0.54 9.13
9/22/2021 6:45:00 PM 20.4 68.72 0.176 8.25 0.55 8.99
9/22/2021 7:00:00 PM 20.39 68.702 0.177 8.22 0.48 8.82
9/22/2021 7:15:00 PM 20.36 68.648 0.177 8.19 0.47 8.7
9/22/2021 7:30:00 PM 20.35 68.63 0.177 8.13 0.78 8.53
9/22/2021 7:45:00 PM 20.33 68.594 0.177 8.08 0.57 8.42
9/22/2021 8:00:00 PM 20.3 68.54 0.178 8.03 0.98 8.33
9/22/2021 8:15:00 PM 20.26 68.468 0.178 7.98 0.41 8.27
9/22/2021 8:30:00 PM 20.22 68.396 0.178 7.92 1.25 8.2
9/22/2021 8:45:00 PM 20.18 68.324 0.179 7.86 0.8 8.14
9/22/2021 9:00:00 PM 20.14 68.252 0.179 7.81 0.62 8.11
9/22/2021 9:15:00 PM 20.11 68.198 0.179 7.75 0.56 8.07
9/22/2021 9:30:00 PM 20.08 68.144 0.18 7.71 0.43 8.04
9/22/2021 9:45:00 PM 20.04 68.07201 0.18 7.66 4.39 8.01
9/22/2021 10:00:00 PM 20.01 68.018 0.18 7.61 0.68 7.99
9/22/2021 10:15:00 PM 19.98 67.964 0.181 7.57 0.93 7.98
9/22/2021 10:30:00 PM 19.95 67.91 0.181 7.54 0.81 7.97
9/22/2021 10:45:00 PM 19.93 67.874 0.181 7.51 0.83 7.96
9/22/2021 11:00:00 PM 19.9 67.82 0.181 7.48 0.81 7.96
9/22/2021 11:15:00 PM 19.88 67.784 0.181 7.46 3.16 7.93
9/22/2021 11:30:00 PM 19.86 67.748 0.181 7.43 0.76 7.91
9/22/2021 11:45:00 PM 19.85 67.73 0.181 7.41 0.64 7.93
9/23/2021 12:00:00 AM 19.84 67.712 0.181 7.4 0.57 7.92
9/23/2021 12:15:00 AM 19.84 67.712 0.181 7.39 0.92 7.91
9/23/2021 12:30:00 AM 19.83 67.694 0.181 7.38 0.49 7.92
9/23/2021 12:45:00 AM 19.83 67.694 0.181 7.37 0.55 7.92
9/23/2021 1:00:00 AM 19.83 67.694 0.181 7.36 0.72 7.92
9/23/2021 1:15:00 AM 19.83 67.694 0.181 7.35 0.5 7.92
9/23/2021 1:30:00 AM 19.84 67.712 0.181 7.35 0.73 7.91
9/23/2021 1:45:00 AM 19.84 67.712 0.181 7.34 0.46 7.91
9/23/2021 2:00:00 AM 19.85 67.73 0.182 7.33 0.69 7.9
9/23/2021 2:15:00 AM 19.85 67.73 0.182 7.33 0.64 7.88
9/23/2021 2:30:00 AM 19.86 67.748 0.182 7.32 0.97 7.89
9/23/2021 2:45:00 AM 19.87 67.766 0.182 7.31 2.47 7.88
9/23/2021 3:00:00 AM 19.88 67.784 0.182 7.31 0.41 7.87
9/23/2021 3:15:00 AM 19.88 67.784 0.182 7.3 0.68 7.88
9/23/2021 3:30:00 AM 19.89 67.802 0.182 7.3 0.64 7.87
9/23/2021 3:45:00 AM 19.91 67.838 0.182 7.3 0.48 7.86
9/23/2021 4:00:00 AM 19.92 67.856 0.182 7.3 0.44 7.85
9/23/2021 4:15:00 AM 19.93 67.874 0.182 7.3 0.61 7.85
9/23/2021 4:30:00 AM 19.93 67.874 0.182 7.3 0.47 7.84
9/23/2021 4:45:00 AM 19.94 67.892 0.182 7.29 0.51 7.84
9/23/2021 5:00:00 AM 19.95 67.91 0.182 7.29 0.48 7.82
9/23/2021 5:15:00 AM 19.95 67.91 0.182 7.29 0.56 7.82
9/23/2021 5:30:00 AM 19.96 67.92799 0.182 7.29 0.58 7.82
9/23/2021 5:45:00 AM 19.97 67.946 0.182 7.29 1.47 7.83
9/23/2021 6:00:00 AM 19.98 67.964 0.182 7.28 0.65 7.82
9/23/2021 6:15:00 AM 19.99 67.982 0.182 7.28 1.01 7.81
9/23/2021 6:30:00 AM 20.01 68.018 0.182 7.28 1.42 7.82
9/23/2021 6:45:00 AM 20.02 68.036 0.181 7.27 1.31 7.82
9/23/2021 7:00:00 AM 20.05 68.09 0.179 7.26 2.72 7.83
9/23/2021 7:15:00 AM 20.07 68.126 0.177 7.27 2.54 7.88
9/23/2021 7:30:00 AM 20.09 68.162 0.175 7.26 1.91 7.89
9/23/2021 7:45:00 AM 20.09 68.162 0.174 7.26 2.71 7.89
9/23/2021 8:00:00 AM 20.04 68.07201 0.172 7.26 3.76 7.94
9/23/2021 8:15:00 AM 19.91 67.838 0.17 7.27 4.78 8.05
9/23/2021 8:30:00 AM 19.7 67.46 0.164 7.29 7.55 8.18
9/23/2021 8:45:00 AM 19.56 67.208 0.16 7.29 6.07 8.19
9/23/2021 9:00:00 AM 19.48 67.064 0.158 7.29 9.67 8.21
9/23/2021 9:15:00 AM 19.42 66.956 0.155 7.28 18.06 8.18
9/23/2021 9:30:00 AM 19.27 66.686 0.15 7.26 70.69 8.23
9/23/2021 9:45:00 AM 19.11 66.398 0.143 7.22 570.4 8.25
9/23/2021 10:00:00 AM 19.07 66.326 0.139 7.23 547.2 8.36
9/23/2021 10:15:00 AM 19.05 66.29 0.126 7.24 641.7 8.41
9/23/2021 10:30:00 AM 19.05 66.29 0.118 7.26 687.1 8.44
9/23/2021 10:45:00 AM 19.07 66.326 0.11 7.27 691.9 8.43
9/23/2021 11:00:00 AM 19.02 66.236 0.11 7.26 684.1 8.42
9/23/2021 11:15:00 AM 18.98 66.164 0.109 7.25 652.6 8.46
9/23/2021 11:30:00 AM 18.93 66.074 0.104 7.24 531 8.5
9/23/2021 11:45:00 AM 18.88 65.984 0.1 7.22 484.5 8.53
9/23/2021 12:00:00 PM 18.83 65.894 0.1 7.21 469 8.52
9/23/2021 12:15:00 PM 18.76 65.768 0.099 7.2 439.2 8.57
9/23/2021 12:30:00 PM 18.7 65.66 0.099 7.2 399.7 8.58
9/23/2021 12:45:00 PM 18.62 65.516 0.098 7.2 391.5 8.6
9/23/2021 1:00:00 PM 18.56 65.408 0.098 7.19 392 8.61
9/23/2021 1:15:00 PM 18.51 65.318 0.097 7.19 332.1 8.61
9/23/2021 1:30:00 PM 18.47 65.246 0.097 7.19 325.3 8.62
9/23/2021 1:45:00 PM 18.45 65.21 0.098 7.19 278.4 8.62
9/23/2021 2:00:00 PM 18.45 65.21 0.098 7.19 278.2 8.62
9/23/2021 2:15:00 PM 18.46 65.228 0.098 7.18 260.9 8.6
9/23/2021 2:30:00 PM 18.49 65.282 0.1 7.18 238 8.59
9/23/2021 2:45:00 PM 18.53 65.354 0.101 7.17 227 8.58
9/23/2021 3:00:00 PM 18.56 65.408 0.101 7.17 210.6 8.57
9/23/2021 3:15:00 PM 18.59 65.462 0.103 7.17 198.5 8.56
9/23/2021 3:30:00 PM 18.63 65.534 0.104 7.17 192.2 8.57
9/23/2021 3:45:00 PM 18.69 65.642 0.105 7.17 173.5 8.55
9/23/2021 4:00:00 PM 18.73 65.714 0.106 7.18 152.4 8.54
9/23/2021 4:15:00 PM 18.76 65.768 0.108 7.18 126.1 8.53
9/23/2021 4:30:00 PM 18.81 65.858 0.109 7.18 125.8 8.53
9/23/2021 4:45:00 PM 18.84 65.912 0.11 7.18 120.5 8.51
9/23/2021 5:00:00 PM 18.82 65.876 0.112 7.19 110.9 8.51
9/23/2021 5:15:00 PM 18.8 65.84 0.114 7.19 99.66 8.49
9/23/2021 5:30:00 PM 18.8 65.84 0.115 7.19 97.65 8.5
9/23/2021 5:45:00 PM 18.82 65.876 0.116 7.2 84.58 8.49
9/23/2021 6:00:00 PM 18.8 65.84 0.118 7.2 84.9 8.49
9/23/2021 6:15:00 PM 18.78 65.804 0.119 7.2 73.73 8.49
9/23/2021 6:30:00 PM 18.77 65.786 0.12 7.21 75.12 8.48
9/23/2021 6:45:00 PM 18.76 65.768 0.121 7.22 62.65 8.48
9/23/2021 7:00:00 PM 18.73 65.714 0.122 7.21 60.91 8.48
9/23/2021 7:15:00 PM 18.69 65.642 0.123 7.22 65.33 8.47
9/23/2021 7:30:00 PM 18.66 65.588 0.124 7.23 58.45 8.48
9/23/2021 7:45:00 PM 18.62 65.516 0.125 7.22 52.82 8.48
9/23/2021 8:00:00 PM 18.58 65.444 0.126 7.23 75.98 8.47
9/23/2021 8:15:00 PM 18.53 65.354 0.127 7.23 51.38 8.49
9/23/2021 8:30:00 PM 18.49 65.282 0.128 7.23 43.88 8.51
9/23/2021 8:45:00 PM 18.44 65.192 0.129 7.23 37.1 8.51
9/23/2021 9:00:00 PM 18.39 65.102 0.13 7.23 80.47 8.53
9/23/2021 9:15:00 PM 18.34 65.012 0.131 7.23 129.1 8.53
9/23/2021 9:30:00 PM 18.28 64.904 0.131 7.24 56.3 8.54
9/23/2021 9:45:00 PM 18.23 64.814 0.132 7.24 39.35 8.55
9/23/2021 10:00:00 PM 18.17 64.706 0.133 7.25 34.03 8.55
9/23/2021 10:15:00 PM 18.12 64.616 0.134 7.25 33.59 8.57
9/23/2021 10:30:00 PM 18.06 64.508 0.134 7.25 29.7 8.59
9/23/2021 10:45:00 PM 18.02 64.436 0.135 7.25 37.64 8.59
9/23/2021 11:00:00 PM 17.97 64.346 0.136 7.25 33.59 8.6
9/23/2021 11:15:00 PM 17.91 64.238 0.136 7.25 24.34 8.63
9/23/2021 11:30:00 PM 17.85 64.13 0.137 7.26 33.45 8.62
9/23/2021 11:45:00 PM 17.79 64.022 0.137 7.26 17.89 8.65
9/24/2021 12:00:00 AM 17.73 63.914 0.138 7.26 54.49 8.66
9/24/2021 12:15:00 AM 17.66 63.788 0.139 7.26 47.65 8.68
9/24/2021 12:30:00 AM 17.59 63.662 0.139 7.27 430.1 8.7
9/24/2021 12:45:00 AM 17.52 63.536 0.14 7.27 29.28 8.7
9/24/2021 1:00:00 AM 17.45 63.41 0.14 7.27 29.17 8.73
9/24/2021 1:15:00 AM 17.38 63.284 0.141 7.28 29.18 8.74
9/24/2021 1:30:00 AM 17.32 63.176 0.141 7.28 20.64 8.75
9/24/2021 1:45:00 AM 17.26 63.068 0.142 7.28 23.5 8.77
9/24/2021 2:00:00 AM 17.18 62.924 0.142 7.28 33.16 8.78
9/24/2021 2:15:00 AM 17.1 62.78 0.143 7.29 23.2 8.81
9/24/2021 2:30:00 AM 17.03 62.654 0.143 7.29 62.43 8.82
9/24/2021 2:45:00 AM 16.95 62.51 0.143 7.29 17.93 8.83
9/24/2021 3:00:00 AM 16.87 62.366 0.144 7.29 105 8.86
9/24/2021 3:15:00 AM 16.79 62.222 0.144 7.29 17.05 8.89
9/24/2021 3:30:00 AM 16.71 62.078 0.145 7.29 20.4 8.89
9/24/2021 3:45:00 AM 16.64 61.952 0.145 7.29 21.01 8.91
9/24/2021 4:00:00 AM 16.57 61.826 0.146 7.29 100.3 8.94
9/24/2021 4:15:00 AM 16.5 61.7 0.146 7.29 49.64 8.94
9/24/2021 4:30:00 AM 16.42 61.556 0.147 7.3 80.4 8.97
9/24/2021 4:45:00 AM 16.35 61.43 0.147 7.3 22.75 9
9/24/2021 5:00:00 AM 16.28 61.304 0.148 7.3 17.77 9.02
9/24/2021 5:15:00 AM 16.2 61.16 0.148 7.29 45.36 9.03
9/24/2021 5:30:00 AM 16.13 61.034 0.148 7.29 17.18 9.05
9/24/2021 5:45:00 AM 16.05 60.89 0.149 7.3 45.17 9.06
9/24/2021 6:00:00 AM 15.98 60.764 0.15 7.3 13.11 9.08
9/24/2021 6:15:00 AM 15.91 60.638 0.149 7.3 31.61 9.1
9/24/2021 6:30:00 AM 15.84 60.512 0.15 7.29 14.94 9.12
9/24/2021 6:45:00 AM 15.77 60.386 0.15 7.3 14.44 9.14
9/24/2021 7:00:00 AM 15.69 60.242 0.15 7.3 15.94 9.15
9/24/2021 7:15:00 AM 15.62 60.116 0.151 7.3 45.46 9.18
9/24/2021 7:30:00 AM 15.54 59.972 0.151 7.3 8.01 9.19
9/24/2021 7:45:00 AM 15.47 59.846 0.151 7.3 20.45 9.21
9/24/2021 8:00:00 AM 15.4 59.72 0.151 7.3 13.54 9.25
9/24/2021 8:15:00 AM 15.34 59.612 0.152 7.31 6.19 9.28
9/24/2021 8:30:00 AM 15.28 59.504 0.152 7.31 6.85 9.29
9/24/2021 8:45:00 AM 15.23 59.414 0.152 7.31 15.69 9.32
9/24/2021 9:00:00 AM 15.19 59.342 0.152 7.31 13.11 9.34
9/24/2021 9:15:00 AM 15.16 59.288 0.153 7.31 54.27 9.37
9/24/2021 9:30:00 AM 15.15 59.27 0.153 7.32 8.04 9.39
9/24/2021 9:45:00 AM 15.15 59.27 0.153 7.31 17.03 9.41
9/24/2021 10:00:00 AM 15.17 59.306 0.153 7.32 20.97 9.44
9/24/2021 10:15:00 AM 15.2 59.36 0.154 7.33 5.41 9.46
9/24/2021 10:30:00 AM 15.25 59.45 0.154 7.33 7.51 9.48
9/24/2021 10:45:00 AM 15.31 59.558 0.154 7.33 12.15 9.51
9/24/2021 11:00:00 AM 15.39 59.702 0.154 7.34 4.93 9.54
9/24/2021 11:15:00 AM 15.48 59.864 0.154 7.34 6.16 9.56
9/24/2021 11:30:00 AM 15.59 60.062 0.155 7.34 14.46 9.56
9/24/2021 11:45:00 AM 15.73 60.314 0.155 7.35 4.41 9.59
9/24/2021 12:00:00 PM 15.89 60.602 0.155 7.36 3.7 9.6
9/24/2021 12:15:00 PM 16.08 60.944 0.155 7.37 4.96 9.58
9/24/2021 12:30:00 PM 16.27 61.286 0.155 7.38 3.37 9.61
9/24/2021 12:45:00 PM 16.44 61.592 0.155 7.38 4.78 9.62
9/24/2021 1:00:00 PM 16.61 61.898 0.155 7.39 4.03 9.61
9/24/2021 1:15:00 PM 16.78 62.204 0.156 7.39 8.91 9.61
9/24/2021 1:30:00 PM 16.92 62.456 0.156 7.4 4.58 9.61
9/24/2021 1:45:00 PM 17.05 62.69 0.156 7.41 3.42 9.62
9/24/2021 2:00:00 PM 17.19 62.942 0.156 7.42 19.07 9.6
9/24/2021 2:15:00 PM 17.3 63.14 0.156 7.43 3.21 9.61
9/24/2021 2:30:00 PM 17.31 63.158 0.157 7.43 29.5 9.59
9/24/2021 2:45:00 PM 17.33 63.194 0.157 7.44 4.1 9.56
9/24/2021 3:00:00 PM 17.34 63.212 0.157 7.44 10.15 9.55
9/24/2021 3:15:00 PM 17.35 63.23 0.157 7.44 15.36 9.53
9/24/2021 3:30:00 PM 17.33 63.194 0.157 7.45 4.62 9.51
9/24/2021 3:45:00 PM 17.29 63.122 0.158 7.45 4.44 9.48
9/24/2021 4:00:00 PM 17.24 63.032 0.158 7.45 4.24 9.46
9/24/2021 4:15:00 PM 17.2 62.96 0.158 7.45 3.66 9.43
9/24/2021 4:30:00 PM 17.16 62.888 0.158 7.44 2.99 9.41
9/24/2021 4:45:00 PM 17.1 62.78 0.158 7.44 5.84 9.37
9/24/2021 5:00:00 PM 17.06 62.708 0.158 7.44 6.56 9.34
9/24/2021 5:15:00 PM 17.01 62.618 0.159 7.44 8.75 9.29
9/24/2021 5:30:00 PM 16.97 62.546 0.159 7.43 2.84 9.26
9/24/2021 5:45:00 PM 16.94 62.492 0.159 7.43 3.79 9.23
9/24/2021 6:00:00 PM 16.9 62.42 0.159 7.43 4.58 9.2
9/24/2021 6:15:00 PM 16.86 62.348 0.159 7.42 3.61 9.16
9/24/2021 6:30:00 PM 16.82 62.276 0.16 7.42 4.04 9.14
9/24/2021 6:45:00 PM 16.79 62.222 0.16 7.41 3.43 9.13
9/24/2021 7:00:00 PM 16.77 62.186 0.16 7.41 3.55 9.12
9/24/2021 7:15:00 PM 16.74 62.132 0.16 7.4 3.16 9.09
9/24/2021 7:30:00 PM 16.71 62.078 0.16 7.4 5.11 9.07
9/24/2021 7:45:00 PM 16.68 62.024 0.16 7.39 4.6 9.06
9/24/2021 8:00:00 PM 16.66 61.988 0.16 7.38 2.72 9.05
9/24/2021 8:15:00 PM 16.62 61.916 0.16 7.38 5.9 9.04
9/24/2021 8:30:00 PM 16.58 61.844 0.16 7.38 4.44 9.04
9/24/2021 8:45:00 PM 16.55 61.79 0.16 7.38 3.26 9.05
9/24/2021 9:00:00 PM 16.51 61.718 0.16 7.37 4.28 9.04
9/24/2021 9:15:00 PM 16.47 61.646 0.16 7.37 11.94 9.04
9/24/2021 9:30:00 PM 16.43 61.574 0.16 7.37 2.71 9.03
9/24/2021 9:45:00 PM 16.4 61.52 0.16 7.36 3.09 9.03
9/24/2021 10:00:00 PM 16.35 61.43 0.16 7.35 3.43 9.03
9/24/2021 10:15:00 PM 16.32 61.376 0.16 7.35 3.3 9.04
9/24/2021 10:30:00 PM 16.28 61.304 0.16 7.35 3.61 9.03
9/24/2021 10:45:00 PM 16.24 61.232 0.16 7.34 4.56 9.04
9/24/2021 11:00:00 PM 16.2 61.16 0.161 7.34 4.34 9.05
9/24/2021 11:15:00 PM 16.16 61.088 0.161 7.34 5.15 9.06
9/24/2021 11:30:00 PM 16.12 61.016 0.161 7.34 2.64 9.07
9/24/2021 11:45:00 PM 16.09 60.962 0.161 7.34 3.09 9.1
9/25/2021 12:00:00 AM 16.05 60.89 0.161 7.33 5.91 9.08
9/25/2021 12:15:00 AM 16.01 60.818 0.161 7.34 4.27 9.1
9/25/2021 12:30:00 AM 15.97 60.746 0.161 7.33 7.58 9.09
9/25/2021 12:45:00 AM 15.92 60.656 0.161 7.33 3.27 9.11
9/25/2021 1:00:00 AM 15.88 60.584 0.161 7.33 7.66 9.12
9/25/2021 1:15:00 AM 15.84 60.512 0.162 7.33 3.46 9.13
9/25/2021 1:30:00 AM 15.79 60.422 0.162 7.33 4.01 9.14
9/25/2021 1:45:00 AM 15.75 60.35 0.162 7.32 2.07 9.16
9/25/2021 2:00:00 AM 15.7 60.26 0.162 7.32 2.97 9.16
9/25/2021 2:15:00 AM 15.65 60.17 0.162 7.32 3.29 9.17
9/25/2021 2:30:00 AM 15.61 60.098 0.162 7.33 4.73 9.18
9/25/2021 2:45:00 AM 15.55 59.99 0.162 7.32 3.04 9.2
9/25/2021 3:00:00 AM 15.5 59.9 0.162 7.32 2.54 9.19
9/25/2021 3:15:00 AM 15.44 59.792 0.162 7.32 3.37 9.22
9/25/2021 3:30:00 AM 15.4 59.72 0.162 7.32 3.29 9.23
9/25/2021 3:45:00 AM 15.34 59.612 0.162 7.32 3.12 9.23
9/25/2021 4:00:00 AM 15.28 59.504 0.162 7.32 3.49 9.25
9/25/2021 4:15:00 AM 15.22 59.396 0.162 7.31 1.7 9.27
9/25/2021 4:30:00 AM 15.17 59.306 0.162 7.32 3.05 9.28
9/25/2021 4:45:00 AM 15.11 59.198 0.162 7.32 3 9.31
9/25/2021 5:00:00 AM 15.05 59.09 0.162 7.32 3.74 9.31
9/25/2021 5:15:00 AM 14.99 58.982 0.162 7.31 2.13 9.33
9/25/2021 5:30:00 AM 14.93 58.874 0.162 7.31 3.84 9.34
9/25/2021 5:45:00 AM 14.88 58.784 0.162 7.32 2.53 9.35
9/25/2021 6:00:00 AM 14.82 58.676 0.162 7.32 2.14 9.37
9/25/2021 6:15:00 AM 14.76 58.568 0.162 7.31 4 9.38
9/25/2021 6:30:00 AM 14.7 58.46 0.162 7.31 2.51 9.4
9/25/2021 6:45:00 AM 14.64 58.352 0.162 7.31 2.63 9.41
9/25/2021 7:00:00 AM 14.59 58.262 0.162 7.31 3.49 9.42
9/25/2021 7:15:00 AM 14.53 58.154 0.162 7.31 1.74 9.44
9/25/2021 7:30:00 AM 14.47 58.046 0.162 7.31 2.8 9.45
9/25/2021 7:45:00 AM 14.43 57.974 0.163 7.31 1.83 9.49
9/25/2021 8:00:00 AM 14.37 57.866 0.162 7.31 2.86 9.52
9/25/2021 8:15:00 AM 14.32 57.776 0.162 7.31 1.92 9.54
9/25/2021 8:30:00 AM 14.28 57.704 0.162 7.31 3.13 9.56
9/25/2021 8:45:00 AM 14.25 57.65 0.162 7.32 3.61 9.58
9/25/2021 9:00:00 AM 14.23 57.614 0.162 7.32 2.44 9.6
9/25/2021 9:15:00 AM 14.22 57.596 0.162 7.32 2.95 9.63
9/25/2021 9:30:00 AM 14.23 57.614 0.162 7.32 1.33 9.66
9/25/2021 9:45:00 AM 14.24 57.632 0.162 7.32 1.91 9.68
9/25/2021 10:00:00 AM 14.28 57.704 0.162 7.33 1.45 9.7
9/25/2021 10:15:00 AM 14.32 57.776 0.162 7.34 1.57 9.74
9/25/2021 10:30:00 AM 14.38 57.884 0.162 7.34 1.95 9.76
9/25/2021 10:45:00 AM 14.47 58.046 0.162 7.35 1.62 9.79
9/25/2021 11:00:00 AM 14.57 58.226 0.162 7.35 1.34 9.82
9/25/2021 11:15:00 AM 14.69 58.442 0.162 7.36 1.79 9.84
9/25/2021 11:30:00 AM 14.83 58.694 0.162 7.37 1.61 9.87
9/25/2021 11:45:00 AM 14.99 58.982 0.162 7.37 1.31 9.89
9/25/2021 12:00:00 PM 15.18 59.324 0.162 7.38 1.51 9.9
9/25/2021 12:15:00 PM 15.4 59.72 0.162 7.39 1.27 9.92
9/25/2021 12:30:00 PM 15.65 60.17 0.162 7.4 1.3 9.93
9/25/2021 12:45:00 PM 15.86 60.548 0.162 7.41 1.89 9.93
9/25/2021 1:00:00 PM 16.07 60.926 0.162 7.42 2.05 9.92
9/25/2021 1:15:00 PM 16.31 61.358 0.162 7.43 1.71 9.94
9/25/2021 1:30:00 PM 16.5 61.7 0.162 7.44 1.6 9.94
9/25/2021 1:45:00 PM 16.6 61.88 0.162 7.45 2.26 9.96
9/25/2021 2:00:00 PM 16.68 62.024 0.162 7.47 1.86 9.94
9/25/2021 2:15:00 PM 16.74 62.132 0.162 7.48 12.89 9.94
9/25/2021 2:30:00 PM 16.8 62.24 0.162 7.49 1.8 9.95
9/25/2021 2:45:00 PM 16.83 62.294 0.162 7.5 2.09 9.94
9/25/2021 3:00:00 PM 16.84 62.312 0.163 7.51 1.26 9.95
9/25/2021 3:15:00 PM 16.83 62.294 0.163 7.52 1.81 9.92
9/25/2021 3:30:00 PM 16.79 62.222 0.163 7.53 1.42 9.89
9/25/2021 3:45:00 PM 16.77 62.186 0.163 7.54 1.64 9.9
9/25/2021 4:00:00 PM 16.77 62.186 0.163 7.54 1.97 9.89
9/25/2021 4:15:00 PM 16.77 62.186 0.163 7.55 2.54 9.85
9/25/2021 4:30:00 PM 16.76 62.168 0.163 7.55 2.14 9.8
9/25/2021 4:45:00 PM 16.74 62.132 0.163 7.55 7.47 9.72
9/25/2021 5:00:00 PM 16.73 62.114 0.163 7.54 2.03 9.71
9/25/2021 5:15:00 PM 16.72 62.096 0.163 7.54 1.37 9.66
9/25/2021 5:30:00 PM 16.71 62.078 0.163 7.54 1.64 9.6
9/25/2021 5:45:00 PM 16.69 62.042 0.163 7.53 1.52 9.56
9/25/2021 6:00:00 PM 16.67 62.006 0.163 7.52 1.94 9.51
9/25/2021 6:15:00 PM 16.66 61.988 0.163 7.52 1.48 9.45
9/25/2021 6:30:00 PM 16.63 61.934 0.163 7.51 1.8 9.42
9/25/2021 6:45:00 PM 16.6 61.88 0.163 7.5 1.78 9.35
9/25/2021 7:00:00 PM 16.57 61.826 0.163 7.49 1.72 9.3
9/25/2021 7:15:00 PM 16.54 61.772 0.163 7.48 1.68 9.26
9/25/2021 7:30:00 PM 16.52 61.736 0.164 7.47 2.05 9.21
9/25/2021 7:45:00 PM 16.51 61.718 0.163 7.45 1.62 9.17
9/25/2021 8:00:00 PM 16.49 61.682 0.163 7.45 1.83 9.14
9/25/2021 8:15:00 PM 16.48 61.664 0.163 7.44 1.17 9.12
9/25/2021 8:30:00 PM 16.45 61.61 0.163 7.43 1.64 9.09
9/25/2021 8:45:00 PM 16.42 61.556 0.163 7.42 1.88 9.08
9/25/2021 9:00:00 PM 16.39 61.502 0.163 7.41 1.57 9.07
9/25/2021 9:15:00 PM 16.36 61.448 0.164 7.41 1.89 9.06
9/25/2021 9:30:00 PM 16.33 61.394 0.164 7.39 2.8 9.05
9/25/2021 9:45:00 PM 16.3 61.34 0.164 7.39 2.36 9.04
9/25/2021 10:00:00 PM 16.26 61.268 0.163 7.39 3 9.04
9/25/2021 10:15:00 PM 16.23 61.214 0.164 7.38 2.66 9.04
9/25/2021 10:30:00 PM 16.21 61.178 0.164 7.38 1.49 9
9/25/2021 10:45:00 PM 16.18 61.124 0.164 7.37 1.76 9.04
9/25/2021 11:00:00 PM 16.15 61.07 0.164 7.37 3.41 9.04
9/25/2021 11:15:00 PM 16.12 61.016 0.164 7.36 1.9 9.02
9/25/2021 11:30:00 PM 16.09 60.962 0.164 7.36 1.94 9.04
9/25/2021 11:45:00 PM 16.07 60.926 0.164 7.35 1.87 9.04
9/26/2021 12:00:00 AM 16.05 60.89 0.164 7.35 1.78 9.05
9/26/2021 12:15:00 AM 16.03 60.854 0.164 7.35 1.79 9.05
9/26/2021 12:30:00 AM 16.01 60.818 0.164 7.35 2.1 9.05
9/26/2021 12:45:00 AM 15.98 60.764 0.164 7.35 2.38 9.06
9/26/2021 1:00:00 AM 15.96 60.728 0.164 7.34 2.16 9.05
9/26/2021 1:15:00 AM 15.94 60.692 0.164 7.34 2.18 9.07
9/26/2021 1:30:00 AM 15.92 60.656 0.164 7.34 1.85 9.05
9/26/2021 1:45:00 AM 15.9 60.62 0.164 7.34 3.57 9.06
9/26/2021 2:00:00 AM 15.87 60.566 0.164 7.33 1.82 9.07
9/26/2021 2:15:00 AM 15.85 60.53 0.164 7.33 2.59 9.08
9/26/2021 2:30:00 AM 15.83 60.494 0.164 7.33 2.63 9.07
9/26/2021 2:45:00 AM 15.8 60.44 0.164 7.33 1.65 9.09
9/26/2021 3:00:00 AM 15.77 60.386 0.164 7.33 2.13 9.09
9/26/2021 3:15:00 AM 15.74 60.332 0.164 7.33 2.42 9.11
9/26/2021 3:30:00 AM 15.7 60.26 0.164 7.33 2.14 9.11
9/26/2021 3:45:00 AM 15.67 60.206 0.164 7.32 8.5 9.13
9/26/2021 4:00:00 AM 15.63 60.134 0.164 7.32 2.46 9.14
9/26/2021 4:15:00 AM 15.59 60.062 0.164 7.32 2.23 9.15
9/26/2021 4:30:00 AM 15.55 59.99 0.164 7.32 2.01 9.15
9/26/2021 4:45:00 AM 15.51 59.918 0.164 7.32 1.51 9.16
9/26/2021 5:00:00 AM 15.46 59.828 0.164 7.32 3.7 9.16
9/26/2021 5:15:00 AM 15.43 59.774 0.164 7.32 3.67 9.18
9/26/2021 5:30:00 AM 15.39 59.702 0.164 7.32 3.57 9.19
9/26/2021 5:45:00 AM 15.34 59.612 0.164 7.32 2.12 9.2
9/26/2021 6:00:00 AM 15.29 59.522 0.164 7.32 2.41 9.21
9/26/2021 6:15:00 AM 15.25 59.45 0.164 7.32 3.03 9.22
9/26/2021 6:30:00 AM 15.2 59.36 0.164 7.32 5.15 9.23
9/26/2021 6:45:00 AM 15.14 59.252 0.164 7.32 1.2 9.25
9/26/2021 7:00:00 AM 15.1 59.18 0.164 7.32 1.76 9.26
9/26/2021 7:15:00 AM 15.05 59.09 0.164 7.32 1.38 9.28
9/26/2021 7:30:00 AM 15 59 0.163 7.32 1.21 9.3
9/26/2021 7:45:00 AM 14.95 58.91 0.164 7.33 1.89 9.31
9/26/2021 8:00:00 AM 14.91 58.838 0.163 7.33 2.44 9.35
9/26/2021 8:15:00 AM 14.87 58.766 0.163 7.33 1.85 9.37
9/26/2021 8:30:00 AM 14.83 58.694 0.163 7.33 3.84 9.39
9/26/2021 8:45:00 AM 14.8 58.64 0.163 7.33 2.26 9.43
9/26/2021 9:00:00 AM 14.79 58.622 0.163 7.34 1.15 9.45
9/26/2021 9:15:00 AM 14.79 58.622 0.163 7.34 2.78 9.49
9/26/2021 9:30:00 AM 14.79 58.622 0.163 7.35 1.8 9.51
9/26/2021 9:45:00 AM 14.8 58.64 0.163 7.35 2.27 9.54
9/26/2021 10:00:00 AM 14.82 58.676 0.164 7.36 1.97 9.57
9/26/2021 10:15:00 AM 14.86 58.748 0.163 7.36 4.61 9.61
9/26/2021 10:30:00 AM 14.91 58.838 0.164 7.37 2.37 9.64
9/26/2021 10:45:00 AM 14.97 58.946 0.164 7.38 3.02 9.69
9/26/2021 11:00:00 AM 15.05 59.09 0.164 7.38 5.68 9.73
9/26/2021 11:15:00 AM 15.14 59.252 0.163 7.39 2.09 9.76
9/26/2021 11:30:00 AM 15.24 59.432 0.163 7.41 1.66 9.81
9/26/2021 11:45:00 AM 15.38 59.684 0.164 7.41 2.75 9.85
9/26/2021 12:00:00 PM 15.55 59.99 0.163 7.43 2.53 9.86
9/26/2021 12:15:00 PM 15.74 60.332 0.164 7.44 1.48 9.89
9/26/2021 12:30:00 PM 15.97 60.746 0.164 7.45 1.11 9.92
9/26/2021 12:45:00 PM 16.19 61.142 0.164 7.45 1.5 9.9
9/26/2021 1:00:00 PM 16.38 61.484 0.164 7.46 1.51 9.92
9/26/2021 1:15:00 PM 16.61 61.898 0.164 7.47 1.4 9.92
9/26/2021 1:30:00 PM 16.83 62.294 0.164 7.47 1.69 9.93
9/26/2021 1:45:00 PM 17.04 62.672 0.164 7.49 1.18 9.94
9/26/2021 2:00:00 PM 17.23 63.014 0.164 7.5 1.55 9.93
9/26/2021 2:15:00 PM 17.38 63.284 0.164 7.52 1.81 9.94
9/26/2021 2:30:00 PM 17.4 63.32 0.164 7.53 1.91 9.91
9/26/2021 2:45:00 PM 17.41 63.338 0.164 7.55 1.39 9.87
9/26/2021 3:00:00 PM 17.43 63.374 0.164 7.55 2.34 9.86
9/26/2021 3:15:00 PM 17.44 63.392 0.164 7.56 1.26 9.84
9/26/2021 3:30:00 PM 17.43 63.374 0.164 7.57 1.94 9.82
9/26/2021 3:45:00 PM 17.38 63.284 0.164 7.57 1.93 9.78
9/26/2021 4:00:00 PM 17.31 63.158 0.164 7.58 2.49 9.73
9/26/2021 4:15:00 PM 17.23 63.014 0.164 7.57 1.69 9.68
9/26/2021 4:30:00 PM 17.16 62.888 0.164 7.58 1.76 9.67
9/26/2021 4:45:00 PM 17.06 62.708 0.164 7.57 1.41 9.62
9/26/2021 5:00:00 PM 16.98 62.564 0.164 7.57 1.75 9.56
9/26/2021 5:15:00 PM 16.89 62.402 0.164 7.56 2.07 9.49
9/26/2021 5:30:00 PM 16.83 62.294 0.164 7.55 1.52 9.44
9/26/2021 5:45:00 PM 16.77 62.186 0.164 7.54 1.5 9.41
9/26/2021 6:00:00 PM 16.71 62.078 0.164 7.53 9.83 9.39
9/26/2021 6:15:00 PM 16.64 61.952 0.164 7.52 1.31 9.33
9/26/2021 6:30:00 PM 16.56 61.808 0.164 7.51 1.42 9.31
9/26/2021 6:45:00 PM 16.5 61.7 0.164 7.51 1.42 9.28
9/26/2021 7:00:00 PM 16.44 61.592 0.164 7.49 1.32 9.23
9/26/2021 7:15:00 PM 16.38 61.484 0.164 7.48 1.63 9.22
9/26/2021 7:30:00 PM 16.32 61.376 0.164 7.47 2.28 9.17
9/26/2021 7:45:00 PM 16.26 61.268 0.164 7.46 1.97 9.15
9/26/2021 8:00:00 PM 16.21 61.178 0.164 7.45 1.71 9.14
9/26/2021 8:15:00 PM 16.17 61.106 0.164 7.45 1.76 9.13
9/26/2021 8:30:00 PM 16.13 61.034 0.164 7.43 1.89 9.12
9/26/2021 8:45:00 PM 16.08 60.944 0.164 7.42 1.91 9.12
9/26/2021 9:00:00 PM 16.04 60.872 0.164 7.42 2.39 9.12
9/26/2021 9:15:00 PM 15.99 60.782 0.164 7.41 2 9.11
9/26/2021 9:30:00 PM 15.94 60.692 0.164 7.4 2.3 9.11
9/26/2021 9:45:00 PM 15.89 60.602 0.164 7.4 2.88 9.1
9/26/2021 10:00:00 PM 15.84 60.512 0.164 7.39 1.6 9.12
9/26/2021 10:15:00 PM 15.79 60.422 0.164 7.39 1.14 9.14
9/26/2021 10:30:00 PM 15.74 60.332 0.164 7.38 2.05 9.12
9/26/2021 10:45:00 PM 15.69 60.242 0.164 7.38 1.92 9.13
9/26/2021 11:00:00 PM 15.64 60.152 0.164 7.37 1.68 9.14
9/26/2021 11:15:00 PM 15.59 60.062 0.164 7.37 1.91 9.15
9/26/2021 11:30:00 PM 15.55 59.99 0.164 7.36 1.98 9.15
9/26/2021 11:45:00 PM 15.5 59.9 0.164 7.36 1.64 9.17
9/27/2021 12:00:00 AM 15.47 59.846 0.164 7.36 2.4 9.17
9/27/2021 12:15:00 AM 15.42 59.756 0.164 7.35 1.46 9.17
9/27/2021 12:30:00 AM 15.38 59.684 0.164 7.35 2.07 9.19
9/27/2021 12:45:00 AM 15.34 59.612 0.164 7.35 3.19 9.19
9/27/2021 1:00:00 AM 15.3 59.54 0.164 7.35 2.09 9.19
9/27/2021 1:15:00 AM 15.26 59.468 0.164 7.34 2.08 9.21
9/27/2021 1:30:00 AM 15.22 59.396 0.164 7.34 1.73 9.2
9/27/2021 1:45:00 AM 15.18 59.324 0.164 7.34 2.22 9.24
9/27/2021 2:00:00 AM 15.15 59.27 0.164 7.34 1.67 9.23
9/27/2021 2:15:00 AM 15.11 59.198 0.164 7.34 1.96 9.24
9/27/2021 2:30:00 AM 15.07 59.126 0.164 7.34 0.99 9.26
9/27/2021 2:45:00 AM 15.02 59.036 0.164 7.34 1.32 9.28
9/27/2021 3:00:00 AM 14.98 58.964 0.164 7.33 4.48 9.29
9/27/2021 3:15:00 AM 14.94 58.892 0.164 7.33 1.58 9.29
9/27/2021 3:30:00 AM 14.89 58.802 0.164 7.33 2.79 9.3
9/27/2021 3:45:00 AM 14.85 58.73 0.164 7.33 2.76 9.33
9/27/2021 4:00:00 AM 14.8 58.64 0.164 7.33 1.07 9.33
9/27/2021 4:15:00 AM 14.75 58.55 0.164 7.33 1.62 9.36
9/27/2021 4:30:00 AM 14.71 58.478 0.164 7.33 1.64 9.35
9/27/2021 4:45:00 AM 14.66 58.388 0.164 7.33 1.02 9.37
9/27/2021 5:00:00 AM 14.61 58.298 0.164 7.33 2.33 9.37
9/27/2021 5:15:00 AM 14.56 58.208 0.164 7.33 1 9.39
9/27/2021 5:30:00 AM 14.51 58.118 0.165 7.32 1.57 9.4
9/27/2021 5:45:00 AM 14.46 58.028 0.165 7.33 1.92 9.41
9/27/2021 6:00:00 AM 14.41 57.938 0.165 7.32 2.55 9.43
9/27/2021 6:15:00 AM 14.37 57.866 0.165 7.32 2.63 9.45
9/27/2021 6:30:00 AM 14.32 57.776 0.164 7.33 3.09 9.46
9/27/2021 6:45:00 AM 14.28 57.704 0.164 7.32 2.02 9.46
9/27/2021 7:00:00 AM 14.24 57.632 0.164 7.32 1.78 9.49
9/27/2021 7:15:00 AM 14.2 57.56 0.164 7.32 1.69 9.5
9/27/2021 7:30:00 AM 14.15 57.47 0.164 7.32 1.54 9.52
9/27/2021 7:45:00 AM 14.11 57.398 0.164 7.32 3.69 9.55
9/27/2021 8:00:00 AM 14.08 57.344 0.164 7.33 0.93 9.59
9/27/2021 8:15:00 AM 14.04 57.272 0.164 7.32 2.69 9.61
9/27/2021 8:30:00 AM 14.02 57.236 0.164 7.32 2.72 9.62
9/27/2021 8:45:00 AM 13.99 57.182 0.164 7.33 2.46 9.66
9/27/2021 9:00:00 AM 13.98 57.164 0.164 7.33 2.25 9.68
9/27/2021 9:15:00 AM 13.99 57.182 0.164 7.33 3.13 9.73
9/27/2021 9:30:00 AM 14 57.2 0.164 7.33 2.22 9.75
9/27/2021 9:45:00 AM 14.02 57.236 0.164 7.35 1.52 9.8
9/27/2021 10:00:00 AM 14.06 57.308 0.164 7.35 1.71 9.84
9/27/2021 10:15:00 AM 14.11 57.398 0.164 7.35 2.12 9.86
9/27/2021 10:30:00 AM 14.19 57.542 0.164 7.36 1.23 9.91
9/27/2021 10:45:00 AM 14.27 57.686 0.164 7.37 1.11 9.96
9/27/2021 11:00:00 AM 14.38 57.884 0.164 7.37 1.91 10
9/27/2021 11:15:00 AM 14.5 58.1 0.164 7.38 1.17 10.04
9/27/2021 11:30:00 AM 14.63 58.334 0.164 7.39 1.28 10.08
9/27/2021 11:45:00 AM 14.79 58.622 0.164 7.4 0.92 10.09
9/27/2021 12:00:00 PM 14.98 58.964 0.164 7.42 0.37 10.13
9/27/2021 12:15:00 PM 15.19 59.342 0.164 7.43 0.55 10.17
9/27/2021 12:30:00 PM 15.44 59.792 0.164 7.44 1.36 10.2
9/27/2021 12:45:00 PM 15.71 60.278 0.164 7.45 1.2 10.2
9/27/2021 1:00:00 PM 15.91 60.638 0.164 7.46 1.14 10.2
9/27/2021 1:15:00 PM 16.19 61.142 0.164 7.48 0.84 10.21
9/27/2021 1:30:00 PM 16.44 61.592 0.164 7.5 1.27 10.21
9/27/2021 1:45:00 PM 16.68 62.024 0.164 7.51 1.36 10.19
9/27/2021 2:00:00 PM 16.95 62.51 0.164 7.52 1.26 10.2
9/27/2021 2:15:00 PM 17.16 62.888 0.165 7.53 0.85 10.2
9/27/2021 2:30:00 PM 17.2 62.96 0.165 7.55 1.02 10.15
9/27/2021 2:45:00 PM 17.25 63.05 0.165 7.56 1.09 10.13
9/27/2021 3:00:00 PM 17.31 63.158 0.165 7.57 2.23 10.09
9/27/2021 3:15:00 PM 17.36 63.248 0.165 7.58 1.14 10.06
9/27/2021 3:30:00 PM 17.37 63.266 0.165 7.59 1.11 10.04
9/27/2021 3:45:00 PM 17.34 63.212 0.166 7.59 1.13 10
9/27/2021 4:00:00 PM 17.3 63.14 0.166 7.6 1.04 9.96
9/27/2021 4:15:00 PM 17.25 63.05 0.166 7.6 1.07 9.91
9/27/2021 4:30:00 PM 17.19 62.942 0.166 7.6 0.89 9.85
9/27/2021 4:45:00 PM 17.11 62.798 0.166 7.6 0.87 9.82
9/27/2021 5:00:00 PM 17.04 62.672 0.166 7.6 0.63 9.73
9/27/2021 5:15:00 PM 16.96 62.528 0.166 7.59 2.68 9.67
9/27/2021 5:30:00 PM 16.9 62.42 0.166 7.58 1.26 9.61
9/27/2021 5:45:00 PM 16.85 62.33 0.166 7.57 1.03 9.55
9/27/2021 6:00:00 PM 16.8 62.24 0.166 7.56 0.78 9.51
9/27/2021 6:15:00 PM 16.74 62.132 0.166 7.55 1.1 9.47
9/27/2021 6:30:00 PM 16.7 62.06 0.166 7.54 0.8 9.41
9/27/2021 6:45:00 PM 16.65 61.97 0.166 7.53 0.73 9.33
9/27/2021 7:00:00 PM 16.6 61.88 0.166 7.52 1.35 9.28
9/27/2021 7:15:00 PM 16.56 61.808 0.166 7.5 1.01 9.22
9/27/2021 7:30:00 PM 16.52 61.736 0.166 7.48 0.67 9.18
9/27/2021 7:45:00 PM 16.49 61.682 0.166 7.47 1.41 9.14
9/27/2021 8:00:00 PM 16.46 61.628 0.166 7.46 1.09 9.12
9/27/2021 8:15:00 PM 16.44 61.592 0.166 7.45 1.35 9.08
9/27/2021 8:30:00 PM 16.42 61.556 0.166 7.44 2.2 9.07
9/27/2021 8:45:00 PM 16.41 61.538 0.166 7.43 1.19 9.06
9/27/2021 9:00:00 PM 16.39 61.502 0.166 7.43 1.46 9.03
9/27/2021 9:15:00 PM 16.37 61.466 0.166 7.41 1.19 9.02
9/27/2021 9:30:00 PM 16.35 61.43 0.166 7.41 1.54 9
9/27/2021 9:45:00 PM 16.33 61.394 0.166 7.39 0.94 9.01
9/27/2021 10:00:00 PM 16.31 61.358 0.166 7.39 2.33 9.01
9/27/2021 10:15:00 PM 16.28 61.304 0.166 7.38 1.24 9.02
9/27/2021 10:30:00 PM 16.26 61.268 0.166 7.38 2.15 8.99
9/27/2021 10:45:00 PM 16.23 61.214 0.166 7.38 1.05 9
9/27/2021 11:00:00 PM 16.21 61.178 0.166 7.37 1.55 8.98
9/27/2021 11:15:00 PM 16.19 61.142 0.166 7.36 1.39 9
9/27/2021 11:30:00 PM 16.17 61.106 0.166 7.36 1.87 9
9/27/2021 11:45:00 PM 16.15 61.07 0.166 7.35 0.98 8.99
9/28/2021 12:00:00 AM 16.13 61.034 0.166 7.35 1.74 9
9/28/2021 12:15:00 AM 16.12 61.016 0.166 7.35 1.75 9
9/28/2021 12:30:00 AM 16.11 60.998 0.166 7.34 1.15 9.01
9/28/2021 12:45:00 AM 16.09 60.962 0.166 7.34 1.41 9.01
9/28/2021 1:00:00 AM 16.08 60.944 0.166 7.33 1.95 9.01
9/28/2021 1:15:00 AM 16.07 60.926 0.166 7.34 1.46 9
9/28/2021 1:30:00 AM 16.06 60.908 0.166 7.33 2.06 9.01
9/28/2021 1:45:00 AM 16.04 60.872 0.165 7.33 1.45 9.01
9/28/2021 2:00:00 AM 16.03 60.854 0.165 7.33 0.97 9.01
9/28/2021 2:15:00 AM 16.02 60.836 0.165 7.33 1.08 9.02
9/28/2021 2:30:00 AM 16 60.8 0.165 7.32 1.47 9.02
9/28/2021 2:45:00 AM 15.99 60.782 0.165 7.32 1.08 9.03
9/28/2021 3:00:00 AM 15.97 60.746 0.165 7.33 1.16 9.01
9/28/2021 3:15:00 AM 15.95 60.71 0.165 7.32 0.84 9.03
9/28/2021 3:30:00 AM 15.93 60.674 0.165 7.32 1.07 9.03
9/28/2021 3:45:00 AM 15.91 60.638 0.165 7.32 1.99 9.03
9/28/2021 4:00:00 AM 15.89 60.602 0.165 7.32 1.15 9.04
9/28/2021 4:15:00 AM 15.87 60.566 0.165 7.32 1.42 9.05
9/28/2021 4:30:00 AM 15.84 60.512 0.165 7.31 1.03 9.05
9/28/2021 4:45:00 AM 15.83 60.494 0.165 7.31 1.19 9.05
9/28/2021 5:00:00 AM 15.81 60.458 0.166 7.31 1.25 9.06
9/28/2021 5:15:00 AM 15.79 60.422 0.165 7.31 1.15 9.07
9/28/2021 5:30:00 AM 15.77 60.386 0.166 7.31 1.94 9.07
9/28/2021 5:45:00 AM 15.75 60.35 0.166 7.3 1.26 9.07
9/28/2021 6:00:00 AM 15.73 60.314 0.166 7.3 0.96 9.08
9/28/2021 6:15:00 AM 15.72 60.296 0.166 7.3 1.07 9.08
9/28/2021 6:30:00 AM 15.71 60.278 0.166 7.3 1.61 9.09
9/28/2021 6:45:00 AM 15.7 60.26 0.166 7.3 1.99 9.09
9/28/2021 7:00:00 AM 15.69 60.242 0.166 7.3 1.56 9.1
9/28/2021 7:15:00 AM 15.68 60.224 0.166 7.3 3.58 9.11
9/28/2021 7:30:00 AM 15.67 60.206 0.166 7.3 1.29 9.12
9/28/2021 7:45:00 AM 15.67 60.206 0.166 7.3 1.03 9.15
9/28/2021 8:00:00 AM 15.67 60.206 0.166 7.3 1.2 9.19
9/28/2021 8:15:00 AM 15.68 60.224 0.166 7.3 1.88 9.22
9/28/2021 8:30:00 AM 15.69 60.242 0.166 7.31 1.65 9.24
9/28/2021 8:45:00 AM 15.69 60.242 0.166 7.31 2.94 9.25
9/28/2021 9:00:00 AM 15.69 60.242 0.165 7.31 1.67 9.25
9/28/2021 9:15:00 AM 15.7 60.26 0.165 7.31 0.79 9.29
9/28/2021 9:30:00 AM 15.72 60.296 0.165 7.31 1.62 9.37
9/28/2021 9:45:00 AM 15.75 60.35 0.165 7.32 1.46 9.44
9/28/2021 10:00:00 AM 15.8 60.44 0.165 7.32 1.37 9.53
9/28/2021 10:15:00 AM 15.84 60.512 0.165 7.33 0.88 9.64
9/28/2021 10:30:00 AM 15.88 60.584 0.165 7.34 1.12 9.67
9/28/2021 10:45:00 AM 15.93 60.674 0.165 7.35 0.94 9.72
9/28/2021 11:00:00 AM 16 60.8 0.165 7.36 0.98 9.82
9/28/2021 11:15:00 AM 16.06 60.908 0.165 7.37 0.5 9.89
9/28/2021 11:30:00 AM 16.13 61.034 0.165 7.38 2.4 9.93
9/28/2021 11:45:00 AM 16.26 61.268 0.164 7.4 1.29 10.01
9/28/2021 12:00:00 PM 16.38 61.484 0.164 7.41 0.93 10.1
9/28/2021 12:15:00 PM 16.47 61.646 0.164 7.44 0.92 10.13
9/28/2021 12:30:00 PM 16.59 61.862 0.164 7.45 1.62 10.17
9/28/2021 12:45:00 PM 16.64 61.952 0.164 7.47 1.04 10.12
9/28/2021 1:00:00 PM 16.7 62.06 0.164 7.48 0.75 10.02
9/28/2021 1:15:00 PM 16.8 62.24 0.164 7.48 0.75 9.98
9/28/2021 1:30:00 PM 16.89 62.402 0.164 7.48 0.97 10.01
9/28/2021 1:45:00 PM 17.03 62.654 0.164 7.5 0.63 10.1
9/28/2021 2:00:00 PM 17.17 62.906 0.164 7.52 0.74 10.21
9/28/2021 2:15:00 PM 17.24 63.032 0.164 7.55 1.19 10.2
9/28/2021 2:30:00 PM 17.29 63.122 0.164 7.57 0.84 10.17
9/28/2021 2:45:00 PM 17.35 63.23 0.164 7.59 1.07 10.18
9/28/2021 3:00:00 PM 17.38 63.284 0.164 7.61 0.6 10.14
9/28/2021 3:15:00 PM 17.42 63.356 0.164 7.62 0.8 10.06
9/28/2021 3:30:00 PM 17.48 63.464 0.164 7.63 0.83 10.07
9/28/2021 3:45:00 PM 17.56 63.608 0.164 7.63 1.41 10.13
9/28/2021 4:00:00 PM 17.62 63.716 0.164 7.66 0.93 10.14
9/28/2021 4:15:00 PM 17.65 63.77 0.164 7.67 1.29 10.1
9/28/2021 4:30:00 PM 17.67 63.806 0.164 7.68 0.9 10.05
9/28/2021 4:45:00 PM 17.66 63.788 0.165 7.69 0.98 9.97
9/28/2021 5:00:00 PM 17.64 63.752 0.165 7.69 1.41 9.89
9/28/2021 5:15:00 PM 17.64 63.752 0.165 7.69 1.02 9.77
9/28/2021 5:30:00 PM 17.62 63.716 0.165 7.68 1.52 9.67
9/28/2021 5:45:00 PM 17.61 63.698 0.165 7.67 1.14 9.58
9/28/2021 6:00:00 PM 17.6 63.68 0.165 7.65 0.93 9.5
9/28/2021 6:15:00 PM 17.57 63.626 0.165 7.63 0.73 9.41
9/28/2021 6:30:00 PM 17.54 63.572 0.165 7.62 0.91 9.32
9/28/2021 6:45:00 PM 17.5 63.5 0.165 7.6 0.48 9.24
9/28/2021 7:00:00 PM 17.46 63.428 0.166 7.58 0.97 9.17
9/28/2021 7:15:00 PM 17.42 63.356 0.166 7.55 0.79 9.08
9/28/2021 7:30:00 PM 17.4 63.32 0.166 7.53 0.93 9.03
9/28/2021 7:45:00 PM 17.38 63.284 0.166 7.51 1.26 8.98
9/28/2021 8:00:00 PM 17.36 63.248 0.166 7.49 1.01 8.94
9/28/2021 8:15:00 PM 17.35 63.23 0.166 7.47 0.86 8.89
9/28/2021 8:30:00 PM 17.34 63.212 0.166 7.46 0.79 8.86
9/28/2021 8:45:00 PM 17.33 63.194 0.166 7.44 1.14 8.84
9/28/2021 9:00:00 PM 17.32 63.176 0.166 7.43 1.14 8.82
9/28/2021 9:15:00 PM 17.3 63.14 0.166 7.42 0.75 8.81
9/28/2021 9:30:00 PM 17.29 63.122 0.166 7.41 1.15 8.78
9/28/2021 9:45:00 PM 17.27 63.086 0.166 7.4 1.09 8.77
9/28/2021 10:00:00 PM 17.26 63.068 0.167 7.39 1.55 8.75
9/28/2021 10:15:00 PM 17.25 63.05 0.167 7.38 1.26 8.76
9/28/2021 10:30:00 PM 17.23 63.014 0.167 7.38 1.61 8.74
9/28/2021 10:45:00 PM 17.22 62.996 0.168 7.36 1.2 8.76
9/28/2021 11:00:00 PM 17.19 62.942 0.168 7.36 1.13 8.75
9/28/2021 11:15:00 PM 17.17 62.906 0.168 7.36 1.78 8.75
9/28/2021 11:30:00 PM 17.14 62.852 0.168 7.35 1.42 8.73
9/28/2021 11:45:00 PM 17.12 62.816 0.168 7.35 1.88 8.74
9/29/2021 12:00:00 AM 17.08 62.744 0.169 7.34 1.06 8.73
9/29/2021 12:15:00 AM 17.05 62.69 0.169 7.34 1.26 8.74
9/29/2021 12:30:00 AM 17.01 62.618 0.169 7.34 1.22 8.74
9/29/2021 12:45:00 AM 16.98 62.564 0.169 7.33 1.63 8.76
9/29/2021 1:00:00 AM 16.94 62.492 0.169 7.33 1.09 8.76
9/29/2021 1:15:00 AM 16.91 62.438 0.169 7.32 2.02 8.76
9/29/2021 1:30:00 AM 16.87 62.366 0.169 7.32 1.61 8.77
9/29/2021 1:45:00 AM 16.83 62.294 0.169 7.32 1.09 8.77
9/29/2021 2:00:00 AM 16.79 62.222 0.169 7.32 1.41 8.8
9/29/2021 2:15:00 AM 16.76 62.168 0.169 7.32 1.51 8.8
9/29/2021 2:30:00 AM 16.74 62.132 0.169 7.32 1.01 8.79
9/29/2021 2:45:00 AM 16.71 62.078 0.169 7.31 1.24 8.81
9/29/2021 3:00:00 AM 16.69 62.042 0.169 7.31 0.94 8.82
9/29/2021 3:15:00 AM 16.67 62.006 0.169 7.31 0.7 8.82
9/29/2021 3:30:00 AM 16.64 61.952 0.169 7.3 1.01 8.83
9/29/2021 3:45:00 AM 16.61 61.898 0.169 7.29 0.83 8.84
9/29/2021 4:00:00 AM 16.57 61.826 0.168 7.29 1.41 8.83
9/29/2021 4:15:00 AM 16.53 61.754 0.168 7.29 1.75 8.85
9/29/2021 4:30:00 AM 16.49 61.682 0.168 7.29 4.29 8.87
9/29/2021 4:45:00 AM 16.44 61.592 0.168 7.28 0.86 8.87
9/29/2021 5:00:00 AM 16.4 61.52 0.168 7.28 1.33 8.88
9/29/2021 5:15:00 AM 16.36 61.448 0.168 7.29 1.89 8.89
9/29/2021 5:30:00 AM 16.32 61.376 0.169 7.29 1.4 8.9
9/29/2021 5:45:00 AM 16.27 61.286 0.168 7.29 2.3 8.91
9/29/2021 6:00:00 AM 16.22 61.196 0.169 7.29 1.67 8.93
9/29/2021 6:15:00 AM 16.17 61.106 0.168 7.29 1.33 8.95
9/29/2021 6:30:00 AM 16.12 61.016 0.168 7.3 0.91 8.95
9/29/2021 6:45:00 AM 16.07 60.926 0.168 7.3 0.84 8.97
9/29/2021 7:00:00 AM 16.03 60.854 0.168 7.3 1.62 8.99
9/29/2021 7:15:00 AM 15.98 60.764 0.168 7.3 1.17 8.99
9/29/2021 7:30:00 AM 15.95 60.71 0.168 7.31 2.42 9.02
9/29/2021 7:45:00 AM 15.91 60.638 0.167 7.31 0.72 9.05
9/29/2021 8:00:00 AM 15.87 60.566 0.167 7.3 1.57 9.08
9/29/2021 8:15:00 AM 15.83 60.494 0.167 7.32 10.57 9.14
9/29/2021 8:30:00 AM 15.8 60.44 0.167 7.32 2.16 9.21
9/29/2021 8:45:00 AM 15.77 60.386 0.167 7.33 1.49 9.28
9/29/2021 9:00:00 AM 15.74 60.332 0.167 7.34 1 9.35
9/29/2021 9:15:00 AM 15.73 60.314 0.167 7.35 1.29 9.43
9/29/2021 9:30:00 AM 15.73 60.314 0.166 7.35 1.15 9.53
9/29/2021 9:45:00 AM 15.74 60.332 0.166 7.37 0.61 9.64
9/29/2021 10:00:00 AM 15.76 60.368 0.166 7.39 0.79 9.77
9/29/2021 10:15:00 AM 15.79 60.422 0.166 7.41 0.8 9.91
9/29/2021 10:30:00 AM 15.78 60.404 0.166 7.43 1.15 10
9/29/2021 10:45:00 AM 15.8 60.44 0.166 7.45 1.09 10.05
9/29/2021 11:00:00 AM 15.84 60.512 0.166 7.47 1.06 10.07
9/29/2021 11:15:00 AM 15.9 60.62 0.165 7.49 0.53 10.08
9/29/2021 11:30:00 AM 15.95 60.71 0.165 7.5 0.6 10.07
9/29/2021 11:45:00 AM 16 60.8 0.165 7.52 0.5 10.09
9/29/2021 12:00:00 PM 16.11 60.998 0.165 7.53 0.98 10.14
9/29/2021 12:15:00 PM 16.23 61.214 0.165 7.55 0.73 10.21
9/29/2021 12:30:00 PM 16.42 61.556 0.165 7.56 0.54 10.27
9/29/2021 12:45:00 PM 16.63 61.934 0.165 7.58 0.9 10.28
9/29/2021 1:00:00 PM 16.74 62.132 0.165 7.59 1.06 10.3
9/29/2021 1:15:00 PM 16.97 62.546 0.165 7.61 0.88 10.3
9/29/2021 1:30:00 PM 17.14 62.852 0.165 7.62 0.79 10.34
9/29/2021 1:45:00 PM 17.35 63.23 0.165 7.64 1.19 10.34
9/29/2021 2:00:00 PM 17.64 63.752 0.164 7.65 0.96 10.36
9/29/2021 2:15:00 PM 17.82 64.076 0.165 7.67 0.86 10.36
9/29/2021 2:30:00 PM 17.8 64.04 0.165 7.68 1.43 10.33
9/29/2021 2:45:00 PM 17.83 64.094 0.165 7.7 0.65 10.27
9/29/2021 3:00:00 PM 17.87 64.166 0.165 7.71 0.79 10.22
9/29/2021 3:15:00 PM 17.89 64.202 0.165 7.73 0.69 10.2
9/29/2021 3:30:00 PM 17.87 64.166 0.165 7.74 0.76 10.16
9/29/2021 3:45:00 PM 17.82 64.076 0.165 7.75 0.63 10.14
9/29/2021 4:00:00 PM 17.75 63.95 0.165 7.76 1.32 10.07
9/29/2021 4:15:00 PM 17.66 63.788 0.166 7.77 1.12 10.01
9/29/2021 4:30:00 PM 17.61 63.698 0.166 7.77 0.7 9.98
9/29/2021 4:45:00 PM 17.46 63.428 0.166 7.77 1.1 9.91
9/29/2021 5:00:00 PM 17.34 63.212 0.166 7.76 0.68 9.81
9/29/2021 5:15:00 PM 17.22 62.996 0.166 7.75 0.77 9.73
9/29/2021 5:30:00 PM 17.12 62.816 0.166 7.73 0.44 9.66
9/29/2021 5:45:00 PM 17.01 62.618 0.166 7.72 1.51 9.62
9/29/2021 6:00:00 PM 16.91 62.438 0.166 7.7 0.85 9.57
9/29/2021 6:15:00 PM 16.8 62.24 0.167 7.69 0.77 9.51
9/29/2021 6:30:00 PM 16.7 62.06 0.167 7.67 0.86 9.45
9/29/2021 6:45:00 PM 16.59 61.862 0.167 7.65 0.69 9.39
9/29/2021 7:00:00 PM 16.51 61.718 0.167 7.63 0.69 9.33
9/29/2021 7:15:00 PM 16.41 61.538 0.167 7.61 0.63 9.27
9/29/2021 7:30:00 PM 16.33 61.394 0.167 7.59 0.75 9.24
9/29/2021 7:45:00 PM 16.24 61.232 0.167 7.57 1.17 9.21
9/29/2021 8:00:00 PM 16.17 61.106 0.167 7.55 0.51 9.2
9/29/2021 8:15:00 PM 16.11 60.998 0.167 7.54 1.04 9.16
9/29/2021 8:30:00 PM 16.04 60.872 0.167 7.52 0.97 9.13
9/29/2021 8:45:00 PM 15.98 60.764 0.167 7.5 0.93 9.12
9/29/2021 9:00:00 PM 15.93 60.674 0.167 7.49 1.31 9.12
9/29/2021 9:15:00 PM 15.87 60.566 0.167 7.48 1.34 9.11
9/29/2021 9:30:00 PM 15.81 60.458 0.167 7.47 0.55 9.09
9/29/2021 9:45:00 PM 15.75 60.35 0.167 7.46 0.68 9.09
9/29/2021 10:00:00 PM 15.69 60.242 0.167 7.44 0.86 9.1
9/29/2021 10:15:00 PM 15.62 60.116 0.167 7.43 0.93 9.11
9/29/2021 10:30:00 PM 15.56 60.008 0.167 7.43 1.23 9.12
9/29/2021 10:45:00 PM 15.49 59.882 0.167 7.42 0.66 9.13
9/29/2021 11:00:00 PM 15.42 59.756 0.167 7.41 0.33 9.15
9/29/2021 11:15:00 PM 15.36 59.648 0.167 7.41 0.48 9.14
9/29/2021 11:30:00 PM 15.3 59.54 0.167 7.4 1.24 9.14
9/29/2021 11:45:00 PM 15.24 59.432 0.167 7.39 0.67 9.16
9/30/2021 12:00:00 AM 15.18 59.324 0.167 7.39 1.28 9.17
9/30/2021 12:15:00 AM 15.13 59.234 0.167 7.37 0.69 9.19
9/30/2021 12:30:00 AM 15.08 59.144 0.167 7.38 0.73 9.2
9/30/2021 12:45:00 AM 15.03 59.054 0.167 7.37 0.84 9.2
9/30/2021 1:00:00 AM 15 59 0.167 7.37 1.64 9.22
9/30/2021 1:15:00 AM 14.96 58.928 0.167 7.36 1.66 9.22
9/30/2021 1:30:00 AM 14.93 58.874 0.167 7.36 1.49 9.23
9/30/2021 1:45:00 AM 14.9 58.82 0.167 7.36 1.19 9.24
9/30/2021 2:00:00 AM 14.87 58.766 0.167 7.35 1.1 9.24
9/30/2021 2:15:00 AM 14.84 58.712 0.167 7.35 1.63 9.26
9/30/2021 2:30:00 AM 14.79 58.622 0.167 7.35 1.32 9.24
9/30/2021 2:45:00 AM 14.75 58.55 0.167 7.35 0.59 9.28
9/30/2021 3:00:00 AM 14.72 58.496 0.167 7.35 1.59 9.29
9/30/2021 3:15:00 AM 14.68 58.424 0.167 7.35 0.8 9.31
9/30/2021 3:30:00 AM 14.62 58.316 0.167 7.34 1.6 9.31
9/30/2021 3:45:00 AM 14.59 58.262 0.167 7.34 1.21 9.32
9/30/2021 4:00:00 AM 14.55 58.19 0.167 7.34 1.38 9.33
9/30/2021 4:15:00 AM 14.5 58.1 0.167 7.34 1.36 9.34
9/30/2021 4:30:00 AM 14.46 58.028 0.167 7.34 0.85 9.34
9/30/2021 4:45:00 AM 14.4 57.92 0.167 7.33 1.02 9.36
9/30/2021 5:00:00 AM 14.36 57.848 0.167 7.33 1.07 9.35
9/30/2021 5:15:00 AM 14.3 57.74 0.167 7.33 0.89 9.39
9/30/2021 5:30:00 AM 14.25 57.65 0.167 7.34 1.73 9.4
9/30/2021 5:45:00 AM 14.19 57.542 0.167 7.32 0.54 9.41
9/30/2021 6:00:00 AM 14.14 57.452 0.167 7.33 1.48 9.42
9/30/2021 6:15:00 AM 14.08 57.344 0.167 7.33 1.63 9.44
9/30/2021 6:30:00 AM 14.02 57.236 0.167 7.32 1.64 9.44
9/30/2021 6:45:00 AM 13.97 57.146 0.167 7.33 1.64 9.46
9/30/2021 7:00:00 AM 13.91 57.038 0.167 7.32 1.69 9.48
9/30/2021 7:15:00 AM 13.85 56.93 0.167 7.32 1.15 9.49
9/30/2021 7:30:00 AM 13.79 56.822 0.167 7.32 0.83 9.52
9/30/2021 7:45:00 AM 13.74 56.732 0.166 7.33 1.4 9.55
9/30/2021 8:00:00 AM 13.69 56.642 0.166 7.32 26.95 9.61
9/30/2021 8:15:00 AM 13.64 56.552 0.166 7.32 3.09 9.64
9/30/2021 8:30:00 AM 13.6 56.48 0.166 7.33 1.06 9.7
9/30/2021 8:45:00 AM 13.57 56.426 0.166 7.33 1.49 9.74
9/30/2021 9:00:00 AM 13.55 56.39 0.166 7.33 0.71 9.79
9/30/2021 9:15:00 AM 13.54 56.372 0.166 7.34 1.94 9.87
9/30/2021 9:30:00 AM 13.56 56.408 0.166 7.34 1.31 9.93
9/30/2021 9:45:00 AM 13.58 56.444 0.166 7.35 0.87 9.99
9/30/2021 10:00:00 AM 13.62 56.516 0.166 7.36 0.96 10.05
9/30/2021 10:15:00 AM 13.66 56.588 0.166 7.36 0.68 10.1
9/30/2021 10:30:00 AM 13.